Darstellungsparameter: Aktuell verwendete Einstellungen:
Skalierung der Graphiken ... ?
xyx+y,   Skalierungsfaktor:      Skalierung: Modus: x, Faktor: 1
Darstellungszeitraum ... ?
Vom - - bis: - -   Zeitraum: 11.08.2003 - 10.11.2003
Min/Max/Avg-Anzeige ... ?
Zeige MMA aktuell
Zeige MMA Monat
Zeige MMA alles
Zeige --A aktuell
Zeige --A Monat
Zeige --A alles
Keine MMA-Anzeige
MMA:
Average (ber die Originaldaten)
MMA-Basis: 17.04.2019 - 19.05.2019
Quicknavigation für Darstellung... ?
Tage:      1T, 2T, 3T, 5T -1T -2T -3T -5T +1T +2T +3T +5T
Wochen: 1W, 2W, 3W -1W -2W -3W +1W +2W +3W
Monate: 1M, 3M, 6M -1M -3M -6M +1M +3M +6M
Jahre:    1J, 3J, 5J, 10J -1J -3J -5J -10J +1J +3J +5J +10J
Nutze für die Darstellung ... ?
Originaldaten oder Mittelwerte auf ...
Stundenbasis Tagesbasis Wochenbasis
Monatsbasis Jahresbasis      Datenbasis: Original-Daten
Darstellen als:
Statistik (Auto) Statistik J:M      Darstellung:
Zur Graphik,    zurück zur Übersicht aller Sensoren.
 
Tabellarische Datenbersicht: ?
 
Sensor: Nr:Datum:Temp:Abs-Feuchte:Windchill:Wind:
Aussen-T/F 1 11-08-2003 00:06:03 24.5 C 8.28 g/m*3 24.5 C 0 km/h
2 11-08-2003 00:16:03 24.3 C 8.41 g/m*3 24.3 C 0 km/h
3 11-08-2003 00:26:03 23.9 C 8.44 g/m*3 23.9 C 0 km/h
4 11-08-2003 00:36:03 23.5 C 8.67 g/m*3 23.5 C 0 km/h
5 11-08-2003 00:46:03 23.4 C 8.62 g/m*3 23.4 C 0 km/h
6 11-08-2003 00:56:03 23.3 C 8.78 g/m*3 23.3 C 0 km/h
7 11-08-2003 01:06:03 23.1 C 8.89 g/m*3 23.1 C 0 km/h
8 11-08-2003 01:16:03 22.9 C 9.2 g/m*3 22.9 C 0 km/h
9 11-08-2003 01:26:03 22.8 C 8.94 g/m*3 22.8 C 0 km/h
10 11-08-2003 01:36:03 22.5 C 8.79 g/m*3 22.5 C 0 km/h
11 11-08-2003 01:46:03 22.5 C 8.79 g/m*3 22.5 C 0 km/h
12 11-08-2003 01:56:03 22.2 C 8.64 g/m*3 22.2 C 0 km/h
13 11-08-2003 02:06:03 22 C 8.73 g/m*3 22 C 0 km/h
14 11-08-2003 02:16:03 21.8 C 8.83 g/m*3 21.8 C 0 km/h
15 11-08-2003 02:26:03 21.3 C 8.76 g/m*3 21.3 C 0 km/h
16 11-08-2003 02:36:03 21.1 C 8.84 g/m*3 21.1 C 0 km/h
17 11-08-2003 02:46:03 20.9 C 8.92 g/m*3 20.9 C 0 km/h
18 11-08-2003 02:56:03 20.9 C 8.92 g/m*3 20.9 C 0 km/h
19 11-08-2003 03:06:03 20.7 C 9 g/m*3 20.7 C 0 km/h
20 11-08-2003 03:16:03 20.5 C 8.9 g/m*3 20.5 C 0 km/h
21 11-08-2003 03:26:03 20.4 C 9.02 g/m*3 20.4 C 0 km/h
22 11-08-2003 03:36:03 20.2 C 8.92 g/m*3 20.2 C 0 km/h
23 11-08-2003 03:46:03 20 C 8.99 g/m*3 20 C 0 km/h
24 11-08-2003 03:56:03 19.8 C 9.22 g/m*3 19.8 C 0 km/h
25 11-08-2003 04:06:03 19.7 C 9.17 g/m*3 19.7 C 0 km/h
Sensor: Nr:Datum:Temp:Abs-Feuchte:Windchill:Wind:
Aussen-T/F 26 11-08-2003 04:16:03 19.7 C 9.17 g/m*3 19.7 C 0 km/h
27 11-08-2003 04:26:03 19.5 C 9.23 g/m*3 19.5 C 0 km/h
28 11-08-2003 04:36:03 19.3 C 9.29 g/m*3 19.3 C 0 km/h
29 11-08-2003 04:46:03 19.1 C 9.18 g/m*3 19.1 C 0 km/h
30 11-08-2003 04:56:03 19 C 9.29 g/m*3 19 C 0 km/h
31 11-08-2003 05:06:03 18.9 C 9.4 g/m*3 18.9 C 0 km/h
32 11-08-2003 05:16:03 18.7 C 9.45 g/m*3 18.7 C 0 km/h
33 11-08-2003 05:26:03 18.7 C 9.45 g/m*3 18.7 C 0 km/h
34 11-08-2003 05:36:03 18.4 C 9.28 g/m*3 18.4 C 0 km/h
35 11-08-2003 05:46:03 18.3 C 9.38 g/m*3 18.3 C 0 km/h
36 11-08-2003 05:56:03 18.3 C 9.38 g/m*3 18.3 C 0 km/h
37 11-08-2003 06:06:03 18.1 C 9.43 g/m*3 18.1 C 0 km/h
38 11-08-2003 06:16:03 18 C 9.37 g/m*3 18 C 0 km/h
39 11-08-2003 06:26:03 17.7 C 9.51 g/m*3 17.7 C 0 km/h
40 11-08-2003 06:36:03 17.8 C 9.71 g/m*3 17.8 C 0 km/h
41 11-08-2003 06:46:03 17.6 C 9.6 g/m*3 17.6 C 0 km/h
42 11-08-2003 06:56:03 17.7 C 9.66 g/m*3 17.7 C 0 km/h
43 11-08-2003 07:06:03 17.6 C 9.6 g/m*3 17.6 C 0 km/h
44 11-08-2003 07:16:03 17.5 C 9.69 g/m*3 17.5 C 0 km/h
45 11-08-2003 07:26:03 17.5 C 9.69 g/m*3 17.5 C 0 km/h
46 11-08-2003 07:36:03 17.7 C 9.81 g/m*3 17.7 C 0 km/h
47 11-08-2003 07:46:03 17.9 C 9.77 g/m*3 17.9 C 0 km/h
48 11-08-2003 07:56:03 18.1 C 9.89 g/m*3 18.1 C 0 km/h
49 11-08-2003 08:06:03 18.3 C 9.85 g/m*3 18.3 C 0 km/h
50 11-08-2003 08:16:03 18.7 C 10.09 g/m*3 18.7 C 0 km/h
Sensor: Nr:Datum:Temp:Abs-Feuchte:Windchill:Wind:
Aussen-T/F 51 11-08-2003 08:26:03 19 C 9.94 g/m*3 19 C 0 km/h
52 11-08-2003 08:36:03 19.2 C 9.89 g/m*3 19.2 C 0 km/h
53 11-08-2003 08:46:03 19.4 C 9.84 g/m*3 19.4 C 0 km/h
54 11-08-2003 08:56:03 19.8 C 10.08 g/m*3 19.8 C 0 km/h
55 11-08-2003 09:06:03 20.1 C 9.56 g/m*3 20.1 C 0 km/h
56 11-08-2003 09:16:03 20.4 C 9.73 g/m*3 20.4 C 0 km/h
57 11-08-2003 09:26:03 20.9 C 10.2 g/m*3 20.9 C 0 km/h
58 11-08-2003 09:36:03 21.5 C 9.99 g/m*3 21.5 C 0 km/h
59 11-08-2003 09:46:03 22 C 9.7 g/m*3 22 C 0 km/h
60 11-08-2003 09:56:03 22.8 C 10.16 g/m*3 22.8 C 0 km/h
61 11-08-2003 10:06:03 23.3 C 10.25 g/m*3 23.3 C 0 km/h
62 11-08-2003 10:16:03 23.9 C 10.17 g/m*3 23.9 C 0 km/h
63 11-08-2003 10:26:03 24.5 C 10.3 g/m*3 24.5 C 0 km/h
64 11-08-2003 10:36:03 25.1 C 9.95 g/m*3 25.1 C 0 km/h
65 11-08-2003 10:46:03 25.7 C 10.29 g/m*3 25.7 C 0 km/h
66 11-08-2003 10:56:03 26.2 C 10.34 g/m*3 26.2 C 0 km/h
67 11-08-2003 11:06:03 26.8 C 10.44 g/m*3 26.8 C 0 km/h
68 11-08-2003 11:16:03 27.4 C 10.26 g/m*3 27.4 C 0 km/h
69 11-08-2003 11:26:03 27.9 C 10.28 g/m*3 27.9 C 0 km/h
70 11-08-2003 11:36:03 28.6 C 10.4 g/m*3 28.6 C 0 km/h
71 11-08-2003 11:46:03 28.8 C 10.23 g/m*3 28.8 C 0 km/h
72 11-08-2003 11:56:03 29.2 C 10.16 g/m*3 29.2 C 0 km/h
73 11-08-2003 12:06:03 29.6 C 10.09 g/m*3 29.6 C 0 km/h
74 11-08-2003 12:16:03 30.1 C 9.76 g/m*3 30.1 C 0 km/h
75 11-08-2003 12:26:03 30.4 C 9.92 g/m*3 30.4 C 0 km/h
Sensor: Nr:Datum:Temp:Abs-Feuchte:Windchill:Wind:
Aussen-T/F 76 11-08-2003 12:36:03 30.6 C 9.4 g/m*3 30.6 C 0 km/h
77 11-08-2003 12:46:03 30.7 C 9.45 g/m*3 30.7 C 0 km/h
78 11-08-2003 12:56:03 31.2 C 9.06 g/m*3 31.2 C 0 km/h
79 11-08-2003 13:06:03 31.4 C 8.83 g/m*3 31.4 C 0 km/h
80 11-08-2003 13:16:03 31.4 C 8.83 g/m*3 31.4 C 0 km/h
81 11-08-2003 13:26:03 32 C 8.78 g/m*3 32 C 0 km/h
82 11-08-2003 13:36:03 32.3 C 8.58 g/m*3 32.3 C 0 km/h
83 11-08-2003 13:46:03 32.6 C 8.02 g/m*3 32.6 C 0 km/h
84 11-08-2003 13:56:03 32.7 C 7.71 g/m*3 32.7 C 0 km/h
85 11-08-2003 14:06:03 32.8 C 7.04 g/m*3 32.8 C 0 km/h
86 11-08-2003 14:16:03 33 C 7.12 g/m*3 33 C 0 km/h
87 11-08-2003 14:26:03 33.1 C 7.16 g/m*3 33.1 C 0 km/h
88 11-08-2003 14:36:03 33.6 C 7.35 g/m*3 33.6 C 0 km/h
89 11-08-2003 14:46:03 33.5 C 7.31 g/m*3 33.5 C 0 km/h
90 11-08-2003 14:56:03 33.3 C 7.23 g/m*3 33.3 C 0 km/h
91 11-08-2003 15:06:03 33.7 C 7.39 g/m*3 33.7 C 0 km/h
92 11-08-2003 15:16:03 33.9 C 7.46 g/m*3 33.9 C 0 km/h
93 11-08-2003 15:26:03 34.1 C 7.54 g/m*3 34.1 C 0 km/h
94 11-08-2003 15:36:03 34.1 C 7.54 g/m*3 34.1 C 0 km/h
95 11-08-2003 15:46:03 34.5 C 7.7 g/m*3 34.5 C 0 km/h
96 11-08-2003 15:56:03 33.9 C 7.46 g/m*3 33.9 C 0 km/h
97 11-08-2003 16:06:53 34.5 C 7.7 g/m*3 34.5 C 0 km/h
98 11-08-2003 16:16:53 34.8 C 7.82 g/m*3 34.8 C 0 km/h
99 11-08-2003 16:26:53 34.6 C 7.74 g/m*3 34.6 C 0 km/h
100 11-08-2003 16:35:59 34.6 C 7.74 g/m*3 34.6 C 0 km/h
Sensor: Nr:Datum:Temp:Abs-Feuchte:Windchill:Wind:
Aussen-T/F 101 11-08-2003 16:45:59 34.7 C 7.78 g/m*3 34.7 C 0 km/h
102 11-08-2003 16:55:59 34.9 C 7.87 g/m*3 34.9 C 0 km/h
103 11-08-2003 17:06:50 35.2 C 7.99 g/m*3 35.2 C 0 km/h
104 11-08-2003 17:16:50 35.1 C 7.95 g/m*3 35.1 C 0 km/h
105 11-08-2003 17:26:50 35.2 C 7.99 g/m*3 35.2 C 0 km/h
106 11-08-2003 17:36:01 35.2 C 7.99 g/m*3 35.2 C 0 km/h
107 11-08-2003 17:46:01 35.1 C 7.95 g/m*3 35.1 C 0 km/h
108 11-08-2003 17:56:01 34.8 C 7.82 g/m*3 34.8 C 0 km/h
109 11-08-2003 18:06:02 35 C 7.91 g/m*3 35 C 0 km/h
110 11-08-2003 18:16:02 35 C 7.91 g/m*3 35 C 0 km/h
111 11-08-2003 18:26:02 34.8 C 7.82 g/m*3 34.8 C 0 km/h
112 11-08-2003 18:36:58 35 C 7.91 g/m*3 35 C 0 km/h
113 11-08-2003 18:46:58 34.8 C 7.82 g/m*3 34.8 C 0 km/h
114 11-08-2003 18:56:02 34.6 C 7.74 g/m*3 34.6 C 0 km/h
115 11-08-2003 19:06:01 34.4 C 7.66 g/m*3 34.4 C 0 km/h
116 11-08-2003 19:16:01 34.2 C 7.58 g/m*3 34.2 C 0 km/h
117 11-08-2003 19:26:01 34 C 7.88 g/m*3 34 C 0 km/h
118 11-08-2003 19:36:01 33.7 C 7.76 g/m*3 33.7 C 0 km/h
119 11-08-2003 19:46:01 33.4 C 8 g/m*3 33.4 C 0 km/h
120 11-08-2003 19:56:01 33.2 C 8.27 g/m*3 33.2 C 0 km/h
121 11-08-2003 20:06:00 32.8 C 8.81 g/m*3 32.8 C 0 km/h
122 11-08-2003 20:16:00 32.4 C 8.62 g/m*3 32.4 C 0 km/h
123 11-08-2003 20:26:00 31.9 C 9.4 g/m*3 31.9 C 0 km/h
124 11-08-2003 20:36:01 31.9 C 9.4 g/m*3 31.9 C 0 km/h
125 11-08-2003 20:46:01 31.4 C 9.15 g/m*3 31.4 C 0 km/h
Sensor: Nr:Datum:Temp:Abs-Feuchte:Windchill:Wind:
Aussen-T/F 126 11-08-2003 20:56:01 30.9 C 9.23 g/m*3 30.9 C 0 km/h
127 11-08-2003 21:06:01 30.6 C 9.08 g/m*3 30.6 C 0 km/h
128 11-08-2003 21:16:01 30.1 C 9.15 g/m*3 30.1 C 0 km/h
129 11-08-2003 21:26:01 30 C 9.4 g/m*3 30 C 0 km/h
130 11-08-2003 21:36:01 29.8 C 9.6 g/m*3 29.8 C 0 km/h
131 11-08-2003 21:46:01 29.6 C 9.5 g/m*3 29.6 C 0 km/h
132 11-08-2003 21:56:01 29.2 C 9.58 g/m*3 29.2 C 0 km/h
133 11-08-2003 22:07:01 29 C 9.48 g/m*3 29 C 0 km/h
134 11-08-2003 22:17:01 28.8 C 9.66 g/m*3 28.8 C 0 km/h
135 11-08-2003 22:27:01 28.6 C 10.12 g/m*3 28.6 C 0 km/h
136 11-08-2003 22:37:01 28.3 C 9.68 g/m*3 28.3 C 0 km/h
137 11-08-2003 22:47:01 28 C 9.79 g/m*3 28 C 0 km/h
138 11-08-2003 22:57:01 27.9 C 10.01 g/m*3 27.9 C 0 km/h
139 11-08-2003 23:07:01 27.8 C 9.95 g/m*3 27.8 C 0 km/h
140 11-08-2003 23:17:01 27.5 C 9.79 g/m*3 27.5 C 0 km/h
141 11-08-2003 23:27:01 27.2 C 9.89 g/m*3 27.2 C 0 km/h
142 11-08-2003 23:37:01 27 C 10.04 g/m*3 27 C 0 km/h
143 11-08-2003 23:47:01 26.9 C 10.24 g/m*3 26.9 C 0 km/h
144 11-08-2003 23:57:01 26.7 C 10.12 g/m*3 26.7 C 0 km/h
145 12-08-2003 00:07:01 26.2 C 10.34 g/m*3 26.2 C 0 km/h
146 12-08-2003 00:17:01 26 C 10.23 g/m*3 26 C 0 km/h
147 12-08-2003 00:27:01 25.9 C 10.41 g/m*3 25.9 C 0 km/h
148 12-08-2003 00:37:01 25.8 C 10.35 g/m*3 25.8 C 0 km/h
149 12-08-2003 00:47:01 25.7 C 10.29 g/m*3 25.7 C 0 km/h
150 12-08-2003 00:57:01 25.4 C 10.36 g/m*3 25.4 C 0 km/h
Sensor: Nr:Datum:Temp:Abs-Feuchte:Windchill:Wind:
Aussen-T/F 151 12-08-2003 01:07:01 25 C 10.36 g/m*3 25 C 0 km/h
152 12-08-2003 01:17:01 24.8 C 10.47 g/m*3 24.8 C 0 km/h
153 12-08-2003 01:27:01 24.7 C 10.64 g/m*3 24.7 C 0 km/h
154 12-08-2003 01:37:01 24.5 C 10.52 g/m*3 24.5 C 0 km/h
155 12-08-2003 01:47:01 24.3 C 10.62 g/m*3 24.3 C 0 km/h
156 12-08-2003 01:57:01 24.4 C 10.68 g/m*3 24.4 C 0 km/h
157 12-08-2003 02:07:01 24.1 C 10.72 g/m*3 24.1 C 0 km/h
158 12-08-2003 02:17:01 23.8 C 10.97 g/m*3 23.8 C 0 km/h
159 12-08-2003 02:27:01 23.8 C 10.97 g/m*3 23.8 C 0 km/h
160 12-08-2003 02:37:01 23.5 C 11 g/m*3 23.5 C 0 km/h
161 12-08-2003 02:47:01 23.4 C 10.93 g/m*3 23.4 C 0 km/h
162 12-08-2003 02:57:01 23.2 C 10.81 g/m*3 23.2 C 0 km/h
163 12-08-2003 03:07:01 23.1 C 10.75 g/m*3 23.1 C 0 km/h
164 12-08-2003 03:17:01 22.9 C 11.04 g/m*3 22.9 C 0 km/h
165 12-08-2003 03:27:01 22.9 C 11.04 g/m*3 22.9 C 0 km/h
166 12-08-2003 03:37:01 22.7 C 11.11 g/m*3 22.7 C 0 km/h
167 12-08-2003 03:47:01 22.6 C 11.05 g/m*3 22.6 C 0 km/h
168 12-08-2003 03:57:01 22.5 C 10.99 g/m*3 22.5 C 0 km/h
169 12-08-2003 04:07:01 22.2 C 10.8 g/m*3 22.2 C 0 km/h
170 12-08-2003 04:17:01 22.1 C 10.93 g/m*3 22.1 C 0 km/h
171 12-08-2003 04:27:01 22 C 11.06 g/m*3 22 C 0 km/h
172 12-08-2003 04:37:01 21.8 C 11.13 g/m*3 21.8 C 0 km/h
173 12-08-2003 04:47:01 21.6 C 11 g/m*3 21.6 C 0 km/h
174 12-08-2003 04:57:01 21.6 C 11 g/m*3 21.6 C 0 km/h
175 12-08-2003 05:07:01 21.5 C 11.13 g/m*3 21.5 C 0 km/h
Sensor: Nr:Datum:Temp:Abs-Feuchte:Windchill:Wind:
Aussen-T/F 176 12-08-2003 05:17:01 21.4 C 11.25 g/m*3 21.4 C 0 km/h
177 12-08-2003 05:27:01 21.2 C 10.93 g/m*3 21.2 C 0 km/h
178 12-08-2003 05:37:01 21 C 10.99 g/m*3 21 C 0 km/h
179 12-08-2003 05:47:01 20.9 C 11.11 g/m*3 20.9 C 0 km/h
180 12-08-2003 05:57:01 20.8 C 11.05 g/m*3 20.8 C 0 km/h
181 12-08-2003 06:07:01 20.7 C 10.98 g/m*3 20.7 C 0 km/h
182 12-08-2003 06:17:01 20.7 C 11.16 g/m*3 20.7 C 0 km/h
183 12-08-2003 06:27:01 20.5 C 11.21 g/m*3 20.5 C 0 km/h
184 12-08-2003 06:37:01 20.4 C 10.97 g/m*3 20.4 C 0 km/h
185 12-08-2003 06:47:01 20.4 C 11.14 g/m*3 20.4 C 0 km/h
186 12-08-2003 06:57:01 20.4 C 11.14 g/m*3 20.4 C 0 km/h
187 12-08-2003 07:07:01 20.3 C 11.26 g/m*3 20.3 C 0 km/h
188 12-08-2003 07:17:01 20.4 C 11.32 g/m*3 20.4 C 0 km/h
189 12-08-2003 07:27:01 20.5 C 11.39 g/m*3 20.5 C 0 km/h
190 12-08-2003 07:37:01 20.8 C 11.59 g/m*3 20.8 C 0 km/h
191 12-08-2003 07:47:01 20.9 C 11.47 g/m*3 20.9 C 0 km/h
192 12-08-2003 07:57:01 21 C 11.36 g/m*3 21 C 0 km/h
193 12-08-2003 08:07:01 21.1 C 11.61 g/m*3 21.1 C 0 km/h
194 12-08-2003 08:17:01 21.3 C 11.74 g/m*3 21.3 C 0 km/h
195 12-08-2003 08:27:01 21.7 C 11.64 g/m*3 21.7 C 0 km/h
196 12-08-2003 08:37:01 21.9 C 11.39 g/m*3 21.9 C 0 km/h
197 12-08-2003 08:47:01 22.1 C 11.32 g/m*3 22.1 C 0 km/h
198 12-08-2003 08:57:01 22.3 C 11.06 g/m*3 22.3 C 0 km/h
199 12-08-2003 09:07:01 22.4 C 11.12 g/m*3 22.4 C 0 km/h
200 12-08-2003 09:17:01 22.9 C 11.24 g/m*3 22.9 C 0 km/h
Sensor: Nr:Datum:Temp:Abs-Feuchte:Windchill:Wind:
Aussen-T/F 201 12-08-2003 09:27:01 23.3 C 10.87 g/m*3 23.3 C 0 km/h
202 12-08-2003 09:37:01 23.7 C 10.91 g/m*3 23.7 C 0 km/h
203 12-08-2003 09:47:01 24.4 C 10.9 g/m*3 24.4 C 0 km/h
204 12-08-2003 09:57:01 25 C 10.82 g/m*3 25 C 0 km/h
205 12-08-2003 10:07:00 25.5 C 10.89 g/m*3 25.5 C 0 km/h
206 12-08-2003 10:17:00 26 C 10.96 g/m*3 26 C 0 km/h
207 12-08-2003 10:27:00 26.4 C 10.95 g/m*3 26.4 C 0 km/h
208 12-08-2003 10:37:01 27.3 C 11.25 g/m*3 27.3 C 0 km/h
209 12-08-2003 10:47:01 27.9 C 10.82 g/m*3 27.9 C 0 km/h
210 12-08-2003 10:57:01 28.5 C 10.62 g/m*3 28.5 C 0 km/h
211 12-08-2003 11:07:02 29.1 C 10.69 g/m*3 29.1 C 0 km/h
212 12-08-2003 11:17:02 29.6 C 10.39 g/m*3 29.6 C 0 km/h
213 12-08-2003 11:27:02 30 C 11.83 g/m*3 30 C 0 km/h
214 12-08-2003 11:37:01 29.8 C 10.5 g/m*3 29.8 C 0 km/h
215 12-08-2003 11:47:01 30.3 C 10.17 g/m*3 30.3 C 0 km/h
216 12-08-2003 11:57:01 30.8 C 9.5 g/m*3 30.8 C 0 km/h
217 12-08-2003 12:07:01 31.3 C 7.81 g/m*3 31.3 C 0 km/h
218 12-08-2003 12:17:01 31.9 C 7.05 g/m*3 31.9 C 0 km/h
219 12-08-2003 12:27:01 32.1 C 6.79 g/m*3 32.1 C 0 km/h
220 12-08-2003 12:37:01 32.4 C 6.9 g/m*3 32.4 C 0 km/h
221 12-08-2003 12:47:01 32.6 C 6.97 g/m*3 32.6 C 0 km/h
222 12-08-2003 12:57:01 32.8 C 7.04 g/m*3 32.8 C 0 km/h
223 12-08-2003 13:07:01 33.2 C 7.2 g/m*3 33.2 C 0 km/h
224 12-08-2003 13:17:01 33.5 C 7.31 g/m*3 33.5 C 0 km/h
225 12-08-2003 13:27:01 33.8 C 7.43 g/m*3 33.8 C 0 km/h
Sensor: Nr:Datum:Temp:Abs-Feuchte:Windchill:Wind:
Aussen-T/F 226 12-08-2003 13:37:01 33.9 C 7.46 g/m*3 33.9 C 0 km/h
227 12-08-2003 13:47:01 33.9 C 7.46 g/m*3 33.9 C 0 km/h
228 12-08-2003 13:57:01 34 C 7.5 g/m*3 34 C 0 km/h
229 12-08-2003 14:07:02 34 C 7.5 g/m*3 34 C 0 km/h
230 12-08-2003 14:17:02 34.2 C 7.58 g/m*3 34.2 C 0 km/h
231 12-08-2003 14:27:02 34.4 C 7.66 g/m*3 34.4 C 0 km/h
232 12-08-2003 14:37:00 34.4 C 7.66 g/m*3 34.4 C 0 km/h
233 12-08-2003 14:47:00 34.4 C 7.66 g/m*3 34.4 C 0 km/h
234 12-08-2003 14:57:00 34.5 C 7.7 g/m*3 34.5 C 0 km/h
235 12-08-2003 15:07:01 34.6 C 7.74 g/m*3 34.6 C 0 km/h
236 12-08-2003 15:17:01 34.6 C 7.74 g/m*3 34.6 C 0 km/h
237 12-08-2003 15:27:01 34.7 C 7.78 g/m*3 34.7 C 0 km/h
238 12-08-2003 15:37:01 34.7 C 7.78 g/m*3 34.7 C 0 km/h
239 12-08-2003 15:47:01 34.6 C 7.74 g/m*3 34.6 C 0 km/h
240 12-08-2003 15:57:01 34.4 C 7.66 g/m*3 34.4 C 0 km/h
241 12-08-2003 16:07:01 34.5 C 7.7 g/m*3 34.5 C 0 km/h
242 12-08-2003 16:17:01 34.2 C 7.58 g/m*3 34.2 C 0 km/h
243 12-08-2003 16:27:01 34.2 C 7.58 g/m*3 34.2 C 0 km/h
244 12-08-2003 16:37:01 34.2 C 7.58 g/m*3 34.2 C 0 km/h
245 12-08-2003 16:47:01 34.4 C 7.66 g/m*3 34.4 C 0 km/h
246 12-08-2003 16:57:01 34.4 C 7.66 g/m*3 34.4 C 0 km/h
247 12-08-2003 17:07:01 34.8 C 7.82 g/m*3 34.8 C 0 km/h
248 12-08-2003 17:17:01 35 C 7.91 g/m*3 35 C 0 km/h
249 12-08-2003 17:27:01 35.2 C 7.99 g/m*3 35.2 C 0 km/h
250 12-08-2003 17:37:01 35 C 7.91 g/m*3 35 C 0 km/h
Sensor: Nr:Datum:Temp:Abs-Feuchte:Windchill:Wind:
Aussen-T/F 251 12-08-2003 17:47:01 34.8 C 7.82 g/m*3 34.8 C 0 km/h
252 12-08-2003 17:57:01 34.5 C 7.7 g/m*3 34.5 C 0 km/h
253 12-08-2003 18:07:00 34.4 C 7.66 g/m*3 34.4 C 0 km/h
254 12-08-2003 18:07:01 34.4 C 7.66 g/m*3 34.4 C 0 km/h
255 12-08-2003 18:17:00 34.6 C 7.74 g/m*3 34.6 C 0 km/h
256 12-08-2003 18:27:00 34.2 C 7.58 g/m*3 34.2 C 0 km/h
257 12-08-2003 18:37:00 34.2 C 7.58 g/m*3 34.2 C 0 km/h
258 12-08-2003 18:47:00 34.1 C 7.54 g/m*3 34.1 C 0 km/h
259 12-08-2003 18:57:00 34.2 C 7.58 g/m*3 34.2 C 0 km/h
260 12-08-2003 19:07:01 34.3 C 7.62 g/m*3 34.3 C 0 km/h
261 12-08-2003 19:17:01 34.4 C 7.66 g/m*3 34.4 C 0 km/h
262 12-08-2003 19:27:01 34.6 C 7.74 g/m*3 34.6 C 0 km/h
263 12-08-2003 19:37:00 34.4 C 7.66 g/m*3 34.4 C 0 km/h
264 12-08-2003 19:47:00 34.3 C 7.62 g/m*3 34.3 C 0 km/h
265 12-08-2003 19:57:00 34.4 C 7.66 g/m*3 34.4 C 0 km/h
266 12-08-2003 20:07:01 34.3 C 7.62 g/m*3 34.3 C 0 km/h
267 12-08-2003 20:17:01 33.9 C 7.46 g/m*3 33.9 C 0 km/h
268 12-08-2003 20:27:01 33.1 C 7.87 g/m*3 33.1 C 0 km/h
269 12-08-2003 20:37:03 32.6 C 8.36 g/m*3 32.6 C 0 km/h
270 12-08-2003 20:47:03 32 C 8.78 g/m*3 32 C 0 km/h
271 12-08-2003 20:57:03 31.8 C 8.68 g/m*3 31.8 C 0 km/h
272 12-08-2003 21:07:03 31.7 C 8.64 g/m*3 31.7 C 0 km/h
273 12-08-2003 21:17:03 31.4 C 9.15 g/m*3 31.4 C 0 km/h
274 12-08-2003 21:27:03 31.3 C 9.11 g/m*3 31.3 C 0 km/h
275 12-08-2003 21:37:01 31.2 C 9.38 g/m*3 31.2 C 0 km/h
Sensor: Nr:Datum:Temp:Abs-Feuchte:Windchill:Wind:
Aussen-T/F 276 12-08-2003 21:47:01 30.9 C 9.87 g/m*3 30.9 C 0 km/h
277 12-08-2003 21:57:01 30.7 C 9.76 g/m*3 30.7 C 0 km/h
278 12-08-2003 22:08:04 30.5 C 9.97 g/m*3 30.5 C 0 km/h
279 12-08-2003 22:18:04 30.3 C 10.17 g/m*3 30.3 C 0 km/h
280 12-08-2003 22:28:04 30.3 C 10.17 g/m*3 30.3 C 0 km/h
281 12-08-2003 22:38:04 30 C 10.61 g/m*3 30 C 0 km/h
282 12-08-2003 22:48:04 29.9 C 10.56 g/m*3 29.9 C 0 km/h
283 12-08-2003 22:58:04 29.5 C 10.33 g/m*3 29.5 C 0 km/h
284 12-08-2003 23:08:04 29.4 C 10.27 g/m*3 29.4 C 0 km/h
285 12-08-2003 23:18:04 29.3 C 10.51 g/m*3 29.3 C 0 km/h
286 12-08-2003 23:28:04 28.9 C 10.86 g/m*3 28.9 C 0 km/h
287 12-08-2003 23:38:04 28.8 C 10.8 g/m*3 28.8 C 0 km/h
288 12-08-2003 23:48:04 28.6 C 10.68 g/m*3 28.6 C 0 km/h
289 12-08-2003 23:58:04 28.2 C 10.72 g/m*3 28.2 C 0 km/h
290 13-08-2003 00:08:04 27.9 C 10.82 g/m*3 27.9 C 0 km/h
291 13-08-2003 00:18:04 27.6 C 10.38 g/m*3 27.6 C 0 km/h
292 13-08-2003 00:28:04 27.5 C 10.32 g/m*3 27.5 C 0 km/h
293 13-08-2003 00:38:04 27.3 C 10.2 g/m*3 27.3 C 0 km/h
294 13-08-2003 00:48:04 27.3 C 10.47 g/m*3 27.3 C 0 km/h
295 13-08-2003 00:58:04 27.1 C 10.35 g/m*3 27.1 C 0 km/h
296 13-08-2003 01:08:04 26.9 C 10.49 g/m*3 26.9 C 0 km/h
297 13-08-2003 01:18:04 26.6 C 10.32 g/m*3 26.6 C 0 km/h
298 13-08-2003 01:28:04 26.5 C 10.51 g/m*3 26.5 C 0 km/h
299 13-08-2003 01:38:04 26.2 C 10.34 g/m*3 26.2 C 0 km/h
300 13-08-2003 01:48:04 26.1 C 10.53 g/m*3 26.1 C 0 km/h
Sensor: Nr:Datum:Temp:Abs-Feuchte:Windchill:Wind:
Aussen-T/F 301 13-08-2003 01:58:04 25.9 C 10.65 g/m*3 25.9 C 0 km/h
302 13-08-2003 02:08:04 25.7 C 10.53 g/m*3 25.7 C 0 km/h
303 13-08-2003 02:18:04 25.6 C 10.71 g/m*3 25.6 C 0 km/h
304 13-08-2003 02:28:04 25.4 C 10.83 g/m*3 25.4 C 0 km/h
305 13-08-2003 02:38:04 25.2 C 10.71 g/m*3 25.2 C 0 km/h
306 13-08-2003 02:48:04 25.1 C 10.65 g/m*3 25.1 C 0 km/h
307 13-08-2003 02:58:04 24.9 C 10.76 g/m*3 24.9 C 0 km/h
308 13-08-2003 03:08:04 24.8 C 10.7 g/m*3 24.8 C 0 km/h
309 13-08-2003 03:18:04 24.7 C 10.64 g/m*3 24.7 C 0 km/h
310 13-08-2003 03:28:04 24.5 C 10.52 g/m*3 24.5 C 0 km/h
311 13-08-2003 03:38:04 24.3 C 10.62 g/m*3 24.3 C 0 km/h
312 13-08-2003 03:48:04 24.5 C 10.74 g/m*3 24.5 C 0 km/h
313 13-08-2003 03:58:04 23.7 C 10.69 g/m*3 23.7 C 0 km/h
314 13-08-2003 04:08:04 23.7 C 10.69 g/m*3 23.7 C 0 km/h
315 13-08-2003 04:18:04 23.6 C 10.63 g/m*3 23.6 C 0 km/h
316 13-08-2003 04:28:04 23.4 C 10.72 g/m*3 23.4 C 0 km/h
317 13-08-2003 04:38:04 23.2 C 10.81 g/m*3 23.2 C 0 km/h
318 13-08-2003 04:48:04 22.9 C 10.83 g/m*3 22.9 C 0 km/h
319 13-08-2003 04:58:04 22.5 C 10.99 g/m*3 22.5 C 0 km/h
320 13-08-2003 05:08:04 22.5 C 10.99 g/m*3 22.5 C 0 km/h
321 13-08-2003 05:18:04 22.5 C 10.99 g/m*3 22.5 C 0 km/h
322 13-08-2003 05:28:04 22.4 C 10.92 g/m*3 22.4 C 0 km/h
323 13-08-2003 05:38:04 22.3 C 10.86 g/m*3 22.3 C 0 km/h
324 13-08-2003 05:48:04 22.1 C 10.74 g/m*3 22.1 C 0 km/h
325 13-08-2003 05:58:04 21.9 C 11 g/m*3 21.9 C 0 km/h
Sensor: Nr:Datum:Temp:Abs-Feuchte:Windchill:Wind:
Aussen-T/F 326 13-08-2003 06:08:04 21.9 C 10.81 g/m*3 21.9 C 0 km/h
327 13-08-2003 06:18:04 21.8 C 10.94 g/m*3 21.8 C 0 km/h
328 13-08-2003 06:28:04 21.6 C 10.81 g/m*3 21.6 C 0 km/h
329 13-08-2003 06:38:00 21.6 C 11 g/m*3 21.6 C 0 km/h
330 13-08-2003 06:48:00 21.6 C 10.81 g/m*3 21.6 C 0 km/h
331 13-08-2003 06:58:00 21.6 C 11 g/m*3 21.6 C 0 km/h
332 13-08-2003 07:08:01 21.8 C 11.13 g/m*3 21.8 C 0 km/h
333 13-08-2003 07:18:01 21.8 C 11.13 g/m*3 21.8 C 0 km/h
334 13-08-2003 07:28:01 21.8 C 11.32 g/m*3 21.8 C 0 km/h
335 13-08-2003 07:38:01 21.9 C 11.58 g/m*3 21.9 C 0 km/h
336 13-08-2003 07:48:01 21.7 C 11.45 g/m*3 21.7 C 0 km/h
337 13-08-2003 07:58:01 21.9 C 11.58 g/m*3 21.9 C 0 km/h
338 13-08-2003 08:08:01 22 C 11.65 g/m*3 22 C 0 km/h
339 13-08-2003 08:18:01 22.4 C 11.72 g/m*3 22.4 C 0 km/h
340 13-08-2003 08:28:01 22.8 C 12.6 g/m*3 22.8 C 0 km/h
341 13-08-2003 08:38:01 23.5 C 13.11 g/m*3 23.5 C 0 km/h
342 13-08-2003 08:48:01 24.2 C 13.2 g/m*3 24.2 C 0 km/h
343 13-08-2003 08:58:01 24.5 C 13.2 g/m*3 24.5 C 0 km/h
344 13-08-2003 09:08:02 24.9 C 13.51 g/m*3 24.9 C 0 km/h
345 13-08-2003 09:18:02 25.1 C 13.2 g/m*3 25.1 C 0 km/h
346 13-08-2003 09:28:02 25.3 C 13.34 g/m*3 25.3 C 0 km/h
347 13-08-2003 09:38:02 25.7 C 13.41 g/m*3 25.7 C 0 km/h
348 13-08-2003 09:48:02 26 C 13.39 g/m*3 26 C 0 km/h
349 13-08-2003 09:58:02 26.1 C 13.22 g/m*3 26.1 C 0 km/h
350 13-08-2003 10:08:02 25.9 C 13.32 g/m*3 25.9 C 0 km/h
Sensor: Nr:Datum:Temp:Abs-Feuchte:Windchill:Wind:
Aussen-T/F 351 13-08-2003 10:18:02 26 C 12.9 g/m*3 26 C 0 km/h
352 13-08-2003 10:28:02 26.6 C 12.84 g/m*3 26.6 C 0 km/h
353 13-08-2003 10:38:01 26.4 C 12.45 g/m*3 26.4 C 0 km/h
354 13-08-2003 10:48:01 26.5 C 12.52 g/m*3 26.5 C 0 km/h
355 13-08-2003 10:58:01 26.6 C 12.59 g/m*3 26.6 C 0 km/h
356 13-08-2003 11:07:59 26.7 C 12.4 g/m*3 26.7 C 0 km/h
357 13-08-2003 11:17:59 27.7 C 12.57 g/m*3 27.7 C 0 km/h
358 13-08-2003 11:27:59 27.6 C 12.5 g/m*3 27.6 C 0 km/h
359 13-08-2003 11:38:01 27.7 C 12.57 g/m*3 27.7 C 0 km/h
360 13-08-2003 11:48:01 28.2 C 12.37 g/m*3 28.2 C 0 km/h
361 13-08-2003 11:58:01 28.1 C 12.3 g/m*3 28.1 C 0 km/h
362 13-08-2003 12:08:01 28.8 C 12.5 g/m*3 28.8 C 0 km/h
363 13-08-2003 12:18:01 29.2 C 12.49 g/m*3 29.2 C 0 km/h
364 13-08-2003 12:28:01 29.2 C 12.49 g/m*3 29.2 C 0 km/h
365 13-08-2003 12:38:02 29.3 C 12.55 g/m*3 29.3 C 0 km/h
366 13-08-2003 12:48:02 29.8 C 12.6 g/m*3 29.8 C 0 km/h
367 13-08-2003 12:58:02 30.2 C 12.26 g/m*3 30.2 C 0 km/h
368 13-08-2003 13:08:01 30.1 C 12.2 g/m*3 30.1 C 0 km/h
369 13-08-2003 13:18:01 30.8 C 12.03 g/m*3 30.8 C 0 km/h
370 13-08-2003 13:28:01 30.9 C 11.78 g/m*3 30.9 C 0 km/h
371 13-08-2003 13:38:01 31.5 C 11.5 g/m*3 31.5 C 0 km/h
372 13-08-2003 13:48:01 31.5 C 10.85 g/m*3 31.5 C 0 km/h
373 13-08-2003 13:58:01 31.8 C 10.35 g/m*3 31.8 C 0 km/h
374 13-08-2003 14:08:02 31.9 C 10.41 g/m*3 31.9 C 0 km/h
375 13-08-2003 14:18:02 31.3 C 10.41 g/m*3 31.3 C 0 km/h
Sensor: Nr:Datum:Temp:Abs-Feuchte:Windchill:Wind:
Aussen-T/F 376 13-08-2003 14:28:02 31.9 C 10.41 g/m*3 31.9 C 0 km/h
377 13-08-2003 14:38:02 32.1 C 10.18 g/m*3 32.1 C 0 km/h
378 13-08-2003 14:48:02 32.2 C 10.24 g/m*3 32.2 C 0 km/h
379 13-08-2003 14:58:02 32.4 C 10.35 g/m*3 32.4 C 0 km/h
380 13-08-2003 15:08:01 32.1 C 10.52 g/m*3 32.1 C 0 km/h
381 13-08-2003 15:18:01 32.8 C 9.86 g/m*3 32.8 C 0 km/h
382 13-08-2003 15:28:01 32.5 C 10.05 g/m*3 32.5 C 0 km/h
383 13-08-2003 15:38:01 32.6 C 10.11 g/m*3 32.6 C 0 km/h
384 13-08-2003 15:48:01 32.7 C 9.81 g/m*3 32.7 C 0 km/h
385 13-08-2003 15:58:01 33.3 C 9.4 g/m*3 33.3 C 0 km/h
386 13-08-2003 16:08:05 33.8 C 9.28 g/m*3 33.8 C 0 km/h
387 13-08-2003 16:18:05 33.5 C 9.14 g/m*3 33.5 C 0 km/h
388 13-08-2003 16:28:05 33.8 C 9.28 g/m*3 33.8 C 0 km/h
389 13-08-2003 16:38:02 33.9 C 8.96 g/m*3 33.9 C 0 km/h
390 13-08-2003 16:48:02 33.8 C 8.54 g/m*3 33.8 C 0 km/h
391 13-08-2003 16:58:02 34.1 C 8.68 g/m*3 34.1 C 0 km/h
392 13-08-2003 17:08:00 33.8 C 8.54 g/m*3 33.8 C 0 km/h
393 13-08-2003 17:18:00 33.6 C 8.82 g/m*3 33.6 C 0 km/h
394 13-08-2003 17:28:00 33.3 C 8.68 g/m*3 33.3 C 0 km/h
395 13-08-2003 17:38:02 32.9 C 8.85 g/m*3 32.9 C 0 km/h
396 13-08-2003 17:48:02 32.8 C 8.81 g/m*3 32.8 C 0 km/h
397 13-08-2003 17:58:02 32.8 C 8.81 g/m*3 32.8 C 0 km/h
398 13-08-2003 18:08:02 32.2 C 8.53 g/m*3 32.2 C 0 km/h
399 13-08-2003 18:18:02 32.1 C 8.48 g/m*3 32.1 C 0 km/h
400 13-08-2003 18:28:02 32.5 C 8.32 g/m*3 32.5 C 0 km/h
Sensor: Nr:Datum:Temp:Abs-Feuchte:Windchill:Wind:
Aussen-T/F 401 13-08-2003 18:38:02 32.4 C 7.59 g/m*3 32.4 C 0 km/h
402 13-08-2003 18:48:02 32.7 C 7.71 g/m*3 32.7 C 0 km/h
403 13-08-2003 18:58:02 32.3 C 7.55 g/m*3 32.3 C 0 km/h
404 13-08-2003 19:08:03 32.4 C 7.59 g/m*3 32.4 C 0 km/h
405 13-08-2003 19:18:03 32.3 C 7.55 g/m*3 32.3 C 0 km/h
406 13-08-2003 19:28:03 31.8 C 7.68 g/m*3 31.8 C 0 km/h
407 13-08-2003 19:38:02 31.3 C 7.81 g/m*3 31.3 C 0 km/h
408 13-08-2003 19:48:02 31 C 8.32 g/m*3 31 C 0 km/h
409 13-08-2003 19:58:02 30.9 C 7.96 g/m*3 30.9 C 0 km/h
410 13-08-2003 20:08:02 30.7 C 8.19 g/m*3 30.7 C 0 km/h
411 13-08-2003 20:18:02 30.1 C 8.54 g/m*3 30.1 C 0 km/h
412 13-08-2003 20:28:02 30 C 8.79 g/m*3 30 C 0 km/h
413 13-08-2003 20:38:02 29.8 C 9 g/m*3 29.8 C 0 km/h
414 13-08-2003 20:48:02 29.6 C 8.9 g/m*3 29.6 C 0 km/h
415 13-08-2003 20:58:02 29.3 C 8.76 g/m*3 29.3 C 0 km/h
416 13-08-2003 21:08:01 28.7 C 8.76 g/m*3 28.7 C 0 km/h
417 13-08-2003 21:18:01 28.5 C 8.94 g/m*3 28.5 C 0 km/h
418 13-08-2003 21:28:01 28.4 C 8.9 g/m*3 28.4 C 0 km/h
419 13-08-2003 21:38:02 27.9 C 8.65 g/m*3 27.9 C 0 km/h
420 13-08-2003 21:48:02 27.7 C 8.83 g/m*3 27.7 C 0 km/h
421 13-08-2003 21:58:02 27.4 C 8.95 g/m*3 27.4 C 0 km/h
422 13-08-2003 22:09:03 27.3 C 9.16 g/m*3 27.3 C 0 km/h
423 13-08-2003 22:19:03 27.1 C 9.06 g/m*3 27.1 C 0 km/h
424 13-08-2003 22:29:03 26.8 C 9.42 g/m*3 26.8 C 0 km/h
425 13-08-2003 22:39:03 26.9 C 9.47 g/m*3 26.9 C 0 km/h
Sensor: Nr:Datum:Temp:Abs-Feuchte:Windchill:Wind:
Aussen-T/F 426 13-08-2003 22:49:03 26.7 C 9.37 g/m*3 26.7 C 0 km/h
427 13-08-2003 22:59:03 26.5 C 9.26 g/m*3 26.5 C 0 km/h
428 13-08-2003 23:09:03 26.7 C 9.37 g/m*3 26.7 C 0 km/h
429 13-08-2003 23:19:03 26.5 C 9.51 g/m*3 26.5 C 0 km/h
430 13-08-2003 23:29:03 26.2 C 9.85 g/m*3 26.2 C 0 km/h
431 13-08-2003 23:39:03 26 C 9.74 g/m*3 26 C 0 km/h
432 13-08-2003 23:49:03 26 C 9.74 g/m*3 26 C 0 km/h
433 13-08-2003 23:59:03 25.9 C 9.68 g/m*3 25.9 C 0 km/h
434 14-08-2003 00:09:03 25.8 C 9.87 g/m*3 25.8 C 0 km/h
435 14-08-2003 00:19:03 25.4 C 9.89 g/m*3 25.4 C 0 km/h
436 14-08-2003 00:29:03 25.1 C 9.72 g/m*3 25.1 C 0 km/h
437 14-08-2003 00:39:03 24.8 C 10.24 g/m*3 24.8 C 0 km/h
438 14-08-2003 00:49:03 24.5 C 10.07 g/m*3 24.5 C 0 km/h
439 14-08-2003 00:59:03 24.4 C 10.01 g/m*3 24.4 C 0 km/h
440 14-08-2003 01:09:03 24.4 C 10.24 g/m*3 24.4 C 0 km/h
441 14-08-2003 01:19:03 24.2 C 10.12 g/m*3 24.2 C 0 km/h
442 14-08-2003 01:29:03 24.1 C 10.28 g/m*3 24.1 C 0 km/h
443 14-08-2003 01:39:03 24.1 C 10.28 g/m*3 24.1 C 0 km/h
444 14-08-2003 01:49:03 23.9 C 10.6 g/m*3 23.9 C 0 km/h
445 14-08-2003 01:59:03 23.9 C 10.6 g/m*3 23.9 C 0 km/h
446 14-08-2003 02:09:03 23.8 C 10.76 g/m*3 23.8 C 0 km/h
447 14-08-2003 02:19:03 23.7 C 10.69 g/m*3 23.7 C 0 km/h
448 14-08-2003 02:29:03 23.5 C 10.79 g/m*3 23.5 C 0 km/h
449 14-08-2003 02:39:03 23.4 C 10.93 g/m*3 23.4 C 0 km/h
450 14-08-2003 02:49:03 23.4 C 10.93 g/m*3 23.4 C 0 km/h
Sensor: Nr:Datum:Temp:Abs-Feuchte:Windchill:Wind:
Aussen-T/F 451 14-08-2003 02:59:03 23.3 C 10.87 g/m*3 23.3 C 0 km/h
452 14-08-2003 03:09:03 23.3 C 11.08 g/m*3 23.3 C 0 km/h
453 14-08-2003 03:19:03 22.7 C 10.91 g/m*3 22.7 C 0 km/h
454 14-08-2003 03:29:03 21.6 C 12.71 g/m*3 21.6 C 0 km/h
455 14-08-2003 03:39:03 21.6 C 12.9 g/m*3 21.6 C 0 km/h
456 14-08-2003 03:49:03 20.9 C 13.3 g/m*3 20.9 C 0 km/h
457 14-08-2003 03:59:03 20.6 C 13.24 g/m*3 20.6 C 0 km/h
458 14-08-2003 04:09:03 20.8 C 12.86 g/m*3 20.8 C 0 km/h
459 14-08-2003 04:19:03 21.2 C 12.23 g/m*3 21.2 C 0 km/h
460 14-08-2003 04:29:03 21.2 C 12.42 g/m*3 21.2 C 0 km/h
461 14-08-2003 04:39:03 21.3 C 12.3 g/m*3 21.3 C 0 km/h
462 14-08-2003 04:49:03 21.5 C 12.07 g/m*3 21.5 C 0 km/h
463 14-08-2003 04:59:03 21.3 C 12.3 g/m*3 21.3 C 0 km/h
464 14-08-2003 05:09:03 21.1 C 12.16 g/m*3 21.1 C 0 km/h
465 14-08-2003 05:19:03 21 C 12.27 g/m*3 21 C 0 km/h
466 14-08-2003 05:29:03 20.1 C 12.86 g/m*3 20.1 C 0 km/h
467 14-08-2003 05:39:03 20.1 C 12.86 g/m*3 20.1 C 0 km/h
468 14-08-2003 05:49:03 20.1 C 12.69 g/m*3 20.1 C 0 km/h
469 14-08-2003 05:59:03 20.4 C 12.91 g/m*3 20.4 C 0 km/h
470 14-08-2003 06:09:03 20.5 C 12.81 g/m*3 20.5 C 0 km/h
471 14-08-2003 06:19:03 20.6 C 12.53 g/m*3 20.6 C 0 km/h
472 14-08-2003 06:29:03 20.9 C 12.38 g/m*3 20.9 C 0 km/h
473 14-08-2003 06:39:03 20.5 C 12.28 g/m*3 20.5 C 0 km/h
474 14-08-2003 06:49:03 20.3 C 12.31 g/m*3 20.3 C 0 km/h
475 14-08-2003 06:59:03 20.3 C 12.66 g/m*3 20.3 C 0 km/h
Sensor: Nr:Datum:Temp:Abs-Feuchte:Windchill:Wind:
Aussen-T/F 476 14-08-2003 07:09:03 20.4 C 12.74 g/m*3 20.4 C 0 km/h
477 14-08-2003 07:19:03 20.8 C 12.67 g/m*3 20.8 C 0 km/h
478 14-08-2003 07:29:03 21 C 12.64 g/m*3 21 C 0 km/h
479 14-08-2003 07:39:03 21.2 C 12.79 g/m*3 21.2 C 0 km/h
480 14-08-2003 07:49:03 21.4 C 12.75 g/m*3 21.4 C 0 km/h
481 14-08-2003 07:59:03 21.4 C 12.56 g/m*3 21.4 C 0 km/h
482 14-08-2003 08:09:03 21.6 C 12.14 g/m*3 21.6 C 0 km/h
483 14-08-2003 08:19:03 21.8 C 12.47 g/m*3 21.8 C 0 km/h
484 14-08-2003 08:29:03 21.9 C 12.54 g/m*3 21.9 C 0 km/h
485 14-08-2003 08:39:03 21.9 C 12.35 g/m*3 21.9 C 0 km/h
486 14-08-2003 08:49:03 22.2 C 12.37 g/m*3 22.2 C 0 km/h
487 14-08-2003 08:59:03 22.4 C 12.31 g/m*3 22.4 C 0 km/h
488 14-08-2003 09:09:03 22.5 C 12.18 g/m*3 22.5 C 0 km/h
489 14-08-2003 09:19:03 22.7 C 12.32 g/m*3 22.7 C 0 km/h
490 14-08-2003 09:29:03 22.7 C 12.12 g/m*3 22.7 C 0 km/h
491 14-08-2003 09:39:01 23.2 C 12.06 g/m*3 23.2 C 0 km/h
492 14-08-2003 09:49:01 24.2 C 12.32 g/m*3 24.2 C 0 km/h
493 14-08-2003 09:59:01 24.4 C 12.02 g/m*3 24.4 C 0 km/h
494 14-08-2003 10:09:01 24.9 C 11.9 g/m*3 24.9 C 0 km/h
495 14-08-2003 10:19:01 24.6 C 11.48 g/m*3 24.6 C 0 km/h
496 14-08-2003 10:29:01 24.9 C 11.67 g/m*3 24.9 C 0 km/h
497 14-08-2003 10:39:00 25.3 C 11.47 g/m*3 25.3 C 0 km/h
498 14-08-2003 10:49:00 25.8 C 11.8 g/m*3 25.8 C 0 km/h
499 14-08-2003 10:59:00 26.6 C 12.59 g/m*3 26.6 C 0 km/h
500 14-08-2003 11:09:01 26.2 C 11.57 g/m*3 26.2 C 0 km/h
Sensor: Nr:Datum:Temp:Abs-Feuchte:Windchill:Wind:
Aussen-T/F 501 14-08-2003 11:19:01 26.3 C 11.88 g/m*3 26.3 C 0 km/h
502 14-08-2003 11:29:01 26.3 C 11.64 g/m*3 26.3 C 0 km/h
503 14-08-2003 11:39:00 26.6 C 11.83 g/m*3 26.6 C 0 km/h
504 14-08-2003 11:49:00 26.7 C 11.9 g/m*3 26.7 C 0 km/h
505 14-08-2003 11:59:00 27.1 C 11.65 g/m*3 27.1 C 0 km/h
506 14-08-2003 12:09:01 26.6 C 11.08 g/m*3 26.6 C 0 km/h
507 14-08-2003 12:19:01 26.6 C 10.57 g/m*3 26.6 C 0 km/h
508 14-08-2003 12:29:01 27.2 C 10.15 g/m*3 27.2 C 0 km/h
509 14-08-2003 12:39:01 27.5 C 10.32 g/m*3 27.5 C 0 km/h
510 14-08-2003 12:49:01 28 C 10.06 g/m*3 28 C 0 km/h
511 14-08-2003 12:59:01 28.8 C 10.23 g/m*3 28.8 C 0 km/h
512 14-08-2003 13:09:00 28.2 C 10.17 g/m*3 28.2 C 0 km/h
513 14-08-2003 13:19:00 28.2 C 10.45 g/m*3 28.2 C 0 km/h
514 14-08-2003 13:29:00 29 C 10.34 g/m*3 29 C 0 km/h
515 14-08-2003 13:39:02 28.6 C 10.12 g/m*3 28.6 C 0 km/h
516 14-08-2003 13:49:02 27.9 C 9.47 g/m*3 27.9 C 0 km/h
517 14-08-2003 13:59:02 27.8 C 9.68 g/m*3 27.8 C 0 km/h
518 14-08-2003 14:09:01 28.4 C 10.01 g/m*3 28.4 C 0 km/h
519 14-08-2003 14:19:01 28.4 C 9.73 g/m*3 28.4 C 0 km/h
520 14-08-2003 14:29:01 28.1 C 9.57 g/m*3 28.1 C 0 km/h
521 14-08-2003 14:39:01 27.9 C 9.47 g/m*3 27.9 C 0 km/h
522 14-08-2003 14:49:01 28.2 C 9.9 g/m*3 28.2 C 0 km/h
523 14-08-2003 14:59:01 28.8 C 10.23 g/m*3 28.8 C 0 km/h
524 14-08-2003 15:09:01 28.8 C 10.23 g/m*3 28.8 C 0 km/h
525 14-08-2003 15:19:01 27.4 C 10 g/m*3 27.4 C 0 km/h
Sensor: Nr:Datum:Temp:Abs-Feuchte:Windchill:Wind:
Aussen-T/F 526 14-08-2003 15:29:01 26.4 C 9.71 g/m*3 26.4 C 0 km/h
527 14-08-2003 15:39:02 26.6 C 9.82 g/m*3 26.6 C 0 km/h
528 14-08-2003 15:49:02 27 C 9.78 g/m*3 27 C 0 km/h
529 14-08-2003 15:59:02 26.8 C 9.42 g/m*3 26.8 C 0 km/h
530 14-08-2003 16:09:02 27.5 C 9.52 g/m*3 27.5 C 0 km/h
531 14-08-2003 16:19:02 26.8 C 9.67 g/m*3 26.8 C 0 km/h
532 14-08-2003 16:29:02 25.8 C 9.63 g/m*3 25.8 C 0 km/h
533 14-08-2003 16:39:01 25.9 C 9.68 g/m*3 25.9 C 0 km/h
534 14-08-2003 16:49:01 26.1 C 9.79 g/m*3 26.1 C 0 km/h
535 14-08-2003 16:59:01 26.6 C 9.57 g/m*3 26.6 C 0 km/h
536 14-08-2003 17:09:01 26.8 C 9.42 g/m*3 26.8 C 0 km/h
537 14-08-2003 17:19:01 26.6 C 8.81 g/m*3 26.6 C 0 km/h
538 14-08-2003 17:29:01 26.2 C 8.62 g/m*3 26.2 C 0 km/h
539 14-08-2003 17:39:02 25.7 C 8.62 g/m*3 25.7 C 0 km/h
540 14-08-2003 17:49:02 25.8 C 8.91 g/m*3 25.8 C 0 km/h
541 14-08-2003 17:59:02 25.5 C 8.29 g/m*3 25.5 C 0 km/h
542 14-08-2003 18:09:02 26.7 C 8.1 g/m*3 26.7 C 0 km/h
543 14-08-2003 18:19:02 26.8 C 7.64 g/m*3 26.8 C 0 km/h
544 14-08-2003 18:29:02 27 C 7.46 g/m*3 27 C 0 km/h
545 14-08-2003 18:39:02 26.8 C 7.13 g/m*3 26.8 C 0 km/h
546 14-08-2003 18:49:02 26.8 C 6.87 g/m*3 26.8 C 0 km/h
547 14-08-2003 18:59:02 26.7 C 7.59 g/m*3 26.7 C 0 km/h
548 14-08-2003 19:09:02 26.9 C 7.42 g/m*3 26.9 C 0 km/h
549 14-08-2003 19:19:02 26.2 C 6.89 g/m*3 26.2 C 0 km/h
550 14-08-2003 19:29:02 25.7 C 6.94 g/m*3 25.7 C 0 km/h
Sensor: Nr:Datum:Temp:Abs-Feuchte:Windchill:Wind:
Aussen-T/F 551 14-08-2003 19:39:01 25.2 C 7.22 g/m*3 25.2 C 0 km/h
552 14-08-2003 19:49:01 24.9 C 7.55 g/m*3 24.9 C 0 km/h
553 14-08-2003 19:59:01 24.7 C 7.7 g/m*3 24.7 C 0 km/h
554 14-08-2003 20:09:01 24.1 C 7.44 g/m*3 24.1 C 0 km/h
555 14-08-2003 20:19:01 24.1 C 7.44 g/m*3 24.1 C 0 km/h
556 14-08-2003 20:29:01 24 C 7.4 g/m*3 24 C 0 km/h
557 14-08-2003 20:39:02 23.9 C 7.57 g/m*3 23.9 C 0 km/h
558 14-08-2003 20:49:02 23.7 C 7.49 g/m*3 23.7 C 0 km/h
559 14-08-2003 20:59:02 23.5 C 7.4 g/m*3 23.5 C 0 km/h
560 14-08-2003 21:09:02 23.5 C 7.4 g/m*3 23.5 C 0 km/h
561 14-08-2003 21:19:02 23.6 C 7.44 g/m*3 23.6 C 0 km/h
562 14-08-2003 21:29:02 23.5 C 7.4 g/m*3 23.5 C 0 km/h
563 14-08-2003 21:39:01 23.3 C 7.32 g/m*3 23.3 C 0 km/h
564 14-08-2003 21:49:01 22.9 C 7.15 g/m*3 22.9 C 0 km/h
565 14-08-2003 21:59:01 22.6 C 7.03 g/m*3 22.6 C 0 km/h
566 14-08-2003 22:10:03 22.3 C 6.91 g/m*3 22.3 C 0 km/h
567 14-08-2003 22:20:03 21.9 C 6.95 g/m*3 21.9 C 0 km/h
568 14-08-2003 22:30:03 21.5 C 6.98 g/m*3 21.5 C 0 km/h
569 14-08-2003 22:40:03 21.1 C 6.45 g/m*3 21.1 C 0 km/h
570 14-08-2003 22:50:03 21 C 6.41 g/m*3 21 C 0 km/h
571 14-08-2003 23:00:03 21 C 6.41 g/m*3 21 C 0 km/h
572 14-08-2003 23:10:03 20.8 C 6.52 g/m*3 20.8 C 0 km/h
573 14-08-2003 23:20:03 20.7 C 6.48 g/m*3 20.7 C 0 km/h
574 14-08-2003 23:30:03 20.5 C 6.58 g/m*3 20.5 C 0 km/h
575 14-08-2003 23:40:03 20.4 C 6.72 g/m*3 20.4 C 0 km/h
Sensor: Nr:Datum:Temp:Abs-Feuchte:Windchill:Wind:
Aussen-T/F 576 14-08-2003 23:50:03 20.2 C 6.64 g/m*3 20.2 C 0 km/h
577 15-08-2003 00:00:03 20 C 6.74 g/m*3 20 C 0 km/h
578 15-08-2003 00:10:03 19.9 C 6.87 g/m*3 19.9 C 0 km/h
579 15-08-2003 00:20:03 19.5 C 6.71 g/m*3 19.5 C 0 km/h
580 15-08-2003 00:30:03 19.3 C 6.8 g/m*3 19.3 C 0 km/h
581 15-08-2003 00:40:03 19.2 C 6.93 g/m*3 19.2 C 0 km/h
582 15-08-2003 00:50:03 19 C 6.84 g/m*3 19 C 0 km/h
583 15-08-2003 01:00:03 18.8 C 7.09 g/m*3 18.8 C 0 km/h
584 15-08-2003 01:10:03 18.6 C 7.16 g/m*3 18.6 C 0 km/h
585 15-08-2003 01:20:03 18.3 C 7.04 g/m*3 18.3 C 0 km/h
586 15-08-2003 01:30:03 18.2 C 7.15 g/m*3 18.2 C 0 km/h
587 15-08-2003 01:40:03 17.9 C 7.33 g/m*3 17.9 C 0 km/h
588 15-08-2003 01:50:03 17.8 C 7.29 g/m*3 17.8 C 0 km/h
589 15-08-2003 02:00:03 17.7 C 7.39 g/m*3 17.7 C 0 km/h
590 15-08-2003 02:10:03 17.5 C 7.31 g/m*3 17.5 C 0 km/h
591 15-08-2003 02:20:03 17.3 C 7.37 g/m*3 17.3 C 0 km/h
592 15-08-2003 02:30:03 17.1 C 7.42 g/m*3 17.1 C 0 km/h
593 15-08-2003 02:40:03 16.9 C 7.48 g/m*3 16.9 C 0 km/h
594 15-08-2003 02:50:03 16.8 C 7.58 g/m*3 16.8 C 0 km/h
595 15-08-2003 03:00:03 16.6 C 7.63 g/m*3 16.6 C 0 km/h
596 15-08-2003 03:10:03 16.4 C 7.68 g/m*3 16.4 C 0 km/h
597 15-08-2003 03:20:03 16.2 C 7.72 g/m*3 16.2 C 0 km/h
598 15-08-2003 03:30:03 16.2 C 7.72 g/m*3 16.2 C 0 km/h
599 15-08-2003 03:40:03 15.9 C 7.85 g/m*3 15.9 C 0 km/h
600 15-08-2003 03:50:03 15.8 C 7.81 g/m*3 15.8 C 0 km/h
Sensor: Nr:Datum:Temp:Abs-Feuchte:Windchill:Wind:
Aussen-T/F 601 15-08-2003 04:00:03 15.6 C 7.85 g/m*3 15.6 C 0 km/h
602 15-08-2003 04:10:03 15.5 C 7.93 g/m*3 15.5 C 0 km/h
603 15-08-2003 04:20:03 15.2 C 7.92 g/m*3 15.2 C 0 km/h
604 15-08-2003 04:30:03 14.9 C 7.9 g/m*3 14.9 C 0 km/h
605 15-08-2003 04:40:03 14.7 C 7.93 g/m*3 14.7 C 0 km/h
606 15-08-2003 04:50:03 14.6 C 7.88 g/m*3 14.6 C 0 km/h
607 15-08-2003 05:00:03 14.5 C 7.96 g/m*3 14.5 C 0 km/h
608 15-08-2003 05:10:03 14.3 C 7.99 g/m*3 14.3 C 0 km/h
609 15-08-2003 05:20:03 14.3 C 7.99 g/m*3 14.3 C 0 km/h
610 15-08-2003 05:30:03 14.4 C 8.16 g/m*3 14.4 C 0 km/h
611 15-08-2003 05:40:03 14.2 C 8.06 g/m*3 14.2 C 0 km/h
612 15-08-2003 05:50:03 14 C 8.08 g/m*3 14 C 0 km/h
613 15-08-2003 06:00:03 13.8 C 8.1 g/m*3 13.8 C 0 km/h
614 15-08-2003 06:10:03 13.7 C 8.17 g/m*3 13.7 C 0 km/h
615 15-08-2003 06:20:03 13.6 C 8.12 g/m*3 13.6 C 0 km/h
616 15-08-2003 06:30:03 13.5 C 8.19 g/m*3 13.5 C 0 km/h
617 15-08-2003 06:40:03 13.5 C 8.42 g/m*3 13.5 C 0 km/h
618 15-08-2003 06:50:03 13.5 C 8.42 g/m*3 13.5 C 0 km/h
619 15-08-2003 07:00:03 13.6 C 8.47 g/m*3 13.6 C 0 km/h
620 15-08-2003 07:10:03 13.7 C 8.53 g/m*3 13.7 C 0 km/h
621 15-08-2003 07:20:03 13.8 C 8.58 g/m*3 13.8 C 0 km/h
622 15-08-2003 07:30:03 14 C 8.68 g/m*3 14 C 0 km/h
623 15-08-2003 07:40:03 14.1 C 8.62 g/m*3 14.1 C 0 km/h
624 15-08-2003 07:50:03 14.7 C 8.81 g/m*3 14.7 C 0 km/h
625 15-08-2003 08:00:03 15 C 8.46 g/m*3 15 C 0 km/h
Sensor: Nr:Datum:Temp:Abs-Feuchte:Windchill:Wind:
Aussen-T/F 626 15-08-2003 08:10:03 15 C 8.46 g/m*3 15 C 0 km/h
627 15-08-2003 08:20:03 15.2 C 8.7 g/m*3 15.2 C 0 km/h
628 15-08-2003 08:30:03 15.2 C 8.7 g/m*3 15.2 C 0 km/h
629 15-08-2003 08:40:01 15.3 C 8.88 g/m*3 15.3 C 0 km/h
630 15-08-2003 08:50:01 15.6 C 9.04 g/m*3 15.6 C 0 km/h
631 15-08-2003 09:00:01 15.6 C 9.04 g/m*3 15.6 C 0 km/h
632 15-08-2003 09:10:01 15.9 C 9.21 g/m*3 15.9 C 0 km/h
633 15-08-2003 09:20:01 16.1 C 9.18 g/m*3 16.1 C 0 km/h
634 15-08-2003 09:30:01 16.5 C 9.27 g/m*3 16.5 C 0 km/h
635 15-08-2003 09:40:01 17 C 9.12 g/m*3 17 C 0 km/h
636 15-08-2003 09:50:01 17.1 C 9.03 g/m*3 17.1 C 0 km/h
637 15-08-2003 10:00:01 18.1 C 9.27 g/m*3 18.1 C 0 km/h
638 15-08-2003 10:10:01 18.8 C 9.02 g/m*3 18.8 C 0 km/h
639 15-08-2003 10:20:01 19.4 C 9.18 g/m*3 19.4 C 0 km/h
640 15-08-2003 10:30:01 19.7 C 9.17 g/m*3 19.7 C 0 km/h
641 15-08-2003 10:40:02 20 C 8.81 g/m*3 20 C 0 km/h
642 15-08-2003 10:50:02 20.8 C 8.87 g/m*3 20.8 C 0 km/h
643 15-08-2003 11:00:02 20 C 8.64 g/m*3 20 C 0 km/h
644 15-08-2003 11:10:01 19.5 C 8.56 g/m*3 19.5 C 0 km/h
645 15-08-2003 11:20:01 20.4 C 8.49 g/m*3 20.4 C 0 km/h
646 15-08-2003 11:30:01 21.2 C 8.52 g/m*3 21.2 C 0 km/h
647 15-08-2003 11:40:01 20.3 C 8.09 g/m*3 20.3 C 0 km/h
648 15-08-2003 11:50:01 21.3 C 8.2 g/m*3 21.3 C 0 km/h
649 15-08-2003 12:00:01 21.9 C 7.91 g/m*3 21.9 C 0 km/h
650 15-08-2003 12:10:01 21.9 C 7.53 g/m*3 21.9 C 0 km/h
Sensor: Nr:Datum:Temp:Abs-Feuchte:Windchill:Wind:
Aussen-T/F 651 15-08-2003 12:20:01 22.1 C 7.81 g/m*3 22.1 C 0 km/h
652 15-08-2003 12:30:01 22.1 C 7.42 g/m*3 22.1 C 0 km/h
653 15-08-2003 12:40:01 22.2 C 7.46 g/m*3 22.2 C 0 km/h
654 15-08-2003 12:50:01 23.3 C 7.53 g/m*3 23.3 C 0 km/h
655 15-08-2003 13:00:01 24.5 C 7.39 g/m*3 24.5 C 0 km/h
656 15-08-2003 13:10:01 24.6 C 6.98 g/m*3 24.6 C 0 km/h
657 15-08-2003 13:20:01 24.8 C 7.06 g/m*3 24.8 C 0 km/h
658 15-08-2003 13:30:01 25.8 C 7.22 g/m*3 25.8 C 0 km/h
659 15-08-2003 13:40:00 25 C 7.14 g/m*3 25 C 0 km/h
660 15-08-2003 13:50:00 25.3 C 6.55 g/m*3 25.3 C 0 km/h
661 15-08-2003 14:00:00 25.2 C 6.75 g/m*3 25.2 C 0 km/h
662 15-08-2003 14:10:00 25.4 C 7.3 g/m*3 25.4 C 0 km/h
663 15-08-2003 14:20:00 26.3 C 6.93 g/m*3 26.3 C 0 km/h
664 15-08-2003 14:30:00 26.7 C 7.34 g/m*3 26.7 C 0 km/h
665 15-08-2003 14:40:01 26.7 C 7.09 g/m*3 26.7 C 0 km/h
666 15-08-2003 14:50:01 28 C 7.61 g/m*3 28 C 0 km/h
667 15-08-2003 15:00:01 28.7 C 7.35 g/m*3 28.7 C 0 km/h
668 15-08-2003 15:10:01 29.4 C 6.75 g/m*3 29.4 C 0 km/h
669 15-08-2003 15:20:01 29.2 C 7.26 g/m*3 29.2 C 0 km/h
670 15-08-2003 15:30:01 29.4 C 6.75 g/m*3 29.4 C 0 km/h
671 15-08-2003 15:40:01 28.6 C 6.74 g/m*3 28.6 C 0 km/h
672 15-08-2003 15:50:01 29.3 C 6.42 g/m*3 29.3 C 0 km/h
673 15-08-2003 16:00:01 30 C 6.37 g/m*3 30 C 0 km/h
674 15-08-2003 16:10:00 30.1 C 6.1 g/m*3 30.1 C 0 km/h
675 15-08-2003 16:20:00 30 C 6.06 g/m*3 30 C 0 km/h
Sensor: Nr:Datum:Temp:Abs-Feuchte:Windchill:Wind:
Aussen-T/F 676 15-08-2003 16:30:00 30.1 C 6.1 g/m*3 30.1 C 0 km/h
677 15-08-2003 16:40:02 29.5 C 5.9 g/m*3 29.5 C 0 km/h
678 15-08-2003 16:50:02 30.2 C 6.13 g/m*3 30.2 C 0 km/h
679 15-08-2003 17:00:02 30 C 6.06 g/m*3 30 C 0 km/h
680 15-08-2003 17:10:02 30.2 C 6.13 g/m*3 30.2 C 0 km/h
681 15-08-2003 17:20:02 29.8 C 6 g/m*3 29.8 C 0 km/h
682 15-08-2003 17:30:02 30.2 C 6.13 g/m*3 30.2 C 0 km/h
683 15-08-2003 17:40:02 30.3 C 6.16 g/m*3 30.3 C 0 km/h
684 15-08-2003 17:50:02 31 C 6.4 g/m*3 31 C 0 km/h
685 15-08-2003 18:00:02 31 C 6.4 g/m*3 31 C 0 km/h
686 15-08-2003 18:10:00 30.3 C 6.16 g/m*3 30.3 C 0 km/h
687 15-08-2003 18:20:00 29.8 C 6 g/m*3 29.8 C 0 km/h
688 15-08-2003 18:30:00 30.2 C 6.13 g/m*3 30.2 C 0 km/h
689 15-08-2003 18:40:01 30.6 C 6.26 g/m*3 30.6 C 0 km/h
690 15-08-2003 18:50:01 30.6 C 6.26 g/m*3 30.6 C 0 km/h
691 15-08-2003 19:00:01 30 C 6.06 g/m*3 30 C 0 km/h
692 15-08-2003 19:10:01 29.8 C 6 g/m*3 29.8 C 0 km/h
693 15-08-2003 19:20:01 28.6 C 5.62 g/m*3 28.6 C 0 km/h
694 15-08-2003 19:30:01 29.2 C 5.81 g/m*3 29.2 C 0 km/h
695 15-08-2003 19:40:01 28.9 C 5.71 g/m*3 28.9 C 0 km/h
696 15-08-2003 19:50:01 28.3 C 5.53 g/m*3 28.3 C 0 km/h
697 15-08-2003 20:00:01 27.6 C 5.59 g/m*3 27.6 C 0 km/h
698 15-08-2003 20:10:02 27.4 C 5.79 g/m*3 27.4 C 0 km/h
699 15-08-2003 20:20:02 25.9 C 6.05 g/m*3 25.9 C 0 km/h
700 15-08-2003 20:30:02 25 C 6.22 g/m*3 25 C 0 km/h
Sensor: Nr:Datum:Temp:Abs-Feuchte:Windchill:Wind:
Aussen-T/F 701 15-08-2003 20:40:01 24.6 C 6.3 g/m*3 24.6 C 0 km/h
702 15-08-2003 20:50:01 23.8 C 6.45 g/m*3 23.8 C 0 km/h
703 15-08-2003 21:00:01 23.1 C 6.41 g/m*3 23.1 C 0 km/h
704 15-08-2003 21:10:01 22.5 C 6.39 g/m*3 22.5 C 0 km/h
705 15-08-2003 21:20:01 22.2 C 6.68 g/m*3 22.2 C 0 km/h
706 15-08-2003 21:30:01 21.9 C 6.75 g/m*3 21.9 C 0 km/h
707 15-08-2003 21:40:01 21.5 C 6.79 g/m*3 21.5 C 0 km/h
708 15-08-2003 21:50:01 20.9 C 6.74 g/m*3 20.9 C 0 km/h
709 15-08-2003 22:00:01 20.3 C 6.86 g/m*3 20.3 C 0 km/h
710 15-08-2003 22:10:00 20.1 C 6.95 g/m*3 20.1 C 0 km/h
711 15-08-2003 22:20:00 20 C 6.91 g/m*3 20 C 0 km/h
712 15-08-2003 22:30:00 20 C 6.91 g/m*3 20 C 0 km/h
713 15-08-2003 22:41:03 19.6 C 6.92 g/m*3 19.6 C 0 km/h
714 15-08-2003 22:51:03 19.5 C 7.05 g/m*3 19.5 C 0 km/h
715 15-08-2003 23:01:03 19.5 C 7.05 g/m*3 19.5 C 0 km/h
716 15-08-2003 23:11:03 19.1 C 7.05 g/m*3 19.1 C 0 km/h
717 15-08-2003 23:21:03 18.9 C 7.13 g/m*3 18.9 C 0 km/h
718 15-08-2003 23:31:03 18.9 C 7.29 g/m*3 18.9 C 0 km/h
719 15-08-2003 23:41:03 18.7 C 7.2 g/m*3 18.7 C 0 km/h
720 15-08-2003 23:51:03 18.5 C 7.28 g/m*3 18.5 C 0 km/h
721 16-08-2003 00:01:03 18.2 C 7.46 g/m*3 18.2 C 0 km/h
722 16-08-2003 00:11:03 18 C 7.22 g/m*3 18 C 0 km/h
723 16-08-2003 00:21:03 17.8 C 7.29 g/m*3 17.8 C 0 km/h
724 16-08-2003 00:31:03 17.4 C 7.41 g/m*3 17.4 C 0 km/h
725 16-08-2003 00:41:03 17.4 C 7.26 g/m*3 17.4 C 0 km/h
Sensor: Nr:Datum:Temp:Abs-Feuchte:Windchill:Wind:
Aussen-T/F 726 16-08-2003 00:51:03 16.9 C 7.48 g/m*3 16.9 C 0 km/h
727 16-08-2003 01:01:03 16.9 C 7.62 g/m*3 16.9 C 0 km/h
728 16-08-2003 01:11:03 16.7 C 7.53 g/m*3 16.7 C 0 km/h
729 16-08-2003 01:21:03 16.7 C 7.67 g/m*3 16.7 C 0 km/h
730 16-08-2003 01:31:03 16.3 C 7.35 g/m*3 16.3 C 0 km/h
731 16-08-2003 01:41:03 16.3 C 7.63 g/m*3 16.3 C 0 km/h
732 16-08-2003 01:51:03 16 C 7.63 g/m*3 16 C 0 km/h
733 16-08-2003 02:01:03 15.8 C 7.81 g/m*3 15.8 C 0 km/h
734 16-08-2003 02:11:03 15.7 C 7.76 g/m*3 15.7 C 0 km/h
735 16-08-2003 02:21:03 15.5 C 7.67 g/m*3 15.5 C 0 km/h
736 16-08-2003 02:31:03 15.3 C 7.57 g/m*3 15.3 C 0 km/h
737 16-08-2003 02:41:03 15.2 C 7.66 g/m*3 15.2 C 0 km/h
738 16-08-2003 02:51:03 15 C 7.57 g/m*3 15 C 0 km/h
739 16-08-2003 03:01:03 15 C 7.69 g/m*3 15 C 0 km/h
740 16-08-2003 03:11:03 14.7 C 7.93 g/m*3 14.7 C 0 km/h
741 16-08-2003 03:21:03 14.7 C 7.93 g/m*3 14.7 C 0 km/h
742 16-08-2003 03:31:03 14.4 C 7.79 g/m*3 14.4 C 0 km/h
743 16-08-2003 03:41:03 14.4 C 7.79 g/m*3 14.4 C 0 km/h
744 16-08-2003 03:51:03 14.3 C 7.74 g/m*3 14.3 C 0 km/h
745 16-08-2003 04:01:03 14.2 C 7.69 g/m*3 14.2 C 0 km/h
746 16-08-2003 04:11:03 14.1 C 7.65 g/m*3 14.1 C 0 km/h
747 16-08-2003 04:21:03 13.9 C 7.79 g/m*3 13.9 C 0 km/h
748 16-08-2003 04:31:03 13.7 C 7.82 g/m*3 13.7 C 0 km/h
749 16-08-2003 04:41:03 13.5 C 7.84 g/m*3 13.5 C 0 km/h
750 16-08-2003 04:51:03 13.4 C 7.79 g/m*3 13.4 C 0 km/h
Sensor: Nr:Datum:Temp:Abs-Feuchte:Windchill:Wind:
Aussen-T/F 751 16-08-2003 05:01:03 13.4 C 7.79 g/m*3 13.4 C 0 km/h
752 16-08-2003 05:11:03 13.3 C 7.74 g/m*3 13.3 C 0 km/h
753 16-08-2003 05:21:03 13.2 C 7.81 g/m*3 13.2 C 0 km/h
754 16-08-2003 05:31:03 13.1 C 7.87 g/m*3 13.1 C 0 km/h
755 16-08-2003 05:41:03 12.9 C 8 g/m*3 12.9 C 0 km/h
756 16-08-2003 05:51:03 12.8 C 7.95 g/m*3 12.8 C 0 km/h
757 16-08-2003 06:01:03 12.7 C 8.01 g/m*3 12.7 C 0 km/h
758 16-08-2003 06:11:03 12.6 C 8.08 g/m*3 12.6 C 0 km/h
759 16-08-2003 06:21:03 12.5 C 8.03 g/m*3 12.5 C 0 km/h
760 16-08-2003 06:31:03 12.3 C 8.04 g/m*3 12.3 C 0 km/h
761 16-08-2003 06:41:03 12.2 C 7.99 g/m*3 12.2 C 0 km/h
762 16-08-2003 06:51:03 12.1 C 8.04 g/m*3 12.1 C 0 km/h
763 16-08-2003 07:01:03 12.2 C 7.99 g/m*3 12.2 C 0 km/h
764 16-08-2003 07:11:03 12.4 C 8.09 g/m*3 12.4 C 0 km/h
765 16-08-2003 07:21:03 12.5 C 8.14 g/m*3 12.5 C 0 km/h
766 16-08-2003 07:31:03 12.6 C 8.19 g/m*3 12.6 C 0 km/h
767 16-08-2003 07:41:03 12.7 C 8.13 g/m*3 12.7 C 0 km/h
768 16-08-2003 07:51:03 13 C 8.28 g/m*3 13 C 0 km/h
769 16-08-2003 08:01:03 13.1 C 8.33 g/m*3 13.1 C 0 km/h
770 16-08-2003 08:11:03 13.2 C 8.38 g/m*3 13.2 C 0 km/h
771 16-08-2003 08:21:03 13.5 C 8.42 g/m*3 13.5 C 0 km/h
772 16-08-2003 08:31:03 13.8 C 8.46 g/m*3 13.8 C 0 km/h
773 16-08-2003 08:41:03 14.5 C 8.46 g/m*3 14.5 C 0 km/h
774 16-08-2003 08:51:03 14.7 C 8.31 g/m*3 14.7 C 0 km/h
775 16-08-2003 09:01:03 15.2 C 8.44 g/m*3 15.2 C 0 km/h
Sensor: Nr:Datum:Temp:Abs-Feuchte:Windchill:Wind:
Aussen-T/F 776 16-08-2003 09:11:03 15.5 C 8.33 g/m*3 15.5 C 0 km/h
777 16-08-2003 09:21:03 15.9 C 8.26 g/m*3 15.9 C 0 km/h
778 16-08-2003 09:31:03 16.4 C 8.1 g/m*3 16.4 C 0 km/h
779 16-08-2003 09:41:03 16.8 C 8.29 g/m*3 16.8 C 0 km/h
780 16-08-2003 09:51:03 17.5 C 8.35 g/m*3 17.5 C 0 km/h
781 16-08-2003 10:01:03 18 C 8.29 g/m*3 18 C 0 km/h
782 16-08-2003 10:11:03 18.2 C 8.08 g/m*3 18.2 C 0 km/h
783 16-08-2003 10:21:03 18.8 C 8.37 g/m*3 18.8 C 0 km/h
784 16-08-2003 10:31:03 19.7 C 8.49 g/m*3 19.7 C 0 km/h
785 16-08-2003 10:41:02 20.4 C 8.31 g/m*3 20.4 C 0 km/h
786 16-08-2003 10:51:02 20.8 C 8.33 g/m*3 20.8 C 0 km/h
787 16-08-2003 11:01:02 21.2 C 8.34 g/m*3 21.2 C 0 km/h
788 16-08-2003 11:11:01 21.5 C 8.11 g/m*3 21.5 C 0 km/h
789 16-08-2003 11:21:01 21.8 C 8.44 g/m*3 21.8 C 0 km/h
790 16-08-2003 11:31:01 22.4 C 8.14 g/m*3 22.4 C 0 km/h
791 16-08-2003 11:41:01 22.9 C 7.97 g/m*3 22.9 C 0 km/h
792 16-08-2003 11:51:01 23.4 C 7.78 g/m*3 23.4 C 0 km/h
793 16-08-2003 12:01:01 23.8 C 7.53 g/m*3 23.8 C 0 km/h
794 16-08-2003 12:11:01 24.1 C 7.66 g/m*3 24.1 C 0 km/h
795 16-08-2003 12:21:01 24.2 C 7.48 g/m*3 24.2 C 0 km/h
796 16-08-2003 12:31:01 24.4 C 7.34 g/m*3 24.4 C 0 km/h
797 16-08-2003 12:41:01 24.5 C 7.16 g/m*3 24.5 C 0 km/h
798 16-08-2003 12:51:01 24.9 C 7.32 g/m*3 24.9 C 0 km/h
799 16-08-2003 13:01:01 25.6 C 7.38 g/m*3 25.6 C 0 km/h
800 16-08-2003 13:11:00 25.4 C 7.3 g/m*3 25.4 C 0 km/h
Sensor: Nr:Datum:Temp:Abs-Feuchte:Windchill:Wind:
Aussen-T/F 801 16-08-2003 13:21:00 25.8 C 7.46 g/m*3 25.8 C 0 km/h
802 16-08-2003 13:31:00 25.7 C 7.18 g/m*3 25.7 C 0 km/h
803 16-08-2003 13:41:02 26.6 C 7.05 g/m*3 26.6 C 0 km/h
804 16-08-2003 13:51:02 27 C 6.95 g/m*3 27 C 0 km/h
805 16-08-2003 14:01:02 27.6 C 6.92 g/m*3 27.6 C 0 km/h
806 16-08-2003 14:11:01 27.8 C 6.99 g/m*3 27.8 C 0 km/h
807 16-08-2003 14:21:01 27.7 C 6.69 g/m*3 27.7 C 0 km/h
808 16-08-2003 14:31:01 28.3 C 6.36 g/m*3 28.3 C 0 km/h
809 16-08-2003 14:41:02 29.1 C 6.35 g/m*3 29.1 C 0 km/h
810 16-08-2003 14:51:02 29.6 C 6.53 g/m*3 29.6 C 0 km/h
811 16-08-2003 15:01:02 28.9 C 6 g/m*3 28.9 C 0 km/h
812 16-08-2003 15:11:02 29.1 C 6.06 g/m*3 29.1 C 0 km/h
813 16-08-2003 15:21:02 29.2 C 5.81 g/m*3 29.2 C 0 km/h
814 16-08-2003 15:31:02 30.1 C 6.1 g/m*3 30.1 C 0 km/h
815 16-08-2003 15:41:02 29.8 C 6 g/m*3 29.8 C 0 km/h
816 16-08-2003 15:51:02 29.1 C 5.78 g/m*3 29.1 C 0 km/h
817 16-08-2003 16:01:02 29.3 C 5.84 g/m*3 29.3 C 0 km/h
818 16-08-2003 16:11:01 29.9 C 6.03 g/m*3 29.9 C 0 km/h
819 16-08-2003 16:21:01 30.7 C 6.3 g/m*3 30.7 C 0 km/h
820 16-08-2003 16:31:01 31 C 6.4 g/m*3 31 C 0 km/h
821 16-08-2003 16:41:02 30.2 C 6.13 g/m*3 30.2 C 0 km/h
822 16-08-2003 16:51:02 30.2 C 6.13 g/m*3 30.2 C 0 km/h
823 16-08-2003 17:01:02 30.2 C 6.13 g/m*3 30.2 C 0 km/h
824 16-08-2003 17:11:02 30.3 C 6.16 g/m*3 30.3 C 0 km/h
825 16-08-2003 17:21:02 30 C 6.06 g/m*3 30 C 0 km/h
Sensor: Nr:Datum:Temp:Abs-Feuchte:Windchill:Wind:
Aussen-T/F 826 16-08-2003 17:31:02 29.5 C 5.9 g/m*3 29.5 C 0 km/h
827 16-08-2003 17:41:01 29.5 C 5.9 g/m*3 29.5 C 0 km/h
828 16-08-2003 17:51:01 30.4 C 6.2 g/m*3 30.4 C 0 km/h
829 16-08-2003 18:01:01 30.1 C 6.1 g/m*3 30.1 C 0 km/h
830 16-08-2003 18:11:02 29.5 C 5.9 g/m*3 29.5 C 0 km/h
831 16-08-2003 18:21:02 29.2 C 5.81 g/m*3 29.2 C 0 km/h
832 16-08-2003 18:31:02 29.2 C 6.1 g/m*3 29.2 C 0 km/h
833 16-08-2003 18:41:01 29.1 C 5.78 g/m*3 29.1 C 0 km/h
834 16-08-2003 18:51:01 28.7 C 5.93 g/m*3 28.7 C 0 km/h
835 16-08-2003 19:01:01 28.7 C 5.93 g/m*3 28.7 C 0 km/h
836 16-08-2003 19:11:02 28.6 C 5.62 g/m*3 28.6 C 0 km/h
837 16-08-2003 19:21:02 27.9 C 5.68 g/m*3 27.9 C 0 km/h
838 16-08-2003 19:31:02 27.7 C 5.62 g/m*3 27.7 C 0 km/h
839 16-08-2003 19:41:01 27 C 5.4 g/m*3 27 C 0 km/h
840 16-08-2003 19:51:01 27.3 C 5.49 g/m*3 27.3 C 0 km/h
841 16-08-2003 20:01:01 26.9 C 5.63 g/m*3 26.9 C 0 km/h
842 16-08-2003 20:11:02 26.2 C 6.15 g/m*3 26.2 C 0 km/h
843 16-08-2003 20:21:02 25.7 C 6.7 g/m*3 25.7 C 0 km/h
844 16-08-2003 20:31:02 25 C 6.68 g/m*3 25 C 0 km/h
845 16-08-2003 20:41:01 24.3 C 6.64 g/m*3 24.3 C 0 km/h
846 16-08-2003 20:51:01 23.7 C 6.63 g/m*3 23.7 C 0 km/h
847 16-08-2003 21:01:01 23.1 C 6.61 g/m*3 23.1 C 0 km/h
848 16-08-2003 21:11:01 22.8 C 6.91 g/m*3 22.8 C 0 km/h
849 16-08-2003 21:21:01 22.7 C 6.87 g/m*3 22.7 C 0 km/h
850 16-08-2003 21:31:01 22.3 C 6.91 g/m*3 22.3 C 0 km/h
Sensor: Nr:Datum:Temp:Abs-Feuchte:Windchill:Wind:
Aussen-T/F 851 16-08-2003 21:41:57 22.1 C 6.83 g/m*3 22.1 C 0 km/h
852 16-08-2003 21:51:57 22.1 C 6.83 g/m*3 22.1 C 0 km/h
853 16-08-2003 22:01:57 21.9 C 6.95 g/m*3 21.9 C 0 km/h
854 16-08-2003 22:11:57 21.8 C 7.1 g/m*3 21.8 C 0 km/h
855 16-08-2003 22:21:02 21.8 C 7.1 g/m*3 21.8 C 0 km/h
856 16-08-2003 22:31:02 21.4 C 6.94 g/m*3 21.4 C 0 km/h
857 16-08-2003 22:42:01 21.1 C 7 g/m*3 21.1 C 0 km/h
858 16-08-2003 22:52:01 20.9 C 7.29 g/m*3 20.9 C 0 km/h
859 16-08-2003 23:02:01 20.7 C 7.2 g/m*3 20.7 C 0 km/h
860 16-08-2003 23:12:01 20.5 C 7.12 g/m*3 20.5 C 0 km/h
861 16-08-2003 23:22:01 20.3 C 7.21 g/m*3 20.3 C 0 km/h
862 16-08-2003 23:32:01 20.1 C 7.13 g/m*3 20.1 C 0 km/h
863 16-08-2003 23:42:01 20.1 C 6.95 g/m*3 20.1 C 0 km/h
864 16-08-2003 23:52:01 20 C 7.09 g/m*3 20 C 0 km/h
865 17-08-2003 00:02:01 19.7 C 7.13 g/m*3 19.7 C 0 km/h
866 17-08-2003 00:12:01 19.5 C 7.05 g/m*3 19.5 C 0 km/h
867 17-08-2003 00:22:01 19.3 C 7.13 g/m*3 19.3 C 0 km/h
868 17-08-2003 00:32:01 19.2 C 7.09 g/m*3 19.2 C 0 km/h
869 17-08-2003 00:42:01 19.1 C 7.05 g/m*3 19.1 C 0 km/h
870 17-08-2003 00:52:01 18.8 C 7.25 g/m*3 18.8 C 0 km/h
871 17-08-2003 01:02:01 18.7 C 7.2 g/m*3 18.7 C 0 km/h
872 17-08-2003 01:12:01 18.6 C 7.32 g/m*3 18.6 C 0 km/h
873 17-08-2003 01:22:01 18.5 C 7.28 g/m*3 18.5 C 0 km/h
874 17-08-2003 01:32:01 18.5 C 7.44 g/m*3 18.5 C 0 km/h
875 17-08-2003 01:42:01 18.3 C 7.51 g/m*3 18.3 C 0 km/h
Sensor: Nr:Datum:Temp:Abs-Feuchte:Windchill:Wind:
Aussen-T/F 876 17-08-2003 01:52:01 18.1 C 7.42 g/m*3 18.1 C 0 km/h
877 17-08-2003 02:02:01 18.1 C 7.26 g/m*3 18.1 C 0 km/h
878 17-08-2003 02:12:01 17.9 C 7.79 g/m*3 17.9 C 0 km/h
879 17-08-2003 02:22:01 17.6 C 7.35 g/m*3 17.6 C 0 km/h
880 17-08-2003 02:32:01 17.5 C 7.45 g/m*3 17.5 C 0 km/h
881 17-08-2003 02:42:01 17.4 C 7.26 g/m*3 17.4 C 0 km/h
882 17-08-2003 02:52:01 17.2 C 7.18 g/m*3 17.2 C 0 km/h
883 17-08-2003 03:02:01 17 C 7.23 g/m*3 17 C 0 km/h
884 17-08-2003 03:12:01 16.8 C 7.15 g/m*3 16.8 C 0 km/h
885 17-08-2003 03:22:01 16.6 C 7.06 g/m*3 16.6 C 0 km/h
886 17-08-2003 03:32:01 16.6 C 7.35 g/m*3 16.6 C 0 km/h
887 17-08-2003 03:42:01 16.4 C 7.26 g/m*3 16.4 C 0 km/h
888 17-08-2003 03:52:01 16.3 C 7.21 g/m*3 16.3 C 0 km/h
889 17-08-2003 04:02:01 16.2 C 7.31 g/m*3 16.2 C 0 km/h
890 17-08-2003 04:12:01 16.2 C 7.45 g/m*3 16.2 C 0 km/h
891 17-08-2003 04:22:01 16.1 C 7.4 g/m*3 16.1 C 0 km/h
892 17-08-2003 04:32:01 15.8 C 7.27 g/m*3 15.8 C 0 km/h
893 17-08-2003 04:42:01 15.7 C 7.36 g/m*3 15.7 C 0 km/h
894 17-08-2003 04:52:01 15.6 C 7.31 g/m*3 15.6 C 0 km/h
895 17-08-2003 05:02:01 15.5 C 7.27 g/m*3 15.5 C 0 km/h
896 17-08-2003 05:12:01 15.4 C 7.36 g/m*3 15.4 C 0 km/h
897 17-08-2003 05:22:01 15.3 C 7.31 g/m*3 15.3 C 0 km/h
898 17-08-2003 05:32:01 15 C 7.44 g/m*3 15 C 0 km/h
899 17-08-2003 05:42:01 15 C 7.31 g/m*3 15 C 0 km/h
900 17-08-2003 05:52:01 14.8 C 7.22 g/m*3 14.8 C 0 km/h
Sensor: Nr:Datum:Temp:Abs-Feuchte:Windchill:Wind:
Aussen-T/F 901 17-08-2003 06:02:01 14.8 C 7.6 g/m*3 14.8 C 0 km/h
902 17-08-2003 06:12:01 14.7 C 7.68 g/m*3 14.7 C 0 km/h
903 17-08-2003 06:22:01 14.7 C 7.68 g/m*3 14.7 C 0 km/h
904 17-08-2003 06:32:01 14.6 C 7.76 g/m*3 14.6 C 0 km/h
905 17-08-2003 06:42:01 14.7 C 7.93 g/m*3 14.7 C 0 km/h
906 17-08-2003 06:52:01 14.8 C 8.11 g/m*3 14.8 C 0 km/h
907 17-08-2003 07:02:01 14.8 C 8.11 g/m*3 14.8 C 0 km/h
908 17-08-2003 07:12:01 14.9 C 8.16 g/m*3 14.9 C 0 km/h
909 17-08-2003 07:22:01 15 C 8.08 g/m*3 15 C 0 km/h
910 17-08-2003 07:32:01 15.2 C 8.31 g/m*3 15.2 C 0 km/h
911 17-08-2003 07:42:01 15.3 C 8.1 g/m*3 15.3 C 0 km/h
912 17-08-2003 07:52:01 15.5 C 8.46 g/m*3 15.5 C 0 km/h
913 17-08-2003 08:02:01 15.7 C 8.43 g/m*3 15.7 C 0 km/h
914 17-08-2003 08:12:01 15.8 C 8.35 g/m*3 15.8 C 0 km/h
915 17-08-2003 08:22:01 16.2 C 8.41 g/m*3 16.2 C 0 km/h
916 17-08-2003 08:32:01 16.7 C 8.67 g/m*3 16.7 C 0 km/h
917 17-08-2003 08:42:01 17.2 C 8.64 g/m*3 17.2 C 0 km/h
918 17-08-2003 08:52:01 18.2 C 8.55 g/m*3 18.2 C 0 km/h
919 17-08-2003 09:02:01 18.6 C 8.75 g/m*3 18.6 C 0 km/h
920 17-08-2003 09:12:01 18.7 C 8.65 g/m*3 18.7 C 0 km/h
921 17-08-2003 09:22:01 19 C 8.31 g/m*3 19 C 0 km/h
922 17-08-2003 09:32:01 19.3 C 8.29 g/m*3 19.3 C 0 km/h
923 17-08-2003 09:42:01 19.7 C 8.32 g/m*3 19.7 C 0 km/h
924 17-08-2003 09:52:01 20.4 C 8.14 g/m*3 20.4 C 0 km/h
925 17-08-2003 10:02:01 21 C 7.88 g/m*3 21 C 0 km/h
Sensor: Nr:Datum:Temp:Abs-Feuchte:Windchill:Wind:
Aussen-T/F 926 17-08-2003 10:12:01 21.7 C 7.25 g/m*3 21.7 C 0 km/h
927 17-08-2003 10:22:01 22.2 C 7.26 g/m*3 22.2 C 0 km/h
928 17-08-2003 10:32:02 22.4 C 7.35 g/m*3 22.4 C 0 km/h
929 17-08-2003 10:42:02 22.5 C 7.39 g/m*3 22.5 C 0 km/h
930 17-08-2003 10:52:02 23 C 7.4 g/m*3 23 C 0 km/h
931 17-08-2003 11:02:02 23.4 C 7.15 g/m*3 23.4 C 0 km/h
932 17-08-2003 11:12:02 23.4 C 7.15 g/m*3 23.4 C 0 km/h
933 17-08-2003 11:22:02 24.2 C 7.26 g/m*3 24.2 C 0 km/h
934 17-08-2003 11:32:01 25.2 C 6.98 g/m*3 25.2 C 0 km/h
935 17-08-2003 11:42:01 25.7 C 7.42 g/m*3 25.7 C 0 km/h
936 17-08-2003 11:52:01 26.6 C 7.3 g/m*3 26.6 C 0 km/h
937 17-08-2003 12:02:03 26.4 C 6.97 g/m*3 26.4 C 0 km/h
938 17-08-2003 12:12:03 25.9 C 7.02 g/m*3 25.9 C 0 km/h
939 17-08-2003 12:22:03 25.8 C 7.22 g/m*3 25.8 C 0 km/h
940 17-08-2003 12:32:06 25.8 C 6.98 g/m*3 25.8 C 0 km/h
941 17-08-2003 12:42:06 25.6 C 7.62 g/m*3 25.6 C 0 km/h
942 17-08-2003 12:52:06 25.2 C 8.15 g/m*3 25.2 C 0 km/h
943 17-08-2003 13:02:02 25.3 C 7.96 g/m*3 25.3 C 0 km/h
944 17-08-2003 13:12:02 25.9 C 7.26 g/m*3 25.9 C 0 km/h
945 17-08-2003 13:22:02 27.2 C 7.29 g/m*3 27.2 C 0 km/h
946 17-08-2003 13:32:02 27.9 C 7.3 g/m*3 27.9 C 0 km/h
947 17-08-2003 13:42:02 28 C 7.07 g/m*3 28 C 0 km/h
948 17-08-2003 13:52:02 28.3 C 6.91 g/m*3 28.3 C 0 km/h
949 17-08-2003 14:02:03 28.6 C 7.03 g/m*3 28.6 C 0 km/h
950 17-08-2003 14:12:03 28.9 C 7.14 g/m*3 28.9 C 0 km/h
Sensor: Nr:Datum:Temp:Abs-Feuchte:Windchill:Wind:
Aussen-T/F 951 17-08-2003 14:22:03 29 C 7.18 g/m*3 29 C 0 km/h
952 17-08-2003 14:32:01 29.2 C 7.26 g/m*3 29.2 C 0 km/h
953 17-08-2003 14:42:01 29.3 C 7.3 g/m*3 29.3 C 0 km/h
954 17-08-2003 14:52:01 30.3 C 7.4 g/m*3 30.3 C 0 km/h
955 17-08-2003 15:02:00 30.3 C 7.4 g/m*3 30.3 C 0 km/h
956 17-08-2003 15:12:00 30.5 C 7.17 g/m*3 30.5 C 0 km/h
957 17-08-2003 15:22:00 30.7 C 6.93 g/m*3 30.7 C 0 km/h
958 17-08-2003 15:32:01 30.6 C 7.2 g/m*3 30.6 C 0 km/h
959 17-08-2003 15:42:01 30.3 C 7.4 g/m*3 30.3 C 0 km/h
960 17-08-2003 15:52:01 30 C 7.28 g/m*3 30 C 0 km/h
961 17-08-2003 16:02:00 29.4 C 8.22 g/m*3 29.4 C 0 km/h
962 17-08-2003 16:12:00 28 C 8.7 g/m*3 28 C 0 km/h
963 17-08-2003 16:22:00 27 C 9.01 g/m*3 27 C 0 km/h
964 17-08-2003 16:32:01 27.8 C 8.61 g/m*3 27.8 C 0 km/h
965 17-08-2003 16:42:01 28.6 C 8.43 g/m*3 28.6 C 0 km/h
966 17-08-2003 16:52:01 29.2 C 7.84 g/m*3 29.2 C 0 km/h
967 17-08-2003 17:02:07 29.6 C 8.31 g/m*3 29.6 C 0 km/h
968 17-08-2003 17:12:07 30 C 7.58 g/m*3 30 C 0 km/h
969 17-08-2003 17:22:07 30.1 C 7.32 g/m*3 30.1 C 0 km/h
970 17-08-2003 17:32:01 30.1 C 7.32 g/m*3 30.1 C 0 km/h
971 17-08-2003 17:42:01 30.1 C 7.32 g/m*3 30.1 C 0 km/h
972 17-08-2003 17:52:01 30.1 C 7.62 g/m*3 30.1 C 0 km/h
973 17-08-2003 18:02:00 30.3 C 7.7 g/m*3 30.3 C 0 km/h
974 17-08-2003 18:12:00 30.3 C 7.4 g/m*3 30.3 C 0 km/h
975 17-08-2003 18:22:00 30.4 C 7.44 g/m*3 30.4 C 0 km/h
Sensor: Nr:Datum:Temp:Abs-Feuchte:Windchill:Wind:
Aussen-T/F 976 17-08-2003 18:32:01 30.4 C 7.44 g/m*3 30.4 C 0 km/h
977 17-08-2003 18:42:01 30.5 C 7.48 g/m*3 30.5 C 0 km/h
978 17-08-2003 18:52:01 30.3 C 7.09 g/m*3 30.3 C 0 km/h
979 17-08-2003 19:02:00 30 C 7.28 g/m*3 30 C 0 km/h
980 17-08-2003 19:12:00 29.5 C 8.26 g/m*3 29.5 C 0 km/h
981 17-08-2003 19:22:00 28.8 C 8.52 g/m*3 28.8 C 0 km/h
982 17-08-2003 19:32:02 28.2 C 8.25 g/m*3 28.2 C 0 km/h
983 17-08-2003 19:42:02 28 C 8.16 g/m*3 28 C 0 km/h
984 17-08-2003 19:52:02 27.8 C 8.34 g/m*3 27.8 C 0 km/h
985 17-08-2003 20:02:26 27.5 C 8.47 g/m*3 27.5 C 0 km/h
986 17-08-2003 20:12:26 27.2 C 8.33 g/m*3 27.2 C 0 km/h
987 17-08-2003 20:22:26 21.6 C 6.07 g/m*3 21.6 C 0 km/h
988 17-08-2003 20:32:57 20.4 C 5.66 g/m*3 20.4 C 0 km/h
989 17-08-2003 20:42:57 20.1 C 5.91 g/m*3 20.1 C 0 km/h
990 17-08-2003 20:52:57 20.1 C 6.26 g/m*3 20.1 C 0 km/h
991 17-08-2003 21:02:02 19.9 C 6.53 g/m*3 19.9 C 0 km/h
992 17-08-2003 21:12:02 19.8 C 7.34 g/m*3 19.8 C 0 km/h
993 17-08-2003 21:22:02 19.5 C 8.06 g/m*3 19.5 C 0 km/h
994 17-08-2003 21:32:33 19.5 C 8.89 g/m*3 19.5 C 0 km/h
995 17-08-2003 21:42:15 19.8 C 9.91 g/m*3 19.8 C 0 km/h
996 17-08-2003 21:52:10 20 C 14.69 g/m*3 20 C 0 km/h
997 17-08-2003 22:03:01 19.9 C 14.6 g/m*3 19.9 C 0 km/h
998 17-08-2003 22:13:01 19.6 C 14.18 g/m*3 19.6 C 0 km/h
999 17-08-2003 22:23:01 19.4 C 14.18 g/m*3 19.4 C 0 km/h
1000 17-08-2003 22:33:01 19.2 C 14.02 g/m*3 19.2 C 0 km/h
Sensor: Nr:Datum:Temp:Abs-Feuchte:Windchill:Wind:
Aussen-T/F 1001 17-08-2003 22:43:01 19.1 C 13.93 g/m*3 19.1 C 0 km/h
1002 17-08-2003 22:53:01 18.9 C 14.09 g/m*3 18.9 C 0 km/h
1003 17-08-2003 23:03:01 19 C 14.18 g/m*3 19 C 0 km/h
1004 17-08-2003 23:13:01 19.5 C 14.6 g/m*3 19.5 C 0 km/h
1005 17-08-2003 23:23:01 19.5 C 14.43 g/m*3 19.5 C 0 km/h
1006 17-08-2003 23:33:01 19.6 C 14.35 g/m*3 19.6 C 0 km/h
1007 17-08-2003 23:43:01 19.4 C 14.18 g/m*3 19.4 C 0 km/h
1008 17-08-2003 23:53:01 19.3 C 14.1 g/m*3 19.3 C 0 km/h
1009 18-08-2003 00:03:01 18.9 C 13.93 g/m*3 18.9 C 0 km/h
1010 18-08-2003 00:13:01 18.7 C 13.93 g/m*3 18.7 C 0 km/h
1011 18-08-2003 00:23:01 18.6 C 13.69 g/m*3 18.6 C 0 km/h
1012 18-08-2003 00:33:01 18.5 C 13.61 g/m*3 18.5 C 0 km/h
1013 18-08-2003 00:43:01 18.4 C 13.53 g/m*3 18.4 C 0 km/h
1014 18-08-2003 00:53:01 18.6 C 13.85 g/m*3 18.6 C 0 km/h
1015 18-08-2003 01:03:01 18.6 C 13.69 g/m*3 18.6 C 0 km/h
1016 18-08-2003 01:13:01 18.4 C 13.68 g/m*3 18.4 C 0 km/h
1017 18-08-2003 01:23:01 18.3 C 13.6 g/m*3 18.3 C 0 km/h
1018 18-08-2003 01:33:01 18.2 C 13.52 g/m*3 18.2 C 0 km/h
1019 18-08-2003 01:43:01 18.1 C 13.44 g/m*3 18.1 C 0 km/h
1020 18-08-2003 01:53:01 18.1 C 13.44 g/m*3 18.1 C 0 km/h
1021 18-08-2003 02:03:01 18.1 C 13.44 g/m*3 18.1 C 0 km/h
1022 18-08-2003 02:13:01 18 C 13.36 g/m*3 18 C 0 km/h
1023 18-08-2003 02:23:01 18.1 C 13.44 g/m*3 18.1 C 0 km/h
1024 18-08-2003 02:33:01 18.1 C 13.6 g/m*3 18.1 C 0 km/h
1025 18-08-2003 02:43:01 18.1 C 13.6 g/m*3 18.1 C 0 km/h
Sensor: Nr:Datum:Temp:Abs-Feuchte:Windchill:Wind:
Aussen-T/F 1026 18-08-2003 02:53:01 18.1 C 13.44 g/m*3 18.1 C 0 km/h
1027 18-08-2003 03:03:01 18.1 C 13.6 g/m*3 18.1 C 0 km/h
1028 18-08-2003 03:13:01 18.1 C 13.6 g/m*3 18.1 C 0 km/h
1029 18-08-2003 03:23:01 18.1 C 13.6 g/m*3 18.1 C 0 km/h
1030 18-08-2003 03:33:01 18.4 C 14.16 g/m*3 18.4 C 0 km/h
1031 18-08-2003 03:43:01 18.5 C 14.08 g/m*3 18.5 C 0 km/h
1032 18-08-2003 03:53:01 18.4 C 14 g/m*3 18.4 C 0 km/h
1033 18-08-2003 04:03:01 18.4 C 14 g/m*3 18.4 C 0 km/h
1034 18-08-2003 04:13:01 18.5 C 14.08 g/m*3 18.5 C 0 km/h
1035 18-08-2003 04:23:01 18.5 C 14.08 g/m*3 18.5 C 0 km/h
1036 18-08-2003 04:33:01 18.5 C 13.92 g/m*3 18.5 C 0 km/h
1037 18-08-2003 04:43:01 18.5 C 13.92 g/m*3 18.5 C 0 km/h
1038 18-08-2003 04:53:01 18.6 C 14.01 g/m*3 18.6 C 0 km/h
1039 18-08-2003 05:03:01 18.6 C 14.32 g/m*3 18.6 C 0 km/h
1040 18-08-2003 05:13:01 18.6 C 14.48 g/m*3 18.6 C 0 km/h
1041 18-08-2003 05:23:01 18.5 C 14.4 g/m*3 18.5 C 0 km/h
1042 18-08-2003 05:33:01 18.5 C 14.4 g/m*3 18.5 C 0 km/h
1043 18-08-2003 05:43:01 18.6 C 14.64 g/m*3 18.6 C 0 km/h
1044 18-08-2003 05:53:01 18.5 C 14.56 g/m*3 18.5 C 0 km/h
1045 18-08-2003 06:03:01 18.5 C 14.71 g/m*3 18.5 C 0 km/h
1046 18-08-2003 06:13:01 18.6 C 14.8 g/m*3 18.6 C 0 km/h
1047 18-08-2003 06:23:01 18.7 C 14.89 g/m*3 18.7 C 0 km/h
1048 18-08-2003 06:33:01 18.7 C 14.89 g/m*3 18.7 C 0 km/h
1049 18-08-2003 06:43:01 18.6 C 14.96 g/m*3 18.6 C 0 km/h
1050 18-08-2003 06:53:01 18.6 C 14.96 g/m*3 18.6 C 0 km/h
Sensor: Nr:Datum:Temp:Abs-Feuchte:Windchill:Wind:
Aussen-T/F 1051 18-08-2003 07:03:25 18.7 C 15.05 g/m*3 18.7 C 0 km/h
1052 18-08-2003 07:13:01 18.7 C 15.05 g/m*3 18.7 C 0 km/h
1053 18-08-2003 07:23:01 18.7 C 15.05 g/m*3 18.7 C 0 km/h
1054 18-08-2003 07:33:02 18.8 C 15.14 g/m*3 18.8 C 0 km/h
1055 18-08-2003 07:43:02 19 C 15.32 g/m*3 19 C 0 km/h
1056 18-08-2003 07:53:02 19.1 C 15.41 g/m*3 19.1 C 0 km/h
1057 18-08-2003 08:03:02 19.4 C 15.68 g/m*3 19.4 C 0 km/h
1058 18-08-2003 08:13:02 19.6 C 15.87 g/m*3 19.6 C 0 km/h
1059 18-08-2003 08:23:02 19.8 C 15.89 g/m*3 19.8 C 0 km/h
1060 18-08-2003 08:33:01 19.9 C 15.98 g/m*3 19.9 C 0 km/h
1061 18-08-2003 08:43:01 20.5 C 16.19 g/m*3 20.5 C 0 km/h
1062 18-08-2003 08:53:01 21 C 16.3 g/m*3 21 C 0 km/h
1063 18-08-2003 09:03:01 21.3 C 16.03 g/m*3 21.3 C 0 km/h
1064 18-08-2003 09:13:01 21.4 C 15.75 g/m*3 21.4 C 0 km/h
1065 18-08-2003 09:23:01 21.5 C 15.84 g/m*3 21.5 C 0 km/h
1066 18-08-2003 09:33:01 21.8 C 16.31 g/m*3 21.8 C 0 km/h
1067 18-08-2003 09:43:01 21.9 C 16.21 g/m*3 21.9 C 0 km/h
1068 18-08-2003 09:53:01 22.2 C 16.49 g/m*3 22.2 C 0 km/h
1069 18-08-2003 10:03:01 22.3 C 16.39 g/m*3 22.3 C 0 km/h
1070 18-08-2003 10:13:01 22.4 C 15.89 g/m*3 22.4 C 0 km/h
1071 18-08-2003 10:23:01 22.7 C 15.96 g/m*3 22.7 C 0 km/h
1072 18-08-2003 10:33:01 22.6 C 15.67 g/m*3 22.6 C 0 km/h
1073 18-08-2003 10:43:01 22.6 C 15.27 g/m*3 22.6 C 0 km/h
1074 18-08-2003 10:53:01 22.6 C 14.46 g/m*3 22.6 C 0 km/h
1075 18-08-2003 11:03:00 22.4 C 14.5 g/m*3 22.4 C 0 km/h
Sensor: Nr:Datum:Temp:Abs-Feuchte:Windchill:Wind:
Aussen-T/F 1076 18-08-2003 11:13:00 22.5 C 14.78 g/m*3 22.5 C 0 km/h
1077 18-08-2003 11:23:00 22.3 C 14.81 g/m*3 22.3 C 0 km/h
1078 18-08-2003 11:33:01 22 C 13.97 g/m*3 22 C 0 km/h
1079 18-08-2003 11:43:01 22.1 C 14.25 g/m*3 22.1 C 0 km/h
1080 18-08-2003 11:53:01 22.1 C 14.05 g/m*3 22.1 C 0 km/h
1081 18-08-2003 12:03:02 20.2 C 14.51 g/m*3 20.2 C 0 km/h
1082 18-08-2003 12:13:02 19.6 C 14.52 g/m*3 19.6 C 0 km/h
1083 18-08-2003 12:23:02 19.6 C 14.69 g/m*3 19.6 C 0 km/h
1084 18-08-2003 12:33:01 20.1 C 14.78 g/m*3 20.1 C 0 km/h
1085 18-08-2003 12:43:01 20.7 C 15.12 g/m*3 20.7 C 0 km/h
1086 18-08-2003 12:53:01 21 C 14.47 g/m*3 21 C 0 km/h
1087 18-08-2003 13:03:01 20.6 C 13.96 g/m*3 20.6 C 0 km/h
1088 18-08-2003 13:13:01 20.2 C 13.46 g/m*3 20.2 C 0 km/h
1089 18-08-2003 13:23:01 20.4 C 13.27 g/m*3 20.4 C 0 km/h
1090 18-08-2003 13:33:01 21.3 C 13.61 g/m*3 21.3 C 0 km/h
1091 18-08-2003 13:43:01 21.8 C 13.43 g/m*3 21.8 C 0 km/h
1092 18-08-2003 13:53:01 22.6 C 12.86 g/m*3 22.6 C 0 km/h
1093 18-08-2003 14:03:02 23.2 C 12.27 g/m*3 23.2 C 0 km/h
1094 18-08-2003 14:13:02 24.1 C 12.03 g/m*3 24.1 C 0 km/h
1095 18-08-2003 14:23:02 24.1 C 11.6 g/m*3 24.1 C 0 km/h
1096 18-08-2003 14:33:01 24.4 C 11.57 g/m*3 24.4 C 0 km/h
1097 18-08-2003 14:43:01 24.5 C 11.86 g/m*3 24.5 C 0 km/h
1098 18-08-2003 14:53:01 24.3 C 11.51 g/m*3 24.3 C 0 km/h
1099 18-08-2003 15:03:02 24.6 C 11.03 g/m*3 24.6 C 0 km/h
1100 18-08-2003 15:13:02 24.9 C 10.53 g/m*3 24.9 C 0 km/h
Sensor: Nr:Datum:Temp:Abs-Feuchte:Windchill:Wind:
Aussen-T/F 1101 18-08-2003 15:23:02 24 C 10.23 g/m*3 24 C 0 km/h
1102 18-08-2003 15:33:01 23.6 C 10.42 g/m*3 23.6 C 0 km/h
1103 18-08-2003 15:43:01 24.3 C 10.62 g/m*3 24.3 C 0 km/h
1104 18-08-2003 15:53:01 23.5 C 11 g/m*3 23.5 C 0 km/h
1105 18-08-2003 16:03:01 22.7 C 10.91 g/m*3 22.7 C 0 km/h
1106 18-08-2003 16:13:01 21.9 C 11 g/m*3 21.9 C 0 km/h
1107 18-08-2003 16:23:01 21.3 C 11 g/m*3 21.3 C 0 km/h
1108 18-08-2003 16:33:00 20.8 C 11.23 g/m*3 20.8 C 0 km/h
1109 18-08-2003 16:43:00 20.8 C 11.41 g/m*3 20.8 C 0 km/h
1110 18-08-2003 16:53:00 20.6 C 11.28 g/m*3 20.6 C 0 km/h
1111 18-08-2003 17:03:01 19.9 C 12.03 g/m*3 19.9 C 0 km/h
1112 18-08-2003 17:13:01 18.7 C 12.65 g/m*3 18.7 C 0 km/h
1113 18-08-2003 17:23:01 18.4 C 12.74 g/m*3 18.4 C 0 km/h
1114 18-08-2003 17:33:02 18 C 12.75 g/m*3 18 C 0 km/h
1115 18-08-2003 17:43:02 17.9 C 13.13 g/m*3 17.9 C 0 km/h
1116 18-08-2003 17:53:02 17.6 C 13.2 g/m*3 17.6 C 0 km/h
1117 18-08-2003 18:03:01 17.5 C 13.12 g/m*3 17.5 C 0 km/h
1118 18-08-2003 18:13:01 17.5 C 13.27 g/m*3 17.5 C 0 km/h
1119 18-08-2003 18:23:01 17.6 C 13.35 g/m*3 17.6 C 0 km/h
1120 18-08-2003 18:33:00 17.7 C 13.43 g/m*3 17.7 C 0 km/h
1121 18-08-2003 18:43:00 17.7 C 13.58 g/m*3 17.7 C 0 km/h
1122 18-08-2003 18:53:00 17.4 C 13.19 g/m*3 17.4 C 0 km/h
1123 18-08-2003 19:03:01 17.6 C 13.5 g/m*3 17.6 C 0 km/h
1124 18-08-2003 19:13:01 17.9 C 13.74 g/m*3 17.9 C 0 km/h
1125 18-08-2003 19:23:01 17.9 C 13.74 g/m*3 17.9 C 0 km/h
Sensor: Nr:Datum:Temp:Abs-Feuchte:Windchill:Wind:
Aussen-T/F 1126 18-08-2003 19:33:02 18 C 13.67 g/m*3 18 C 0 km/h
1127 18-08-2003 19:43:02 17.9 C 13.74 g/m*3 17.9 C 0 km/h
1128 18-08-2003 19:53:02 17.9 C 13.74 g/m*3 17.9 C 0 km/h
1129 18-08-2003 20:03:01 17.9 C 13.74 g/m*3 17.9 C 0 km/h
1130 18-08-2003 20:13:01 17.8 C 13.81 g/m*3 17.8 C 0 km/h
1131 18-08-2003 20:23:01 17.6 C 13.65 g/m*3 17.6 C 0 km/h
1132 18-08-2003 20:33:02 17.5 C 13.57 g/m*3 17.5 C 0 km/h
1133 18-08-2003 20:43:02 17.6 C 13.65 g/m*3 17.6 C 0 km/h
1134 18-08-2003 20:53:02 17.6 C 13.8 g/m*3 17.6 C 0 km/h
1135 18-08-2003 21:03:01 17.6 C 13.8 g/m*3 17.6 C 0 km/h
1136 18-08-2003 21:13:01 17.6 C 13.8 g/m*3 17.6 C 0 km/h
1137 18-08-2003 21:23:01 17.6 C 13.95 g/m*3 17.6 C 0 km/h
1138 18-08-2003 21:34:03 17.6 C 13.95 g/m*3 17.6 C 0 km/h
1139 18-08-2003 21:44:03 17.7 C 14.03 g/m*3 17.7 C 0 km/h
1140 18-08-2003 21:54:03 17.6 C 13.95 g/m*3 17.6 C 0 km/h
1141 18-08-2003 22:04:03 17.6 C 13.95 g/m*3 17.6 C 0 km/h
1142 18-08-2003 22:14:03 17.7 C 14.03 g/m*3 17.7 C 0 km/h
1143 18-08-2003 22:24:03 17.6 C 13.95 g/m*3 17.6 C 0 km/h
1144 18-08-2003 22:34:03 17.6 C 13.95 g/m*3 17.6 C 0 km/h
1145 18-08-2003 22:44:03 17.7 C 14.03 g/m*3 17.7 C 0 km/h
1146 18-08-2003 22:54:03 17.8 C 14.12 g/m*3 17.8 C 0 km/h
1147 18-08-2003 23:04:03 17.9 C 14.05 g/m*3 17.9 C 0 km/h
1148 18-08-2003 23:14:03 17.9 C 13.89 g/m*3 17.9 C 0 km/h
1149 18-08-2003 23:24:03 18 C 13.67 g/m*3 18 C 0 km/h
1150 18-08-2003 23:34:03 18 C 13.67 g/m*3 18 C 0 km/h
Sensor: Nr:Datum:Temp:Abs-Feuchte:Windchill:Wind:
Aussen-T/F 1151 18-08-2003 23:44:03 18 C 13.67 g/m*3 18 C 0 km/h
1152 18-08-2003 23:54:03 18.1 C 13.75 g/m*3 18.1 C 0 km/h
1153 19-08-2003 00:04:03 18.2 C 13.83 g/m*3 18.2 C 0 km/h
1154 19-08-2003 00:14:03 18.1 C 13.75 g/m*3 18.1 C 0 km/h
1155 19-08-2003 00:24:03 18.1 C 13.75 g/m*3 18.1 C 0 km/h
1156 19-08-2003 00:34:03 18.1 C 13.75 g/m*3 18.1 C 0 km/h
1157 19-08-2003 00:44:03 18.1 C 13.75 g/m*3 18.1 C 0 km/h
1158 19-08-2003 00:54:03 18.1 C 13.75 g/m*3 18.1 C 0 km/h
1159 19-08-2003 01:04:03 18 C 13.67 g/m*3 18 C 0 km/h
1160 19-08-2003 01:14:03 18 C 13.67 g/m*3 18 C 0 km/h
1161 19-08-2003 01:24:03 17.9 C 13.89 g/m*3 17.9 C 0 km/h
1162 19-08-2003 01:34:03 17.7 C 13.73 g/m*3 17.7 C 0 km/h
1163 19-08-2003 01:44:03 17.6 C 13.65 g/m*3 17.6 C 0 km/h
1164 19-08-2003 01:54:03 17.4 C 13.49 g/m*3 17.4 C 0 km/h
1165 19-08-2003 02:04:03 17.3 C 13.55 g/m*3 17.3 C 0 km/h
1166 19-08-2003 02:14:03 17.3 C 13.55 g/m*3 17.3 C 0 km/h
1167 19-08-2003 02:24:03 17.3 C 13.55 g/m*3 17.3 C 0 km/h
1168 19-08-2003 02:34:03 17.2 C 13.47 g/m*3 17.2 C 0 km/h
1169 19-08-2003 02:44:03 17.2 C 13.47 g/m*3 17.2 C 0 km/h
1170 19-08-2003 02:54:03 17.1 C 13.39 g/m*3 17.1 C 0 km/h
1171 19-08-2003 03:04:03 17.2 C 13.47 g/m*3 17.2 C 0 km/h
1172 19-08-2003 03:14:03 17.1 C 13.39 g/m*3 17.1 C 0 km/h
1173 19-08-2003 03:24:03 17.1 C 13.39 g/m*3 17.1 C 0 km/h
1174 19-08-2003 03:34:03 17.1 C 13.25 g/m*3 17.1 C 0 km/h
1175 19-08-2003 03:44:03 17.1 C 13.39 g/m*3 17.1 C 0 km/h
Sensor: Nr:Datum:Temp:Abs-Feuchte:Windchill:Wind:
Aussen-T/F 1176 19-08-2003 03:54:03 17.2 C 13.47 g/m*3 17.2 C 0 km/h
1177 19-08-2003 04:04:03 17.4 C 13.49 g/m*3 17.4 C 0 km/h
1178 19-08-2003 04:14:03 17.5 C 13.57 g/m*3 17.5 C 0 km/h
1179 19-08-2003 04:24:03 17.6 C 13.65 g/m*3 17.6 C 0 km/h
1180 19-08-2003 04:34:03 17.7 C 13.58 g/m*3 17.7 C 0 km/h
1181 19-08-2003 04:44:03 17.7 C 13.43 g/m*3 17.7 C 0 km/h
1182 19-08-2003 04:54:03 17.8 C 13.36 g/m*3 17.8 C 0 km/h
1183 19-08-2003 05:04:03 17.8 C 12.9 g/m*3 17.8 C 0 km/h
1184 19-08-2003 05:14:03 17.8 C 12.9 g/m*3 17.8 C 0 km/h
1185 19-08-2003 05:24:03 17.9 C 12.98 g/m*3 17.9 C 0 km/h
1186 19-08-2003 05:34:01 17.9 C 12.98 g/m*3 17.9 C 0 km/h
1187 19-08-2003 05:44:01 17.8 C 12.9 g/m*3 17.8 C 0 km/h
1188 19-08-2003 05:54:01 17.7 C 12.98 g/m*3 17.7 C 0 km/h
1189 19-08-2003 06:04:02 17.7 C 13.13 g/m*3 17.7 C 0 km/h
1190 19-08-2003 06:14:02 17.6 C 13.2 g/m*3 17.6 C 0 km/h
1191 19-08-2003 06:24:02 17.9 C 13.28 g/m*3 17.9 C 0 km/h
1192 19-08-2003 06:34:00 17.9 C 13.13 g/m*3 17.9 C 0 km/h
1193 19-08-2003 06:44:00 18.2 C 13.06 g/m*3 18.2 C 0 km/h
1194 19-08-2003 06:54:00 18.5 C 13.13 g/m*3 18.5 C 0 km/h
1195 19-08-2003 07:04:01 18.5 C 12.97 g/m*3 18.5 C 0 km/h
1196 19-08-2003 07:14:01 18.6 C 13.05 g/m*3 18.6 C 0 km/h
1197 19-08-2003 07:24:01 18.7 C 13.13 g/m*3 18.7 C 0 km/h
1198 19-08-2003 07:34:01 18.7 C 13.13 g/m*3 18.7 C 0 km/h
1199 19-08-2003 07:44:01 18.9 C 13.28 g/m*3 18.9 C 0 km/h
1200 19-08-2003 07:54:01 18.9 C 13.12 g/m*3 18.9 C 0 km/h
Sensor: Nr:Datum:Temp:Abs-Feuchte:Windchill:Wind:
Aussen-T/F 1201 19-08-2003 08:04:01 19.3 C 13.27 g/m*3 19.3 C 0 km/h
1202 19-08-2003 08:14:01 19.2 C 13.03 g/m*3 19.2 C 0 km/h
1203 19-08-2003 08:24:01 19.3 C 13.1 g/m*3 19.3 C 0 km/h
1204 19-08-2003 08:34:02 19.5 C 13.09 g/m*3 19.5 C 0 km/h
1205 19-08-2003 08:44:02 19.7 C 13.25 g/m*3 19.7 C 0 km/h
1206 19-08-2003 08:54:02 19.7 C 13.25 g/m*3 19.7 C 0 km/h
1207 19-08-2003 09:04:01 19.8 C 13.49 g/m*3 19.8 C 0 km/h
1208 19-08-2003 09:14:01 19.7 C 13.25 g/m*3 19.7 C 0 km/h
1209 19-08-2003 09:24:01 20.3 C 13.37 g/m*3 20.3 C 0 km/h
1210 19-08-2003 09:34:01 20.4 C 13.09 g/m*3 20.4 C 0 km/h
1211 19-08-2003 09:44:01 20.6 C 13.24 g/m*3 20.6 C 0 km/h
1212 19-08-2003 09:54:01 20.6 C 12.89 g/m*3 20.6 C 0 km/h
1213 19-08-2003 10:04:02 20.7 C 13.14 g/m*3 20.7 C 0 km/h
1214 19-08-2003 10:14:02 20.8 C 13.04 g/m*3 20.8 C 0 km/h
1215 19-08-2003 10:24:02 21 C 13.01 g/m*3 21 C 0 km/h
1216 19-08-2003 10:34:01 21.3 C 12.86 g/m*3 21.3 C 0 km/h
1217 19-08-2003 10:44:01 21.9 C 13.12 g/m*3 21.9 C 0 km/h
1218 19-08-2003 10:54:01 21.7 C 12.59 g/m*3 21.7 C 0 km/h
1219 19-08-2003 11:04:01 22.1 C 12.69 g/m*3 22.1 C 0 km/h
1220 19-08-2003 11:14:01 22.3 C 12.83 g/m*3 22.3 C 0 km/h
1221 19-08-2003 11:24:01 22.2 C 12.57 g/m*3 22.2 C 0 km/h
1222 19-08-2003 11:34:02 22.5 C 12.78 g/m*3 22.5 C 0 km/h
1223 19-08-2003 11:44:02 22.5 C 12.58 g/m*3 22.5 C 0 km/h
1224 19-08-2003 11:54:02 23.1 C 12.61 g/m*3 23.1 C 0 km/h
1225 19-08-2003 12:04:01 23.6 C 12.76 g/m*3 23.6 C 0 km/h
Sensor: Nr:Datum:Temp:Abs-Feuchte:Windchill:Wind:
Aussen-T/F 1226 19-08-2003 12:14:01 23.8 C 12.48 g/m*3 23.8 C 0 km/h
1227 19-08-2003 12:24:01 23.9 C 12.33 g/m*3 23.9 C 0 km/h
1228 19-08-2003 12:34:01 24.3 C 12.17 g/m*3 24.3 C 0 km/h
1229 19-08-2003 12:44:01 23.9 C 12.11 g/m*3 23.9 C 0 km/h
1230 19-08-2003 12:54:01 24.4 C 12.24 g/m*3 24.4 C 0 km/h
1231 19-08-2003 13:04:01 24.8 C 11.84 g/m*3 24.8 C 0 km/h
1232 19-08-2003 13:14:01 25.7 C 11.73 g/m*3 25.7 C 0 km/h
1233 19-08-2003 13:24:01 25.7 C 11.73 g/m*3 25.7 C 0 km/h
1234 19-08-2003 13:34:00 25.2 C 11.41 g/m*3 25.2 C 0 km/h
1235 19-08-2003 13:44:00 24.7 C 11.77 g/m*3 24.7 C 0 km/h
1236 19-08-2003 13:54:00 24.4 C 11.57 g/m*3 24.4 C 0 km/h
1237 19-08-2003 14:04:01 24.8 C 11.84 g/m*3 24.8 C 0 km/h
1238 19-08-2003 14:14:01 24.7 C 11.54 g/m*3 24.7 C 0 km/h
1239 19-08-2003 14:24:01 24.1 C 11.38 g/m*3 24.1 C 0 km/h
1240 19-08-2003 14:34:02 23.8 C 12.05 g/m*3 23.8 C 0 km/h
1241 19-08-2003 14:44:02 23.9 C 12.11 g/m*3 23.9 C 0 km/h
1242 19-08-2003 14:54:02 23.6 C 12.34 g/m*3 23.6 C 0 km/h
1243 19-08-2003 15:04:01 23.7 C 11.98 g/m*3 23.7 C 0 km/h
1244 19-08-2003 15:14:01 22 C 13.97 g/m*3 22 C 0 km/h
1245 19-08-2003 15:24:01 21.6 C 14.03 g/m*3 21.6 C 0 km/h
1246 19-08-2003 15:34:01 22 C 13.78 g/m*3 22 C 0 km/h
1247 19-08-2003 15:44:01 22.6 C 13.46 g/m*3 22.6 C 0 km/h
1248 19-08-2003 15:54:01 22.6 C 13.06 g/m*3 22.6 C 0 km/h
1249 19-08-2003 16:04:01 23.1 C 12.82 g/m*3 23.1 C 0 km/h
1250 19-08-2003 16:14:01 23.4 C 12.83 g/m*3 23.4 C 0 km/h
Sensor: Nr:Datum:Temp:Abs-Feuchte:Windchill:Wind:
Aussen-T/F 1251 19-08-2003 16:24:01 24.1 C 12.69 g/m*3 24.1 C 0 km/h
1252 19-08-2003 16:34:52 25.1 C 12.5 g/m*3 25.1 C 0 km/h
1253 19-08-2003 16:44:52 25.3 C 11.94 g/m*3 25.3 C 0 km/h
1254 19-08-2003 16:54:00 25.6 C 11.9 g/m*3 25.6 C 0 km/h
1255 19-08-2003 17:04:01 24.5 C 11.86 g/m*3 24.5 C 0 km/h
1256 19-08-2003 17:14:01 24.8 C 12.06 g/m*3 24.8 C 0 km/h
1257 19-08-2003 17:24:01 24.7 C 12.22 g/m*3 24.7 C 0 km/h
1258 19-08-2003 17:34:01 24.9 C 11.9 g/m*3 24.9 C 0 km/h
1259 19-08-2003 17:44:01 24.6 C 11.48 g/m*3 24.6 C 0 km/h
1260 19-08-2003 17:54:01 24.4 C 11.57 g/m*3 24.4 C 0 km/h
1261 19-08-2003 18:04:02 24.5 C 11.41 g/m*3 24.5 C 0 km/h
1262 19-08-2003 18:14:02 24.6 C 11.25 g/m*3 24.6 C 0 km/h
1263 19-08-2003 18:24:02 24.6 C 10.35 g/m*3 24.6 C 0 km/h
1264 19-08-2003 18:34:01 24.5 C 10.3 g/m*3 24.5 C 0 km/h
1265 19-08-2003 18:44:01 24.3 C 11.06 g/m*3 24.3 C 0 km/h
1266 19-08-2003 18:54:01 23.9 C 12.11 g/m*3 23.9 C 0 km/h
1267 19-08-2003 19:04:01 23.6 C 11.91 g/m*3 23.6 C 0 km/h
1268 19-08-2003 19:14:01 23.3 C 11.5 g/m*3 23.3 C 0 km/h
1269 19-08-2003 19:24:01 23.3 C 10.66 g/m*3 23.3 C 0 km/h
1270 19-08-2003 19:34:01 23.3 C 11.08 g/m*3 23.3 C 0 km/h
1271 19-08-2003 19:44:01 23.2 C 11.23 g/m*3 23.2 C 0 km/h
1272 19-08-2003 19:54:01 23.1 C 10.34 g/m*3 23.1 C 0 km/h
1273 19-08-2003 20:04:01 23 C 10.28 g/m*3 23 C 0 km/h
1274 19-08-2003 20:14:01 22.9 C 10.42 g/m*3 22.9 C 0 km/h
1275 19-08-2003 20:24:01 22.8 C 10.97 g/m*3 22.8 C 0 km/h
Sensor: Nr:Datum:Temp:Abs-Feuchte:Windchill:Wind:
Aussen-T/F 1276 19-08-2003 20:34:01 22.4 C 11.12 g/m*3 22.4 C 0 km/h
1277 19-08-2003 20:44:01 22.3 C 11.26 g/m*3 22.3 C 0 km/h
1278 19-08-2003 20:54:01 22.1 C 10.93 g/m*3 22.1 C 0 km/h
1279 19-08-2003 21:05:03 22 C 11.26 g/m*3 22 C 0 km/h
1280 19-08-2003 21:15:03 22 C 11.45 g/m*3 22 C 0 km/h
1281 19-08-2003 21:25:03 21.9 C 10.23 g/m*3 21.9 C 0 km/h
1282 19-08-2003 21:35:03 21.9 C 10.23 g/m*3 21.9 C 0 km/h
1283 19-08-2003 21:45:03 21.9 C 10.23 g/m*3 21.9 C 0 km/h
1284 19-08-2003 21:55:03 21.9 C 10.03 g/m*3 21.9 C 0 km/h
1285 19-08-2003 22:05:03 21.9 C 10.61 g/m*3 21.9 C 0 km/h
1286 19-08-2003 22:15:03 21.8 C 10.55 g/m*3 21.8 C 0 km/h
1287 19-08-2003 22:25:03 21.6 C 10.24 g/m*3 21.6 C 0 km/h
1288 19-08-2003 22:35:03 21.5 C 10.56 g/m*3 21.5 C 0 km/h
1289 19-08-2003 22:45:03 21.2 C 10.56 g/m*3 21.2 C 0 km/h
1290 19-08-2003 22:55:03 21.1 C 10.5 g/m*3 21.1 C 0 km/h
1291 19-08-2003 23:05:03 20.9 C 10.56 g/m*3 20.9 C 0 km/h
1292 19-08-2003 23:15:03 20.5 C 10.5 g/m*3 20.5 C 0 km/h
1293 19-08-2003 23:25:03 20.3 C 10.2 g/m*3 20.3 C 0 km/h
1294 19-08-2003 23:35:03 19.9 C 10.31 g/m*3 19.9 C 0 km/h
1295 19-08-2003 23:45:03 19.9 C 10.14 g/m*3 19.9 C 0 km/h
1296 19-08-2003 23:55:03 19.6 C 10.13 g/m*3 19.6 C 0 km/h
1297 20-08-2003 00:05:03 19.4 C 10.18 g/m*3 19.4 C 0 km/h
1298 20-08-2003 00:15:03 19.1 C 9.84 g/m*3 19.1 C 0 km/h
1299 20-08-2003 00:25:03 19.1 C 9.84 g/m*3 19.1 C 0 km/h
1300 20-08-2003 00:35:03 18.8 C 9.99 g/m*3 18.8 C 0 km/h
Sensor: Nr:Datum:Temp:Abs-Feuchte:Windchill:Wind:
Aussen-T/F 1301 20-08-2003 00:45:03 18.7 C 10.09 g/m*3 18.7 C 0 km/h
1302 20-08-2003 00:55:03 18.8 C 10.15 g/m*3 18.8 C 0 km/h
1303 20-08-2003 01:05:03 18.9 C 10.53 g/m*3 18.9 C 0 km/h
1304 20-08-2003 01:15:03 18.7 C 10.41 g/m*3 18.7 C 0 km/h
1305 20-08-2003 01:25:03 18.4 C 10.07 g/m*3 18.4 C 0 km/h
1306 20-08-2003 01:35:03 18.3 C 9.85 g/m*3 18.3 C 0 km/h
1307 20-08-2003 01:45:03 18.1 C 9.89 g/m*3 18.1 C 0 km/h
1308 20-08-2003 01:55:03 17.8 C 10.02 g/m*3 17.8 C 0 km/h
1309 20-08-2003 02:05:03 17.4 C 9.93 g/m*3 17.4 C 0 km/h
1310 20-08-2003 02:15:03 17.2 C 9.96 g/m*3 17.2 C 0 km/h
1311 20-08-2003 02:25:03 17.1 C 10.04 g/m*3 17.1 C 0 km/h
1312 20-08-2003 02:35:03 16.9 C 10.21 g/m*3 16.9 C 0 km/h
1313 20-08-2003 02:45:03 16.6 C 10.03 g/m*3 16.6 C 0 km/h
1314 20-08-2003 02:55:03 16.6 C 10.03 g/m*3 16.6 C 0 km/h
1315 20-08-2003 03:05:03 16.6 C 10.03 g/m*3 16.6 C 0 km/h
1316 20-08-2003 03:15:03 16.2 C 9.79 g/m*3 16.2 C 0 km/h
1317 20-08-2003 03:25:03 16 C 9.81 g/m*3 16 C 0 km/h
1318 20-08-2003 03:35:03 15.8 C 9.96 g/m*3 15.8 C 0 km/h
1319 20-08-2003 03:45:03 15.6 C 9.97 g/m*3 15.6 C 0 km/h
1320 20-08-2003 03:55:03 15.4 C 9.85 g/m*3 15.4 C 0 km/h
1321 20-08-2003 04:05:03 15.2 C 9.99 g/m*3 15.2 C 0 km/h
1322 20-08-2003 04:15:03 15 C 9.87 g/m*3 15 C 0 km/h
1323 20-08-2003 04:25:03 14.9 C 10.2 g/m*3 14.9 C 0 km/h
1324 20-08-2003 04:35:03 14.8 C 10.13 g/m*3 14.8 C 0 km/h
1325 20-08-2003 04:45:03 14.8 C 10.13 g/m*3 14.8 C 0 km/h
Sensor: Nr:Datum:Temp:Abs-Feuchte:Windchill:Wind:
Aussen-T/F 1326 20-08-2003 04:55:03 14.8 C 10.13 g/m*3 14.8 C 0 km/h
1327 20-08-2003 05:05:03 14.8 C 10.26 g/m*3 14.8 C 0 km/h
1328 20-08-2003 05:15:03 14.7 C 10.07 g/m*3 14.7 C 0 km/h
1329 20-08-2003 05:25:03 15 C 10.26 g/m*3 15 C 0 km/h
1330 20-08-2003 05:35:03 14.9 C 10.2 g/m*3 14.9 C 0 km/h
1331 20-08-2003 05:45:03 14.6 C 10.14 g/m*3 14.6 C 0 km/h
1332 20-08-2003 05:55:03 14.4 C 9.89 g/m*3 14.4 C 0 km/h
1333 20-08-2003 06:05:03 14.2 C 9.89 g/m*3 14.2 C 0 km/h
1334 20-08-2003 06:15:03 14.1 C 10.07 g/m*3 14.1 C 0 km/h
1335 20-08-2003 06:25:03 14.1 C 10.07 g/m*3 14.1 C 0 km/h
1336 20-08-2003 06:35:01 13.7 C 9.95 g/m*3 13.7 C 0 km/h
1337 20-08-2003 06:45:01 13.7 C 9.95 g/m*3 13.7 C 0 km/h
1338 20-08-2003 06:55:01 13.8 C 10.13 g/m*3 13.8 C 0 km/h
1339 20-08-2003 07:05:00 13.8 C 10.13 g/m*3 13.8 C 0 km/h
1340 20-08-2003 07:15:00 13.8 C 10.13 g/m*3 13.8 C 0 km/h
1341 20-08-2003 07:25:00 14 C 10.25 g/m*3 14 C 0 km/h
1342 20-08-2003 07:35:01 14 C 10.25 g/m*3 14 C 0 km/h
1343 20-08-2003 07:45:01 14.3 C 10.44 g/m*3 14.3 C 0 km/h
1344 20-08-2003 07:55:01 14.2 C 10.38 g/m*3 14.2 C 0 km/h
1345 20-08-2003 08:05:41 14.3 C 10.44 g/m*3 14.3 C 0 km/h
1346 20-08-2003 08:15:29 14.5 C 10.45 g/m*3 14.5 C 0 km/h
1347 20-08-2003 08:25:40 14.6 C 10.51 g/m*3 14.6 C 0 km/h
1348 20-08-2003 08:35:01 14.8 C 10.51 g/m*3 14.8 C 0 km/h
1349 20-08-2003 08:45:01 15 C 10.51 g/m*3 15 C 0 km/h
1350 20-08-2003 08:55:01 15.3 C 10.45 g/m*3 15.3 C 0 km/h
Sensor: Nr:Datum:Temp:Abs-Feuchte:Windchill:Wind:
Aussen-T/F 1351 20-08-2003 09:05:02 15.6 C 10.51 g/m*3 15.6 C 0 km/h
1352 20-08-2003 09:15:02 15.8 C 10.36 g/m*3 15.8 C 0 km/h
1353 20-08-2003 09:25:02 16.1 C 10.28 g/m*3 16.1 C 0 km/h
1354 20-08-2003 09:35:01 16.5 C 10.53 g/m*3 16.5 C 0 km/h
1355 20-08-2003 09:45:01 17 C 10.56 g/m*3 17 C 0 km/h
1356 20-08-2003 09:55:01 17.5 C 10.59 g/m*3 17.5 C 0 km/h
1357 20-08-2003 10:05:01 18 C 10.6 g/m*3 18 C 0 km/h
1358 20-08-2003 10:15:01 18.4 C 10.7 g/m*3 18.4 C 0 km/h
1359 20-08-2003 10:25:01 18.9 C 10.85 g/m*3 18.9 C 0 km/h
1360 20-08-2003 10:35:01 19.3 C 10.62 g/m*3 19.3 C 0 km/h
1361 20-08-2003 10:45:01 19.7 C 10.7 g/m*3 19.7 C 0 km/h
1362 20-08-2003 10:55:01 20.1 C 10.26 g/m*3 20.1 C 0 km/h
1363 20-08-2003 11:05:02 20.5 C 10.32 g/m*3 20.5 C 0 km/h
1364 20-08-2003 11:15:02 21.2 C 10.19 g/m*3 21.2 C 0 km/h
1365 20-08-2003 11:25:02 21.5 C 10.18 g/m*3 21.5 C 0 km/h
1366 20-08-2003 11:35:01 21.8 C 9.4 g/m*3 21.8 C 0 km/h
1367 20-08-2003 11:45:01 22.3 C 9.68 g/m*3 22.3 C 0 km/h
1368 20-08-2003 11:55:01 22.6 C 9.44 g/m*3 22.6 C 0 km/h
1369 20-08-2003 12:05:01 22.8 C 9.35 g/m*3 22.8 C 0 km/h
1370 20-08-2003 12:15:01 23 C 9.04 g/m*3 23 C 0 km/h
1371 20-08-2003 12:25:01 23.3 C 8.78 g/m*3 23.3 C 0 km/h
1372 20-08-2003 12:35:01 23.7 C 8.77 g/m*3 23.7 C 0 km/h
1373 20-08-2003 12:45:01 23.9 C 8.44 g/m*3 23.9 C 0 km/h
1374 20-08-2003 12:55:01 23.7 C 8.34 g/m*3 23.7 C 0 km/h
1375 20-08-2003 13:05:02 24.8 C 8.42 g/m*3 24.8 C 0 km/h
Sensor: Nr:Datum:Temp:Abs-Feuchte:Windchill:Wind:
Aussen-T/F 1376 20-08-2003 13:15:02 25.3 C 8.19 g/m*3 25.3 C 0 km/h
1377 20-08-2003 13:25:02 25.5 C 7.58 g/m*3 25.5 C 0 km/h
1378 20-08-2003 13:35:01 25.7 C 7.42 g/m*3 25.7 C 0 km/h
1379 20-08-2003 13:45:01 26.4 C 7.97 g/m*3 26.4 C 0 km/h
1380 20-08-2003 13:55:01 27.5 C 7.94 g/m*3 27.5 C 0 km/h
1381 20-08-2003 14:04:01 27.2 C 7.55 g/m*3 27.2 C 0 km/h
1382 20-08-2003 14:16:01 25.9 C 7.51 g/m*3 25.9 C 0 km/h
1383 20-08-2003 14:28:01 26.7 C 7.59 g/m*3 26.7 C 0 km/h
1384 20-08-2003 14:40:01 26.1 C 7.34 g/m*3 26.1 C 0 km/h
1385 20-08-2003 14:52:01 28.2 C 7.7 g/m*3 28.2 C 0 km/h
1386 20-08-2003 15:04:01 28.7 C 7.35 g/m*3 28.7 C 0 km/h
1387 20-08-2003 15:16:01 28.8 C 7.67 g/m*3 28.8 C 0 km/h
1388 20-08-2003 15:28:01 29 C 7.18 g/m*3 29 C 0 km/h
1389 20-08-2003 15:40:00 29.1 C 6.93 g/m*3 29.1 C 0 km/h
1390 20-08-2003 15:52:00 29.4 C 7.34 g/m*3 29.4 C 0 km/h
1391 20-08-2003 16:04:01 28.4 C 6.67 g/m*3 28.4 C 0 km/h
1392 20-08-2003 16:16:01 28.8 C 7.1 g/m*3 28.8 C 0 km/h
1393 20-08-2003 16:28:01 29.1 C 6.35 g/m*3 29.1 C 0 km/h
1394 20-08-2003 16:40:01 29.6 C 7.42 g/m*3 29.6 C 0 km/h
1395 20-08-2003 16:52:01 28.9 C 6.57 g/m*3 28.9 C 0 km/h
1396 20-08-2003 17:04:01 29.7 C 6.86 g/m*3 29.7 C 0 km/h
1397 20-08-2003 17:16:01 29.3 C 6.42 g/m*3 29.3 C 0 km/h
1398 20-08-2003 17:28:01 28.8 C 6.82 g/m*3 28.8 C 0 km/h
1399 20-08-2003 17:40:00 29.6 C 6.53 g/m*3 29.6 C 0 km/h
1400 20-08-2003 17:52:00 28.9 C 6.57 g/m*3 28.9 C 0 km/h
Sensor: Nr:Datum:Temp:Abs-Feuchte:Windchill:Wind:
Aussen-T/F 1401 20-08-2003 18:04:02 28.9 C 7.14 g/m*3 28.9 C 0 km/h
1402 20-08-2003 18:16:02 29.1 C 6.93 g/m*3 29.1 C 0 km/h
1403 20-08-2003 18:28:02 28.4 C 6.95 g/m*3 28.4 C 0 km/h
1404 20-08-2003 18:40:02 28.5 C 6.99 g/m*3 28.5 C 0 km/h
1405 20-08-2003 18:52:02 27.6 C 6.92 g/m*3 27.6 C 0 km/h
1406 20-08-2003 19:04:01 27.9 C 7.3 g/m*3 27.9 C 0 km/h
1407 20-08-2003 19:16:01 27.6 C 7.18 g/m*3 27.6 C 0 km/h
1408 20-08-2003 19:28:01 26.9 C 7.42 g/m*3 26.9 C 0 km/h
1409 20-08-2003 19:40:02 26.9 C 7.68 g/m*3 26.9 C 0 km/h
1410 20-08-2003 19:52:02 26.1 C 7.34 g/m*3 26.1 C 0 km/h
1411 20-08-2003 20:04:01 25.6 C 7.38 g/m*3 25.6 C 0 km/h
1412 20-08-2003 20:16:01 24.9 C 8.01 g/m*3 24.9 C 0 km/h
1413 20-08-2003 20:28:01 24 C 8.27 g/m*3 24 C 0 km/h
1414 20-08-2003 20:40:01 22.7 C 8.49 g/m*3 22.7 C 0 km/h
1415 20-08-2003 20:52:01 21.6 C 8.35 g/m*3 21.6 C 0 km/h
1416 20-08-2003 21:04:02 21.3 C 8.39 g/m*3 21.3 C 0 km/h
1417 20-08-2003 21:16:02 21 C 8.43 g/m*3 21 C 0 km/h
1418 20-08-2003 21:28:02 20.6 C 8.41 g/m*3 20.6 C 0 km/h
1419 20-08-2003 21:40:01 20.3 C 8.44 g/m*3 20.3 C 0 km/h
1420 20-08-2003 21:52:01 19.8 C 8.54 g/m*3 19.8 C 0 km/h
1421 20-08-2003 22:04:01 19.4 C 8.34 g/m*3 19.4 C 0 km/h
1422 20-08-2003 22:16:01 19.4 C 8.68 g/m*3 19.4 C 0 km/h
1423 20-08-2003 22:28:01 19.3 C 8.29 g/m*3 19.3 C 0 km/h
1424 20-08-2003 22:41:01 18.9 C 8.59 g/m*3 18.9 C 0 km/h
1425 20-08-2003 22:53:01 18.7 C 8.65 g/m*3 18.7 C 0 km/h
Sensor: Nr:Datum:Temp:Abs-Feuchte:Windchill:Wind:
Aussen-T/F 1426 20-08-2003 23:05:01 18.6 C 8.59 g/m*3 18.6 C 0 km/h
1427 20-08-2003 23:17:01 18.4 C 8.65 g/m*3 18.4 C 0 km/h
1428 20-08-2003 23:29:01 18.1 C 8.5 g/m*3 18.1 C 0 km/h
1429 20-08-2003 23:41:01 17.9 C 9.01 g/m*3 17.9 C 0 km/h
1430 20-08-2003 23:53:01 17.3 C 8.99 g/m*3 17.3 C 0 km/h
1431 21-08-2003 00:05:01 17.2 C 8.79 g/m*3 17.2 C 0 km/h
1432 21-08-2003 00:17:01 17.1 C 8.73 g/m*3 17.1 C 0 km/h
1433 21-08-2003 00:29:01 16.8 C 9.01 g/m*3 16.8 C 0 km/h
1434 21-08-2003 00:41:01 16.8 C 9.01 g/m*3 16.8 C 0 km/h
1435 21-08-2003 00:53:01 16.6 C 8.9 g/m*3 16.6 C 0 km/h
1436 21-08-2003 01:05:01 16.3 C 9.02 g/m*3 16.3 C 0 km/h
1437 21-08-2003 01:17:01 16.2 C 8.96 g/m*3 16.2 C 0 km/h
1438 21-08-2003 01:29:01 16.2 C 9.1 g/m*3 16.2 C 0 km/h
1439 21-08-2003 01:41:01 16.3 C 9.16 g/m*3 16.3 C 0 km/h
1440 21-08-2003 01:53:01 16.1 C 9.18 g/m*3 16.1 C 0 km/h
1441 21-08-2003 02:05:01 15.8 C 9.29 g/m*3 15.8 C 0 km/h
1442 21-08-2003 02:17:01 15.6 C 9.18 g/m*3 15.6 C 0 km/h
1443 21-08-2003 02:29:01 15.4 C 9.07 g/m*3 15.4 C 0 km/h
1444 21-08-2003 02:41:01 15.2 C 9.35 g/m*3 15.2 C 0 km/h
1445 21-08-2003 02:53:01 15.1 C 9.29 g/m*3 15.1 C 0 km/h
1446 21-08-2003 03:05:01 14.8 C 9.12 g/m*3 14.8 C 0 km/h
1447 21-08-2003 03:17:01 14.7 C 9.19 g/m*3 14.7 C 0 km/h
1448 21-08-2003 03:29:01 14.5 C 9.2 g/m*3 14.5 C 0 km/h
1449 21-08-2003 03:41:01 14.4 C 9.15 g/m*3 14.4 C 0 km/h
1450 21-08-2003 03:53:01 14.2 C 9.04 g/m*3 14.2 C 0 km/h
Sensor: Nr:Datum:Temp:Abs-Feuchte:Windchill:Wind:
Aussen-T/F 1451 21-08-2003 04:05:01 14.2 C 9.28 g/m*3 14.2 C 0 km/h
1452 21-08-2003 04:17:01 13.9 C 9.23 g/m*3 13.9 C 0 km/h
1453 21-08-2003 04:29:01 13.8 C 9.17 g/m*3 13.8 C 0 km/h
1454 21-08-2003 04:41:01 13.7 C 9.35 g/m*3 13.7 C 0 km/h
1455 21-08-2003 04:53:01 13.5 C 9.36 g/m*3 13.5 C 0 km/h
1456 21-08-2003 05:05:01 13.4 C 9.18 g/m*3 13.4 C 0 km/h
1457 21-08-2003 05:17:01 13.3 C 9.13 g/m*3 13.3 C 0 km/h
1458 21-08-2003 05:29:01 13.1 C 9.01 g/m*3 13.1 C 0 km/h
1459 21-08-2003 05:41:01 13 C 8.96 g/m*3 13 C 0 km/h
1460 21-08-2003 05:53:01 12.9 C 9.24 g/m*3 12.9 C 0 km/h
1461 21-08-2003 06:05:01 12.8 C 9.3 g/m*3 12.8 C 0 km/h
1462 21-08-2003 06:17:01 12.7 C 9.24 g/m*3 12.7 C 0 km/h
1463 21-08-2003 06:29:01 12.5 C 9.13 g/m*3 12.5 C 0 km/h
1464 21-08-2003 06:41:01 12.5 C 9.13 g/m*3 12.5 C 0 km/h
1465 21-08-2003 06:53:01 12.5 C 9.13 g/m*3 12.5 C 0 km/h
1466 21-08-2003 07:05:01 12.5 C 9.24 g/m*3 12.5 C 0 km/h
1467 21-08-2003 07:17:01 12.5 C 9.24 g/m*3 12.5 C 0 km/h
1468 21-08-2003 07:29:01 12.7 C 9.24 g/m*3 12.7 C 0 km/h
1469 21-08-2003 07:41:01 12.7 C 9.35 g/m*3 12.7 C 0 km/h
1470 21-08-2003 07:53:01 12.9 C 9.47 g/m*3 12.9 C 0 km/h
1471 21-08-2003 08:05:01 13 C 9.53 g/m*3 13 C 0 km/h
1472 21-08-2003 08:17:01 13 C 9.41 g/m*3 13 C 0 km/h
1473 21-08-2003 08:29:01 13.3 C 9.47 g/m*3 13.3 C 0 km/h
1474 21-08-2003 08:41:01 13.6 C 9.42 g/m*3 13.6 C 0 km/h
1475 21-08-2003 08:53:01 13.9 C 9.47 g/m*3 13.9 C 0 km/h
Sensor: Nr:Datum:Temp:Abs-Feuchte:Windchill:Wind:
Aussen-T/F 1476 21-08-2003 09:05:01 14.1 C 9.47 g/m*3 14.1 C 0 km/h
1477 21-08-2003 09:17:01 14.6 C 9.64 g/m*3 14.6 C 0 km/h
1478 21-08-2003 09:29:01 15.1 C 9.55 g/m*3 15.1 C 0 km/h
1479 21-08-2003 09:41:01 15.6 C 9.71 g/m*3 15.6 C 0 km/h
1480 21-08-2003 09:53:01 16.2 C 9.79 g/m*3 16.2 C 0 km/h
1481 21-08-2003 10:05:02 16.8 C 9.58 g/m*3 16.8 C 0 km/h
1482 21-08-2003 10:17:02 17.4 C 9.19 g/m*3 17.4 C 0 km/h
1483 21-08-2003 10:29:02 18.1 C 8.96 g/m*3 18.1 C 0 km/h
1484 21-08-2003 10:41:01 18.7 C 9.45 g/m*3 18.7 C 0 km/h
1485 21-08-2003 10:53:01 19.3 C 9.45 g/m*3 19.3 C 0 km/h
1486 21-08-2003 11:05:01 20 C 9.51 g/m*3 20 C 0 km/h
1487 21-08-2003 11:17:01 20.9 C 9.65 g/m*3 20.9 C 0 km/h
1488 21-08-2003 11:29:01 21.7 C 9.16 g/m*3 21.7 C 0 km/h
1489 21-08-2003 11:41:00 22.4 C 9.33 g/m*3 22.4 C 0 km/h
1490 21-08-2003 11:53:00 23 C 9.04 g/m*3 23 C 0 km/h
1491 21-08-2003 12:05:01 23.8 C 9.25 g/m*3 23.8 C 0 km/h
1492 21-08-2003 12:17:01 23.8 C 8.82 g/m*3 23.8 C 0 km/h
1493 21-08-2003 12:29:01 24.4 C 8.23 g/m*3 24.4 C 0 km/h
1494 21-08-2003 12:41:01 24.9 C 8.24 g/m*3 24.9 C 0 km/h
1495 21-08-2003 12:53:01 25.4 C 7.77 g/m*3 25.4 C 0 km/h
1496 21-08-2003 13:05:01 25.7 C 7.66 g/m*3 25.7 C 0 km/h
1497 21-08-2003 13:17:01 25.4 C 7.53 g/m*3 25.4 C 0 km/h
1498 21-08-2003 13:29:01 25.7 C 8.14 g/m*3 25.7 C 0 km/h
1499 21-08-2003 13:41:01 26 C 7.55 g/m*3 26 C 0 km/h
1500 21-08-2003 13:53:01 26 C 7.3 g/m*3 26 C 0 km/h
Sensor: Nr:Datum:Temp:Abs-Feuchte:Windchill:Wind:
Aussen-T/F 1501 21-08-2003 14:05:01 26.5 C 7.26 g/m*3 26.5 C 0 km/h
1502 21-08-2003 14:17:01 27.3 C 7.06 g/m*3 27.3 C 0 km/h
1503 21-08-2003 14:29:01 27.7 C 6.95 g/m*3 27.7 C 0 km/h
1504 21-08-2003 14:41:01 27.4 C 6.58 g/m*3 27.4 C 0 km/h
1505 21-08-2003 14:53:01 28.1 C 6.84 g/m*3 28.1 C 0 km/h
1506 21-08-2003 15:05:02 28.7 C 7.06 g/m*3 28.7 C 0 km/h
1507 21-08-2003 15:17:02 29 C 6.61 g/m*3 29 C 0 km/h
1508 21-08-2003 15:29:02 28.7 C 6.5 g/m*3 28.7 C 0 km/h
1509 21-08-2003 15:41:01 29.7 C 6.86 g/m*3 29.7 C 0 km/h
1510 21-08-2003 15:53:01 29.5 C 6.2 g/m*3 29.5 C 0 km/h
1511 21-08-2003 16:05:02 30.4 C 6.51 g/m*3 30.4 C 0 km/h
1512 21-08-2003 16:17:02 30.1 C 6.4 g/m*3 30.1 C 0 km/h
1513 21-08-2003 16:29:02 30.5 C 6.54 g/m*3 30.5 C 0 km/h
1514 21-08-2003 16:41:01 30.6 C 6.26 g/m*3 30.6 C 0 km/h
1515 21-08-2003 16:53:01 31 C 6.4 g/m*3 31 C 0 km/h
1516 21-08-2003 17:05:01 29.6 C 5.94 g/m*3 29.6 C 0 km/h
1517 21-08-2003 17:17:01 30 C 6.06 g/m*3 30 C 0 km/h
1518 21-08-2003 17:29:01 30 C 6.06 g/m*3 30 C 0 km/h
1519 21-08-2003 17:41:00 30.4 C 6.51 g/m*3 30.4 C 0 km/h
1520 21-08-2003 17:53:00 30.3 C 6.47 g/m*3 30.3 C 0 km/h
1521 21-08-2003 18:05:01 30.1 C 6.1 g/m*3 30.1 C 0 km/h
1522 21-08-2003 18:17:01 30.2 C 6.74 g/m*3 30.2 C 0 km/h
1523 21-08-2003 18:29:01 30.2 C 7.05 g/m*3 30.2 C 0 km/h
1524 21-08-2003 18:41:01 29 C 7.18 g/m*3 29 C 0 km/h
1525 21-08-2003 18:53:01 29.5 C 7.97 g/m*3 29.5 C 0 km/h
Sensor: Nr:Datum:Temp:Abs-Feuchte:Windchill:Wind:
Aussen-T/F 1526 21-08-2003 19:05:01 28.8 C 8.24 g/m*3 28.8 C 0 km/h
1527 21-08-2003 19:17:01 28.3 C 8.29 g/m*3 28.3 C 0 km/h
1528 21-08-2003 19:29:01 27.6 C 8.51 g/m*3 27.6 C 0 km/h
1529 21-08-2003 19:41:01 27.3 C 9.42 g/m*3 27.3 C 0 km/h
1530 21-08-2003 19:53:01 26.6 C 9.82 g/m*3 26.6 C 0 km/h
1531 21-08-2003 20:05:02 25.7 C 9.82 g/m*3 25.7 C 0 km/h
1532 21-08-2003 20:17:02 24.9 C 9.61 g/m*3 24.9 C 0 km/h
1533 21-08-2003 20:29:02 24.4 C 9.35 g/m*3 24.4 C 0 km/h
1534 21-08-2003 20:41:00 23.4 C 9.04 g/m*3 23.4 C 0 km/h
1535 21-08-2003 20:53:00 22.9 C 8.99 g/m*3 22.9 C 0 km/h
1536 21-08-2003 21:05:01 22.4 C 9.14 g/m*3 22.4 C 0 km/h
1537 21-08-2003 21:17:01 21.9 C 9.26 g/m*3 21.9 C 0 km/h
1538 21-08-2003 21:29:01 21.6 C 9.29 g/m*3 21.6 C 0 km/h
1539 21-08-2003 21:42:01 21.3 C 9.32 g/m*3 21.3 C 0 km/h
1540 21-08-2003 21:54:01 21.1 C 9.4 g/m*3 21.1 C 0 km/h
1541 21-08-2003 22:06:01 21 C 9.34 g/m*3 21 C 0 km/h
1542 21-08-2003 22:18:01 20.9 C 9.29 g/m*3 20.9 C 0 km/h
1543 21-08-2003 22:30:01 20.5 C 9.07 g/m*3 20.5 C 0 km/h
1544 21-08-2003 22:42:01 20.5 C 9.25 g/m*3 20.5 C 0 km/h
1545 21-08-2003 22:54:01 20.1 C 9.21 g/m*3 20.1 C 0 km/h
1546 21-08-2003 23:06:01 20 C 9.51 g/m*3 20 C 0 km/h
1547 21-08-2003 23:18:01 19.7 C 9.85 g/m*3 19.7 C 0 km/h
1548 21-08-2003 23:30:01 19.5 C 9.73 g/m*3 19.5 C 0 km/h
1549 21-08-2003 23:42:01 19.3 C 9.79 g/m*3 19.3 C 0 km/h
1550 21-08-2003 23:54:01 19.1 C 9.84 g/m*3 19.1 C 0 km/h
Sensor: Nr:Datum:Temp:Abs-Feuchte:Windchill:Wind:
Aussen-T/F 1551 22-08-2003 00:06:01 18.9 C 9.88 g/m*3 18.9 C 0 km/h
1552 22-08-2003 00:18:01 18.6 C 9.87 g/m*3 18.6 C 0 km/h
1553 22-08-2003 00:30:01 18.4 C 9.91 g/m*3 18.4 C 0 km/h
1554 22-08-2003 00:42:01 18.1 C 9.73 g/m*3 18.1 C 0 km/h
1555 22-08-2003 00:54:01 17.9 C 10.08 g/m*3 17.9 C 0 km/h
1556 22-08-2003 01:06:01 18 C 9.83 g/m*3 18 C 0 km/h
1557 22-08-2003 01:18:01 17.8 C 10.02 g/m*3 17.8 C 0 km/h
1558 22-08-2003 01:30:01 17.6 C 10.05 g/m*3 17.6 C 0 km/h
1559 22-08-2003 01:42:01 17.5 C 9.99 g/m*3 17.5 C 0 km/h
1560 22-08-2003 01:54:01 17.3 C 9.87 g/m*3 17.3 C 0 km/h
1561 22-08-2003 02:06:01 17.1 C 10.04 g/m*3 17.1 C 0 km/h
1562 22-08-2003 02:18:01 17 C 9.98 g/m*3 17 C 0 km/h
1563 22-08-2003 02:30:01 16.9 C 10.07 g/m*3 16.9 C 0 km/h
1564 22-08-2003 02:42:01 16.6 C 10.03 g/m*3 16.6 C 0 km/h
1565 22-08-2003 02:54:01 16.3 C 9.99 g/m*3 16.3 C 0 km/h
1566 22-08-2003 03:06:01 16.2 C 9.93 g/m*3 16.2 C 0 km/h
1567 22-08-2003 03:18:01 16.2 C 9.93 g/m*3 16.2 C 0 km/h
1568 22-08-2003 03:30:01 16 C 9.81 g/m*3 16 C 0 km/h
1569 22-08-2003 03:42:01 15.8 C 9.96 g/m*3 15.8 C 0 km/h
1570 22-08-2003 03:54:01 15.8 C 9.96 g/m*3 15.8 C 0 km/h
1571 22-08-2003 04:06:01 15.6 C 9.84 g/m*3 15.6 C 0 km/h
1572 22-08-2003 04:18:01 15.4 C 9.85 g/m*3 15.4 C 0 km/h
1573 22-08-2003 04:30:01 15.3 C 9.92 g/m*3 15.3 C 0 km/h
1574 22-08-2003 04:42:01 15.1 C 9.93 g/m*3 15.1 C 0 km/h
1575 22-08-2003 04:54:01 14.9 C 10.07 g/m*3 14.9 C 0 km/h
Sensor: Nr:Datum:Temp:Abs-Feuchte:Windchill:Wind:
Aussen-T/F 1576 22-08-2003 05:06:01 14.8 C 10.01 g/m*3 14.8 C 0 km/h
1577 22-08-2003 05:18:01 14.7 C 9.95 g/m*3 14.7 C 0 km/h
1578 22-08-2003 05:30:01 14.4 C 9.89 g/m*3 14.4 C 0 km/h
1579 22-08-2003 05:42:01 14.3 C 9.83 g/m*3 14.3 C 0 km/h
1580 22-08-2003 05:54:01 14.3 C 9.83 g/m*3 14.3 C 0 km/h
1581 22-08-2003 06:06:01 14.1 C 9.71 g/m*3 14.1 C 0 km/h
1582 22-08-2003 06:18:01 14 C 9.65 g/m*3 14 C 0 km/h
1583 22-08-2003 06:30:01 13.9 C 9.71 g/m*3 13.9 C 0 km/h
1584 22-08-2003 06:42:01 13.8 C 9.65 g/m*3 13.8 C 0 km/h
1585 22-08-2003 06:54:01 13.7 C 9.71 g/m*3 13.7 C 0 km/h
1586 22-08-2003 07:06:01 13.6 C 9.65 g/m*3 13.6 C 0 km/h
1587 22-08-2003 07:18:01 13.6 C 9.65 g/m*3 13.6 C 0 km/h
1588 22-08-2003 07:30:01 13.6 C 9.65 g/m*3 13.6 C 0 km/h
1589 22-08-2003 07:42:01 13.8 C 9.77 g/m*3 13.8 C 0 km/h
1590 22-08-2003 07:54:01 13.9 C 9.83 g/m*3 13.9 C 0 km/h
1591 22-08-2003 08:06:01 14.1 C 9.71 g/m*3 14.1 C 0 km/h
1592 22-08-2003 08:18:01 14.4 C 9.77 g/m*3 14.4 C 0 km/h
1593 22-08-2003 08:30:01 14.7 C 9.82 g/m*3 14.7 C 0 km/h
1594 22-08-2003 08:42:02 15 C 9.87 g/m*3 15 C 0 km/h
1595 22-08-2003 08:54:02 15.5 C 9.78 g/m*3 15.5 C 0 km/h
1596 22-08-2003 09:06:02 15.7 C 9.63 g/m*3 15.7 C 0 km/h
1597 22-08-2003 09:18:02 16 C 9.67 g/m*3 16 C 0 km/h
1598 22-08-2003 09:30:02 16.7 C 9.66 g/m*3 16.7 C 0 km/h
1599 22-08-2003 09:42:01 17.2 C 9.23 g/m*3 17.2 C 0 km/h
1600 22-08-2003 09:54:01 17.6 C 8.85 g/m*3 17.6 C 0 km/h
Sensor: Nr:Datum:Temp:Abs-Feuchte:Windchill:Wind:
Aussen-T/F 1601 22-08-2003 10:06:02 18 C 8.29 g/m*3 18 C 0 km/h
1602 22-08-2003 10:18:02 18.5 C 8.54 g/m*3 18.5 C 0 km/h
1603 22-08-2003 10:30:02 18.9 C 8.26 g/m*3 18.9 C 0 km/h
1604 22-08-2003 10:42:01 19.5 C 8.39 g/m*3 19.5 C 0 km/h
1605 22-08-2003 10:54:01 20.1 C 8.34 g/m*3 20.1 C 0 km/h
1606 22-08-2003 11:06:01 20.7 C 8.1 g/m*3 20.7 C 0 km/h
1607 22-08-2003 11:18:01 21 C 8.06 g/m*3 21 C 0 km/h
1608 22-08-2003 11:30:01 21.3 C 7.83 g/m*3 21.3 C 0 km/h
1609 22-08-2003 11:42:01 21.5 C 7.73 g/m*3 21.5 C 0 km/h
1610 22-08-2003 11:54:01 21.9 C 7.91 g/m*3 21.9 C 0 km/h
1611 22-08-2003 12:06:01 22.3 C 7.7 g/m*3 22.3 C 0 km/h
1612 22-08-2003 12:18:01 22.5 C 7.79 g/m*3 22.5 C 0 km/h
1613 22-08-2003 12:30:01 22.5 C 7.59 g/m*3 22.5 C 0 km/h
1614 22-08-2003 12:42:01 22.6 C 7.83 g/m*3 22.6 C 0 km/h
1615 22-08-2003 12:54:01 23 C 7.81 g/m*3 23 C 0 km/h
1616 22-08-2003 13:06:00 23.3 C 7.95 g/m*3 23.3 C 0 km/h
1617 22-08-2003 13:18:00 24.6 C 8.1 g/m*3 24.6 C 0 km/h
1618 22-08-2003 13:30:00 24.7 C 8.15 g/m*3 24.7 C 0 km/h
1619 22-08-2003 13:42:01 24.6 C 8.33 g/m*3 24.6 C 0 km/h
1620 22-08-2003 13:54:01 25.1 C 8.1 g/m*3 25.1 C 0 km/h
1621 22-08-2003 14:06:02 24.8 C 8.19 g/m*3 24.8 C 0 km/h
1622 22-08-2003 14:18:02 25.3 C 8.19 g/m*3 25.3 C 0 km/h
1623 22-08-2003 14:30:02 25.1 C 8.33 g/m*3 25.1 C 0 km/h
1624 22-08-2003 14:42:01 25.5 C 8.29 g/m*3 25.5 C 0 km/h
1625 22-08-2003 14:54:01 25.4 C 8.48 g/m*3 25.4 C 0 km/h
Sensor: Nr:Datum:Temp:Abs-Feuchte:Windchill:Wind:
Aussen-T/F 1626 22-08-2003 15:06:02 25.4 C 8.24 g/m*3 25.4 C 0 km/h
1627 22-08-2003 15:18:02 25.8 C 8.43 g/m*3 25.8 C 0 km/h
1628 22-08-2003 15:30:02 26 C 8.28 g/m*3 26 C 0 km/h
1629 22-08-2003 15:42:00 26.2 C 8.12 g/m*3 26.2 C 0 km/h
1630 22-08-2003 15:54:00 26.4 C 8.21 g/m*3 26.4 C 0 km/h
1631 22-08-2003 16:06:01 26.8 C 8.14 g/m*3 26.8 C 0 km/h
1632 22-08-2003 16:18:01 26.6 C 8.05 g/m*3 26.6 C 0 km/h
1633 22-08-2003 16:30:01 27 C 8.24 g/m*3 27 C 0 km/h
1634 22-08-2003 16:42:01 27.1 C 8.02 g/m*3 27.1 C 0 km/h
1635 22-08-2003 16:54:01 26.9 C 8.19 g/m*3 26.9 C 0 km/h
1636 22-08-2003 17:06:01 27.4 C 8.16 g/m*3 27.4 C 0 km/h
1637 22-08-2003 17:18:01 27.1 C 8.28 g/m*3 27.1 C 0 km/h
1638 22-08-2003 17:30:01 26.9 C 8.19 g/m*3 26.9 C 0 km/h
1639 22-08-2003 17:42:01 27.1 C 8.28 g/m*3 27.1 C 0 km/h
1640 22-08-2003 17:54:01 27.3 C 8.11 g/m*3 27.3 C 0 km/h
1641 22-08-2003 18:06:01 27.2 C 8.33 g/m*3 27.2 C 0 km/h
1642 22-08-2003 18:18:01 27.4 C 8.42 g/m*3 27.4 C 0 km/h
1643 22-08-2003 18:30:01 27.1 C 8.02 g/m*3 27.1 C 0 km/h
1644 22-08-2003 18:42:01 26.6 C 8.31 g/m*3 26.6 C 0 km/h
1645 22-08-2003 18:54:01 26.6 C 8.31 g/m*3 26.6 C 0 km/h
1646 22-08-2003 19:06:02 26.5 C 8.51 g/m*3 26.5 C 0 km/h
1647 22-08-2003 19:18:02 26.3 C 8.42 g/m*3 26.3 C 0 km/h
1648 22-08-2003 19:30:02 26.3 C 8.66 g/m*3 26.3 C 0 km/h
1649 22-08-2003 19:42:00 25.1 C 8.33 g/m*3 25.1 C 0 km/h
1650 22-08-2003 19:54:00 24.6 C 8.55 g/m*3 24.6 C 0 km/h
Sensor: Nr:Datum:Temp:Abs-Feuchte:Windchill:Wind:
Aussen-T/F 1651 22-08-2003 20:06:01 23.9 C 8.65 g/m*3 23.9 C 0 km/h
1652 22-08-2003 20:18:01 23.6 C 8.93 g/m*3 23.6 C 0 km/h
1653 22-08-2003 20:30:01 23 C 8.84 g/m*3 23 C 0 km/h
1654 22-08-2003 20:42:01 22.6 C 9.04 g/m*3 22.6 C 0 km/h
1655 22-08-2003 20:54:01 22.1 C 9.17 g/m*3 22.1 C 0 km/h
1656 22-08-2003 21:06:00 21.9 C 9.26 g/m*3 21.9 C 0 km/h
1657 22-08-2003 21:18:00 21.6 C 9.29 g/m*3 21.6 C 0 km/h
1658 22-08-2003 21:30:00 21.3 C 9.32 g/m*3 21.3 C 0 km/h
1659 22-08-2003 21:42:01 21.1 C 9.58 g/m*3 21.1 C 0 km/h
1660 22-08-2003 21:54:01 20.8 C 9.6 g/m*3 20.8 C 0 km/h
1661 22-08-2003 22:06:01 20.4 C 9.38 g/m*3 20.4 C 0 km/h
1662 22-08-2003 22:18:01 20 C 9.51 g/m*3 20 C 0 km/h
1663 22-08-2003 22:30:01 19.7 C 9.51 g/m*3 19.7 C 0 km/h
1664 22-08-2003 22:43:04 19.5 C 9.73 g/m*3 19.5 C 0 km/h
1665 22-08-2003 22:55:04 19 C 9.78 g/m*3 19 C 0 km/h
1666 22-08-2003 23:07:04 19.1 C 9.67 g/m*3 19.1 C 0 km/h
1667 22-08-2003 23:19:04 19 C 9.61 g/m*3 19 C 0 km/h
1668 22-08-2003 23:31:04 18.8 C 9.99 g/m*3 18.8 C 0 km/h
1669 22-08-2003 23:43:04 19.2 C 9.73 g/m*3 19.2 C 0 km/h
1670 22-08-2003 23:55:04 19.3 C 9.79 g/m*3 19.3 C 0 km/h
1671 23-08-2003 00:07:04 19.1 C 9.67 g/m*3 19.1 C 0 km/h
1672 23-08-2003 00:19:04 18.9 C 9.88 g/m*3 18.9 C 0 km/h
1673 23-08-2003 00:31:04 18.9 C 9.88 g/m*3 18.9 C 0 km/h
1674 23-08-2003 00:43:04 19 C 9.78 g/m*3 19 C 0 km/h
1675 23-08-2003 00:55:04 19 C 9.78 g/m*3 19 C 0 km/h
Sensor: Nr:Datum:Temp:Abs-Feuchte:Windchill:Wind:
Aussen-T/F 1676 23-08-2003 01:07:04 18.9 C 9.88 g/m*3 18.9 C 0 km/h
1677 23-08-2003 01:19:04 18.8 C 9.99 g/m*3 18.8 C 0 km/h
1678 23-08-2003 01:31:04 18.5 C 9.97 g/m*3 18.5 C 0 km/h
1679 23-08-2003 01:43:04 18.3 C 10.01 g/m*3 18.3 C 0 km/h
1680 23-08-2003 01:55:04 18.2 C 10.1 g/m*3 18.2 C 0 km/h
1681 23-08-2003 02:07:04 18.1 C 10.04 g/m*3 18.1 C 0 km/h
1682 23-08-2003 02:19:04 18.2 C 10.1 g/m*3 18.2 C 0 km/h
1683 23-08-2003 02:31:04 18.1 C 10.04 g/m*3 18.1 C 0 km/h
1684 23-08-2003 02:43:04 18.1 C 10.04 g/m*3 18.1 C 0 km/h
1685 23-08-2003 02:55:04 17.8 C 10.17 g/m*3 17.8 C 0 km/h
1686 23-08-2003 03:07:04 17.4 C 10.08 g/m*3 17.4 C 0 km/h
1687 23-08-2003 03:19:04 17 C 9.98 g/m*3 17 C 0 km/h
1688 23-08-2003 03:31:04 17 C 10.13 g/m*3 17 C 0 km/h
1689 23-08-2003 03:43:04 16.8 C 10.29 g/m*3 16.8 C 0 km/h
1690 23-08-2003 03:55:04 16.8 C 10.29 g/m*3 16.8 C 0 km/h
1691 23-08-2003 04:07:04 16.9 C 10.21 g/m*3 16.9 C 0 km/h
1692 23-08-2003 04:19:04 16.6 C 10.31 g/m*3 16.6 C 0 km/h
1693 23-08-2003 04:31:04 16.6 C 10.31 g/m*3 16.6 C 0 km/h
1694 23-08-2003 04:43:04 16.4 C 10.19 g/m*3 16.4 C 0 km/h
1695 23-08-2003 04:55:04 16.4 C 10.33 g/m*3 16.4 C 0 km/h
1696 23-08-2003 05:07:04 16.3 C 10.27 g/m*3 16.3 C 0 km/h
1697 23-08-2003 05:19:04 16.2 C 10.2 g/m*3 16.2 C 0 km/h
1698 23-08-2003 05:31:04 16.1 C 10.14 g/m*3 16.1 C 0 km/h
1699 23-08-2003 05:43:04 16 C 10.22 g/m*3 16 C 0 km/h
1700 23-08-2003 05:55:04 15.9 C 10.43 g/m*3 15.9 C 0 km/h
Sensor: Nr:Datum:Temp:Abs-Feuchte:Windchill:Wind:
Aussen-T/F 1701 23-08-2003 06:07:04 15.8 C 10.36 g/m*3 15.8 C 0 km/h
1702 23-08-2003 06:19:04 15.6 C 10.37 g/m*3 15.6 C 0 km/h
1703 23-08-2003 06:31:04 15.5 C 10.31 g/m*3 15.5 C 0 km/h
1704 23-08-2003 06:43:04 15.4 C 10.25 g/m*3 15.4 C 0 km/h
1705 23-08-2003 06:55:04 15.4 C 10.38 g/m*3 15.4 C 0 km/h
1706 23-08-2003 07:07:04 15.4 C 10.38 g/m*3 15.4 C 0 km/h
1707 23-08-2003 07:19:04 15.4 C 10.38 g/m*3 15.4 C 0 km/h
1708 23-08-2003 07:31:04 15.4 C 10.38 g/m*3 15.4 C 0 km/h
1709 23-08-2003 07:43:04 15.6 C 10.37 g/m*3 15.6 C 0 km/h
1710 23-08-2003 07:55:04 16 C 10.35 g/m*3 16 C 0 km/h
1711 23-08-2003 08:07:04 16.2 C 10.34 g/m*3 16.2 C 0 km/h
1712 23-08-2003 08:19:04 16.6 C 10.45 g/m*3 16.6 C 0 km/h
1713 23-08-2003 08:31:04 16.9 C 10.5 g/m*3 16.9 C 0 km/h
1714 23-08-2003 08:43:01 16.9 C 10.64 g/m*3 16.9 C 0 km/h
1715 23-08-2003 08:55:01 17.2 C 10.54 g/m*3 17.2 C 0 km/h
1716 23-08-2003 09:07:01 17.7 C 10.71 g/m*3 17.7 C 0 km/h
1717 23-08-2003 09:19:01 18.1 C 10.82 g/m*3 18.1 C 0 km/h
1718 23-08-2003 09:31:01 19 C 10.92 g/m*3 19 C 0 km/h
1719 23-08-2003 09:43:01 19.4 C 10.84 g/m*3 19.4 C 0 km/h
1720 23-08-2003 09:55:01 19.8 C 10.93 g/m*3 19.8 C 0 km/h
1721 23-08-2003 10:07:02 20.2 C 10.67 g/m*3 20.2 C 0 km/h
1722 23-08-2003 10:19:02 20.8 C 10.86 g/m*3 20.8 C 0 km/h
1723 23-08-2003 10:31:02 21.8 C 10.74 g/m*3 21.8 C 0 km/h
1724 23-08-2003 10:43:02 22.1 C 10.54 g/m*3 22.1 C 0 km/h
1725 23-08-2003 10:55:02 22.5 C 10.79 g/m*3 22.5 C 0 km/h
Sensor: Nr:Datum:Temp:Abs-Feuchte:Windchill:Wind:
Aussen-T/F 1726 23-08-2003 11:07:02 22.1 C 10.74 g/m*3 22.1 C 0 km/h
1727 23-08-2003 11:19:02 22.1 C 10.93 g/m*3 22.1 C 0 km/h
1728 23-08-2003 11:31:02 22.1 C 11.32 g/m*3 22.1 C 0 km/h
1729 23-08-2003 11:43:01 23.5 C 10.79 g/m*3 23.5 C 0 km/h
1730 23-08-2003 11:55:01 24 C 10.23 g/m*3 24 C 0 km/h
1731 23-08-2003 12:07:02 24.2 C 10.56 g/m*3 24.2 C 0 km/h
1732 23-08-2003 12:19:02 24.4 C 10.68 g/m*3 24.4 C 0 km/h
1733 23-08-2003 12:31:02 25.4 C 10.83 g/m*3 25.4 C 0 km/h
1734 23-08-2003 12:43:00 25.6 C 10.48 g/m*3 25.6 C 0 km/h
1735 23-08-2003 12:55:00 25.7 C 10.53 g/m*3 25.7 C 0 km/h
1736 23-08-2003 13:07:00 26.1 C 10.28 g/m*3 26.1 C 0 km/h
1737 23-08-2003 13:19:00 25.9 C 10.89 g/m*3 25.9 C 0 km/h
1738 23-08-2003 13:31:00 25.5 C 11.13 g/m*3 25.5 C 0 km/h
1739 23-08-2003 13:43:01 25.2 C 11.64 g/m*3 25.2 C 0 km/h
1740 23-08-2003 13:55:01 25 C 11.28 g/m*3 25 C 0 km/h
1741 23-08-2003 14:07:02 25.2 C 10.71 g/m*3 25.2 C 0 km/h
1742 23-08-2003 14:19:02 25.8 C 10.83 g/m*3 25.8 C 0 km/h
1743 23-08-2003 14:31:02 26.5 C 10.76 g/m*3 26.5 C 0 km/h
1744 23-08-2003 14:43:01 27.7 C 10.97 g/m*3 27.7 C 0 km/h
1745 23-08-2003 14:55:01 28.3 C 10.78 g/m*3 28.3 C 0 km/h
1746 23-08-2003 15:07:01 28.1 C 10.94 g/m*3 28.1 C 0 km/h
1747 23-08-2003 15:19:01 28.6 C 10.68 g/m*3 28.6 C 0 km/h
1748 23-08-2003 15:31:01 27.8 C 10.76 g/m*3 27.8 C 0 km/h
1749 23-08-2003 15:43:01 27.5 C 10.85 g/m*3 27.5 C 0 km/h
1750 23-08-2003 15:55:01 26.6 C 10.57 g/m*3 26.6 C 0 km/h
Sensor: Nr:Datum:Temp:Abs-Feuchte:Windchill:Wind:
Aussen-T/F 1751 23-08-2003 16:07:02 26.5 C 10.51 g/m*3 26.5 C 0 km/h
1752 23-08-2003 16:19:02 27.5 C 10.32 g/m*3 27.5 C 0 km/h
1753 23-08-2003 16:31:02 27.5 C 10.85 g/m*3 27.5 C 0 km/h
1754 23-08-2003 16:43:01 27.5 C 10.85 g/m*3 27.5 C 0 km/h
1755 23-08-2003 16:55:01 27.4 C 11.05 g/m*3 27.4 C 0 km/h
1756 23-08-2003 17:07:03 26.9 C 10.75 g/m*3 26.9 C 0 km/h
1757 23-08-2003 17:19:03 27.2 C 10.41 g/m*3 27.2 C 0 km/h
1758 23-08-2003 17:31:03 27.7 C 10.43 g/m*3 27.7 C 0 km/h
1759 23-08-2003 17:43:01 27.9 C 10.55 g/m*3 27.9 C 0 km/h
1760 23-08-2003 17:55:01 28 C 10.06 g/m*3 28 C 0 km/h
1761 23-08-2003 18:07:01 27.6 C 10.38 g/m*3 27.6 C 0 km/h
1762 23-08-2003 18:19:01 26.6 C 10.57 g/m*3 26.6 C 0 km/h
1763 23-08-2003 18:31:01 26.3 C 10.64 g/m*3 26.3 C 0 km/h
1764 23-08-2003 18:43:08 25.9 C 10.89 g/m*3 25.9 C 0 km/h
1765 23-08-2003 18:55:08 25.5 C 10.89 g/m*3 25.5 C 0 km/h
1766 23-08-2003 19:07:01 26.5 C 10.76 g/m*3 26.5 C 0 km/h
1767 23-08-2003 19:19:01 27.2 C 10.93 g/m*3 27.2 C 0 km/h
1768 23-08-2003 19:31:01 26.4 C 10.46 g/m*3 26.4 C 0 km/h
1769 23-08-2003 19:43:01 26.2 C 10.59 g/m*3 26.2 C 0 km/h
1770 23-08-2003 19:55:01 26.1 C 10.77 g/m*3 26.1 C 0 km/h
1771 23-08-2003 20:07:01 25.5 C 11.36 g/m*3 25.5 C 0 km/h
1772 23-08-2003 20:19:01 24.5 C 11.41 g/m*3 24.5 C 0 km/h
1773 23-08-2003 20:31:01 24.5 C 11.64 g/m*3 24.5 C 0 km/h
1774 23-08-2003 20:43:02 23.8 C 11.62 g/m*3 23.8 C 0 km/h
1775 23-08-2003 20:55:02 23.9 C 11.68 g/m*3 23.9 C 0 km/h
Sensor: Nr:Datum:Temp:Abs-Feuchte:Windchill:Wind:
Aussen-T/F 1776 23-08-2003 21:07:01 23.5 C 11.63 g/m*3 23.5 C 0 km/h
1777 23-08-2003 21:19:01 23.3 C 11.71 g/m*3 23.3 C 0 km/h
1778 23-08-2003 21:31:01 23.1 C 11.78 g/m*3 23.1 C 0 km/h
1779 23-08-2003 21:44:01 22.7 C 11.72 g/m*3 22.7 C 0 km/h
1780 23-08-2003 21:56:01 22.2 C 11.78 g/m*3 22.2 C 0 km/h
1781 23-08-2003 22:08:01 22 C 12.03 g/m*3 22 C 0 km/h
1782 23-08-2003 22:20:01 21.7 C 12.02 g/m*3 21.7 C 0 km/h
1783 23-08-2003 22:32:01 21.5 C 11.88 g/m*3 21.5 C 0 km/h
1784 23-08-2003 22:44:01 21.6 C 11.76 g/m*3 21.6 C 0 km/h
1785 23-08-2003 22:56:01 21.6 C 11.95 g/m*3 21.6 C 0 km/h
1786 23-08-2003 23:08:01 21.2 C 11.86 g/m*3 21.2 C 0 km/h
1787 23-08-2003 23:20:01 20.9 C 12.02 g/m*3 20.9 C 0 km/h
1788 23-08-2003 23:32:01 20.8 C 11.95 g/m*3 20.8 C 0 km/h
1789 23-08-2003 23:44:01 20.7 C 12.06 g/m*3 20.7 C 0 km/h
1790 23-08-2003 23:56:01 20.4 C 12.03 g/m*3 20.4 C 0 km/h
1791 24-08-2003 00:08:01 20.3 C 11.96 g/m*3 20.3 C 0 km/h
1792 24-08-2003 00:20:01 20.1 C 11.82 g/m*3 20.1 C 0 km/h
1793 24-08-2003 00:32:01 20.1 C 11.99 g/m*3 20.1 C 0 km/h
1794 24-08-2003 00:44:01 19.9 C 12.03 g/m*3 19.9 C 0 km/h
1795 24-08-2003 00:56:01 20 C 11.92 g/m*3 20 C 0 km/h
1796 24-08-2003 01:08:01 19.7 C 12.06 g/m*3 19.7 C 0 km/h
1797 24-08-2003 01:20:01 19.5 C 11.92 g/m*3 19.5 C 0 km/h
1798 24-08-2003 01:32:01 19.3 C 11.61 g/m*3 19.3 C 0 km/h
1799 24-08-2003 01:44:01 19.3 C 11.61 g/m*3 19.3 C 0 km/h
1800 24-08-2003 01:56:01 19.1 C 11.31 g/m*3 19.1 C 0 km/h
Sensor: Nr:Datum:Temp:Abs-Feuchte:Windchill:Wind:
Aussen-T/F 1801 24-08-2003 02:08:01 19 C 11.24 g/m*3 19 C 0 km/h
1802 24-08-2003 02:20:01 18.7 C 11.05 g/m*3 18.7 C 0 km/h
1803 24-08-2003 02:32:01 18.6 C 10.98 g/m*3 18.6 C 0 km/h
1804 24-08-2003 02:44:01 18.5 C 11.08 g/m*3 18.5 C 0 km/h
1805 24-08-2003 02:56:01 18.2 C 10.88 g/m*3 18.2 C 0 km/h
1806 24-08-2003 03:08:01 18.1 C 10.82 g/m*3 18.1 C 0 km/h
1807 24-08-2003 03:20:01 17.8 C 10.93 g/m*3 17.8 C 0 km/h
1808 24-08-2003 03:32:01 17.6 C 10.95 g/m*3 17.6 C 0 km/h
1809 24-08-2003 03:44:01 17.4 C 10.82 g/m*3 17.4 C 0 km/h
1810 24-08-2003 03:56:01 17.3 C 10.75 g/m*3 17.3 C 0 km/h
1811 24-08-2003 04:08:01 17.1 C 10.77 g/m*3 17.1 C 0 km/h
1812 24-08-2003 04:20:01 16.8 C 10.72 g/m*3 16.8 C 0 km/h
1813 24-08-2003 04:32:01 16.6 C 10.74 g/m*3 16.6 C 0 km/h
1814 24-08-2003 04:44:01 16.5 C 10.53 g/m*3 16.5 C 0 km/h
1815 24-08-2003 04:56:01 16.3 C 10.54 g/m*3 16.3 C 0 km/h
1816 24-08-2003 05:08:01 16.2 C 10.48 g/m*3 16.2 C 0 km/h
1817 24-08-2003 05:20:01 16.1 C 10.42 g/m*3 16.1 C 0 km/h
1818 24-08-2003 05:32:01 16 C 10.49 g/m*3 16 C 0 km/h
1819 24-08-2003 05:44:01 15.7 C 10.3 g/m*3 15.7 C 0 km/h
1820 24-08-2003 05:56:01 15.7 C 10.57 g/m*3 15.7 C 0 km/h
1821 24-08-2003 06:08:01 15.4 C 10.25 g/m*3 15.4 C 0 km/h
1822 24-08-2003 06:20:01 15.2 C 10.25 g/m*3 15.2 C 0 km/h
1823 24-08-2003 06:32:01 15 C 10.13 g/m*3 15 C 0 km/h
1824 24-08-2003 06:44:01 15 C 10.13 g/m*3 15 C 0 km/h
1825 24-08-2003 06:56:01 14.8 C 10.13 g/m*3 14.8 C 0 km/h
Sensor: Nr:Datum:Temp:Abs-Feuchte:Windchill:Wind:
Aussen-T/F 1826 24-08-2003 07:08:01 14.8 C 10.26 g/m*3 14.8 C 0 km/h
1827 24-08-2003 07:20:01 14.8 C 10.26 g/m*3 14.8 C 0 km/h
1828 24-08-2003 07:32:01 14.8 C 10.26 g/m*3 14.8 C 0 km/h
1829 24-08-2003 07:44:01 14.8 C 10.13 g/m*3 14.8 C 0 km/h
1830 24-08-2003 07:56:01 14.9 C 10.2 g/m*3 14.9 C 0 km/h
1831 24-08-2003 08:08:01 15.1 C 10.32 g/m*3 15.1 C 0 km/h
1832 24-08-2003 08:20:01 15.2 C 10.25 g/m*3 15.2 C 0 km/h
1833 24-08-2003 08:32:01 15.4 C 10.25 g/m*3 15.4 C 0 km/h
1834 24-08-2003 08:44:01 15.7 C 10.3 g/m*3 15.7 C 0 km/h
1835 24-08-2003 08:56:01 16.1 C 10.42 g/m*3 16.1 C 0 km/h
1836 24-08-2003 09:08:01 16.5 C 10.39 g/m*3 16.5 C 0 km/h
1837 24-08-2003 09:20:01 16.8 C 10.44 g/m*3 16.8 C 0 km/h
1838 24-08-2003 09:32:01 17.2 C 10.4 g/m*3 17.2 C 0 km/h
1839 24-08-2003 09:44:01 17.4 C 10.23 g/m*3 17.4 C 0 km/h
1840 24-08-2003 09:56:01 17.6 C 10.35 g/m*3 17.6 C 0 km/h
1841 24-08-2003 10:08:02 18.1 C 10.2 g/m*3 18.1 C 0 km/h
1842 24-08-2003 10:20:02 18.8 C 10.31 g/m*3 18.8 C 0 km/h
1843 24-08-2003 10:32:01 19.3 C 10.12 g/m*3 19.3 C 0 km/h
1844 24-08-2003 10:44:01 19.3 C 9.95 g/m*3 19.3 C 0 km/h
1845 24-08-2003 10:56:01 19.8 C 9.74 g/m*3 19.8 C 0 km/h
1846 24-08-2003 11:08:01 19.8 C 9.74 g/m*3 19.8 C 0 km/h
1847 24-08-2003 11:20:01 20.4 C 9.38 g/m*3 20.4 C 0 km/h
1848 24-08-2003 11:32:02 20.6 C 9.31 g/m*3 20.6 C 0 km/h
1849 24-08-2003 11:44:02 21.1 C 9.21 g/m*3 21.1 C 0 km/h
1850 24-08-2003 11:56:02 21.9 C 9.26 g/m*3 21.9 C 0 km/h
Sensor: Nr:Datum:Temp:Abs-Feuchte:Windchill:Wind:
Aussen-T/F 1851 24-08-2003 12:08:02 22.5 C 9.19 g/m*3 22.5 C 0 km/h
1852 24-08-2003 12:20:02 22.3 C 8.49 g/m*3 22.3 C 0 km/h
1853 24-08-2003 12:32:48 22.6 C 8.64 g/m*3 22.6 C 0 km/h
1854 24-08-2003 12:44:48 22.9 C 8.38 g/m*3 22.9 C 0 km/h
1855 24-08-2003 12:56:01 22.6 C 7.83 g/m*3 22.6 C 0 km/h
1856 24-08-2003 13:08:01 23.4 C 8.2 g/m*3 23.4 C 0 km/h
1857 24-08-2003 13:20:01 24 C 7.61 g/m*3 24 C 0 km/h
1858 24-08-2003 13:32:01 24 C 7.4 g/m*3 24 C 0 km/h
1859 24-08-2003 13:44:01 24.5 C 7.16 g/m*3 24.5 C 0 km/h
1860 24-08-2003 13:56:01 24.4 C 7.12 g/m*3 24.4 C 0 km/h
1861 24-08-2003 14:08:01 25 C 7.14 g/m*3 25 C 0 km/h
1862 24-08-2003 14:20:01 25.5 C 7.1 g/m*3 25.5 C 0 km/h
1863 24-08-2003 14:32:01 25.8 C 7.22 g/m*3 25.8 C 0 km/h
1864 24-08-2003 14:44:01 26.8 C 6.87 g/m*3 26.8 C 0 km/h
1865 24-08-2003 14:56:01 27 C 6.95 g/m*3 27 C 0 km/h
1866 24-08-2003 15:08:00 26.7 C 6.58 g/m*3 26.7 C 0 km/h
1867 24-08-2003 15:20:00 26.8 C 6.87 g/m*3 26.8 C 0 km/h
1868 24-08-2003 15:32:01 27.1 C 6.47 g/m*3 27.1 C 0 km/h
1869 24-08-2003 15:44:01 27.8 C 6.72 g/m*3 27.8 C 0 km/h
1870 24-08-2003 15:56:01 28.7 C 6.5 g/m*3 28.7 C 0 km/h
1871 24-08-2003 16:08:01 27.8 C 6.19 g/m*3 27.8 C 0 km/h
1872 24-08-2003 16:20:01 28.8 C 6.25 g/m*3 28.8 C 0 km/h
1873 24-08-2003 16:32:01 28.1 C 6.02 g/m*3 28.1 C 0 km/h
1874 24-08-2003 16:44:01 28 C 5.98 g/m*3 28 C 0 km/h
1875 24-08-2003 16:56:01 28.7 C 6.22 g/m*3 28.7 C 0 km/h
Sensor: Nr:Datum:Temp:Abs-Feuchte:Windchill:Wind:
Aussen-T/F 1876 24-08-2003 17:08:01 29.2 C 6.1 g/m*3 29.2 C 0 km/h
1877 24-08-2003 17:20:01 28.3 C 6.08 g/m*3 28.3 C 0 km/h
1878 24-08-2003 17:32:01 27.7 C 6.15 g/m*3 27.7 C 0 km/h
1879 24-08-2003 17:44:01 28 C 6.25 g/m*3 28 C 0 km/h
1880 24-08-2003 17:56:01 28.6 C 6.46 g/m*3 28.6 C 0 km/h
1881 24-08-2003 18:08:02 28.6 C 6.74 g/m*3 28.6 C 0 km/h
1882 24-08-2003 18:20:02 27.6 C 6.65 g/m*3 27.6 C 0 km/h
1883 24-08-2003 18:32:01 27.3 C 6.54 g/m*3 27.3 C 0 km/h
1884 24-08-2003 18:44:01 26.7 C 7.09 g/m*3 26.7 C 0 km/h
1885 24-08-2003 18:56:01 27.2 C 7.55 g/m*3 27.2 C 0 km/h
1886 24-08-2003 19:08:02 26 C 7.3 g/m*3 26 C 0 km/h
1887 24-08-2003 19:20:02 25.5 C 7.81 g/m*3 25.5 C 0 km/h
1888 24-08-2003 19:32:01 25.4 C 8 g/m*3 25.4 C 0 km/h
1889 24-08-2003 19:44:01 25 C 8.06 g/m*3 25 C 0 km/h
1890 24-08-2003 19:56:01 24.8 C 8.19 g/m*3 24.8 C 0 km/h
1891 24-08-2003 20:08:02 23.4 C 8.2 g/m*3 23.4 C 0 km/h
1892 24-08-2003 20:20:02 22.3 C 8.29 g/m*3 22.3 C 0 km/h
1893 24-08-2003 20:32:01 21.6 C 8.53 g/m*3 21.6 C 0 km/h
1894 24-08-2003 20:44:01 21.5 C 8.67 g/m*3 21.5 C 0 km/h
1895 24-08-2003 20:56:01 21.3 C 8.57 g/m*3 21.3 C 0 km/h
1896 24-08-2003 21:08:02 21 C 8.43 g/m*3 21 C 0 km/h
1897 24-08-2003 21:20:02 20.6 C 8.59 g/m*3 20.6 C 0 km/h
1898 24-08-2003 21:33:01 20.4 C 8.67 g/m*3 20.4 C 0 km/h
1899 24-08-2003 21:45:01 20.3 C 8.62 g/m*3 20.3 C 0 km/h
1900 24-08-2003 21:57:01 19.9 C 8.59 g/m*3 19.9 C 0 km/h
Sensor: Nr:Datum:Temp:Abs-Feuchte:Windchill:Wind:
Aussen-T/F 1901 24-08-2003 22:09:01 19.5 C 8.73 g/m*3 19.5 C 0 km/h
1902 24-08-2003 22:21:01 19.1 C 8.69 g/m*3 19.1 C 0 km/h
1903 24-08-2003 22:33:01 18.7 C 8.65 g/m*3 18.7 C 0 km/h
1904 24-08-2003 22:45:01 18.1 C 8.5 g/m*3 18.1 C 0 km/h
1905 24-08-2003 22:57:01 17.7 C 8.6 g/m*3 17.7 C 0 km/h
1906 24-08-2003 23:09:01 17.4 C 8.45 g/m*3 17.4 C 0 km/h
1907 24-08-2003 23:21:01 17.2 C 8.49 g/m*3 17.2 C 0 km/h
1908 24-08-2003 23:33:01 16.9 C 8.63 g/m*3 16.9 C 0 km/h
1909 24-08-2003 23:45:01 16.5 C 8.71 g/m*3 16.5 C 0 km/h
1910 24-08-2003 23:57:01 16.4 C 8.79 g/m*3 16.4 C 0 km/h
1911 25-08-2003 00:09:01 16.2 C 8.55 g/m*3 16.2 C 0 km/h
1912 25-08-2003 00:21:01 15.9 C 8.67 g/m*3 15.9 C 0 km/h
1913 25-08-2003 00:33:01 15.7 C 8.7 g/m*3 15.7 C 0 km/h
1914 25-08-2003 00:45:01 15.4 C 8.67 g/m*3 15.4 C 0 km/h
1915 25-08-2003 00:57:01 15.4 C 8.67 g/m*3 15.4 C 0 km/h
1916 25-08-2003 01:09:01 15.3 C 8.62 g/m*3 15.3 C 0 km/h
1917 25-08-2003 01:21:01 15.1 C 8.64 g/m*3 15.1 C 0 km/h
1918 25-08-2003 01:33:01 15.1 C 8.64 g/m*3 15.1 C 0 km/h
1919 25-08-2003 01:45:01 15 C 8.59 g/m*3 15 C 0 km/h
1920 25-08-2003 01:57:01 14.8 C 8.61 g/m*3 14.8 C 0 km/h
1921 25-08-2003 02:09:01 14.5 C 8.58 g/m*3 14.5 C 0 km/h
1922 25-08-2003 02:21:01 14.3 C 8.6 g/m*3 14.3 C 0 km/h
1923 25-08-2003 02:33:01 14.2 C 8.67 g/m*3 14.2 C 0 km/h
1924 25-08-2003 02:45:01 14.2 C 8.55 g/m*3 14.2 C 0 km/h
1925 25-08-2003 02:57:01 14.2 C 8.79 g/m*3 14.2 C 0 km/h
Sensor: Nr:Datum:Temp:Abs-Feuchte:Windchill:Wind:
Aussen-T/F 1926 25-08-2003 03:09:01 13.9 C 8.75 g/m*3 13.9 C 0 km/h
1927 25-08-2003 03:21:01 13.7 C 8.76 g/m*3 13.7 C 0 km/h
1928 25-08-2003 03:33:01 13.3 C 8.55 g/m*3 13.3 C 0 km/h
1929 25-08-2003 03:45:01 13.3 C 8.66 g/m*3 13.3 C 0 km/h
1930 25-08-2003 03:57:01 13.2 C 8.73 g/m*3 13.2 C 0 km/h
1931 25-08-2003 04:09:01 13 C 8.62 g/m*3 13 C 0 km/h
1932 25-08-2003 04:21:01 13 C 8.73 g/m*3 13 C 0 km/h
1933 25-08-2003 04:33:01 12.9 C 8.79 g/m*3 12.9 C 0 km/h
1934 25-08-2003 04:45:01 12.7 C 8.79 g/m*3 12.7 C 0 km/h
1935 25-08-2003 04:57:01 12.5 C 8.69 g/m*3 12.5 C 0 km/h
1936 25-08-2003 05:09:01 12.4 C 8.74 g/m*3 12.4 C 0 km/h
1937 25-08-2003 05:21:01 12.2 C 8.63 g/m*3 12.2 C 0 km/h
1938 25-08-2003 05:33:01 12.1 C 8.69 g/m*3 12.1 C 0 km/h
1939 25-08-2003 05:45:01 12 C 8.74 g/m*3 12 C 0 km/h
1940 25-08-2003 05:57:01 11.8 C 8.63 g/m*3 11.8 C 0 km/h
1941 25-08-2003 06:09:01 11.8 C 8.63 g/m*3 11.8 C 0 km/h
1942 25-08-2003 06:21:01 11.6 C 8.63 g/m*3 11.6 C 0 km/h
1943 25-08-2003 06:33:01 11.4 C 8.52 g/m*3 11.4 C 0 km/h
1944 25-08-2003 06:45:01 11.4 C 8.62 g/m*3 11.4 C 0 km/h
1945 25-08-2003 06:57:01 11.4 C 8.62 g/m*3 11.4 C 0 km/h
1946 25-08-2003 07:09:01 11.4 C 8.72 g/m*3 11.4 C 0 km/h
1947 25-08-2003 07:21:01 11.4 C 8.62 g/m*3 11.4 C 0 km/h
1948 25-08-2003 07:33:01 11.5 C 8.68 g/m*3 11.5 C 0 km/h
1949 25-08-2003 07:45:01 11.6 C 8.73 g/m*3 11.6 C 0 km/h
1950 25-08-2003 07:57:01 11.7 C 8.79 g/m*3 11.7 C 0 km/h
Sensor: Nr:Datum:Temp:Abs-Feuchte:Windchill:Wind:
Aussen-T/F 1951 25-08-2003 08:09:00 11.9 C 8.9 g/m*3 11.9 C 0 km/h
1952 25-08-2003 08:21:00 12.2 C 9.06 g/m*3 12.2 C 0 km/h
1953 25-08-2003 08:33:01 12.5 C 9.13 g/m*3 12.5 C 0 km/h
1954 25-08-2003 08:45:01 12.9 C 9.13 g/m*3 12.9 C 0 km/h
1955 25-08-2003 08:57:01 13.3 C 8.9 g/m*3 13.3 C 0 km/h
1956 25-08-2003 09:09:01 13.7 C 8.88 g/m*3 13.7 C 0 km/h
1957 25-08-2003 09:21:01 14 C 8.93 g/m*3 14 C 0 km/h
1958 25-08-2003 09:33:01 14.7 C 8.94 g/m*3 14.7 C 0 km/h
1959 25-08-2003 09:45:01 15.2 C 9.22 g/m*3 15.2 C 0 km/h
1960 25-08-2003 09:57:01 15.7 C 9.1 g/m*3 15.7 C 0 km/h
1961 25-08-2003 10:09:01 16.4 C 9.21 g/m*3 16.4 C 0 km/h
1962 25-08-2003 10:21:01 17.1 C 9.17 g/m*3 17.1 C 0 km/h
1963 25-08-2003 10:33:02 17.7 C 9.51 g/m*3 17.7 C 0 km/h
1964 25-08-2003 10:45:02 18.1 C 9.12 g/m*3 18.1 C 0 km/h
1965 25-08-2003 10:57:02 19.1 C 8.69 g/m*3 19.1 C 0 km/h
1966 25-08-2003 11:09:02 20 C 8.3 g/m*3 20 C 0 km/h
1967 25-08-2003 11:21:02 20.5 C 8.19 g/m*3 20.5 C 0 km/h
1968 25-08-2003 11:33:01 21.1 C 7.92 g/m*3 21.1 C 0 km/h
1969 25-08-2003 11:45:01 21.8 C 8.06 g/m*3 21.8 C 0 km/h
1970 25-08-2003 11:57:01 22 C 7.76 g/m*3 22 C 0 km/h
1971 25-08-2003 12:09:01 22.5 C 7.79 g/m*3 22.5 C 0 km/h
1972 25-08-2003 12:21:01 22.6 C 7.63 g/m*3 22.6 C 0 km/h
1973 25-08-2003 12:33:02 23 C 7.6 g/m*3 23 C 0 km/h
1974 25-08-2003 12:45:02 23.3 C 7.53 g/m*3 23.3 C 0 km/h
1975 25-08-2003 12:57:02 23.9 C 7.79 g/m*3 23.9 C 0 km/h
Sensor: Nr:Datum:Temp:Abs-Feuchte:Windchill:Wind:
Aussen-T/F 1976 25-08-2003 13:09:02 24.3 C 7.75 g/m*3 24.3 C 0 km/h
1977 25-08-2003 13:21:02 24.4 C 7.57 g/m*3 24.4 C 0 km/h
1978 25-08-2003 13:33:01 25.1 C 7.41 g/m*3 25.1 C 0 km/h
1979 25-08-2003 13:45:01 25.1 C 7.18 g/m*3 25.1 C 0 km/h
1980 25-08-2003 13:57:01 26 C 7.55 g/m*3 26 C 0 km/h
1981 25-08-2003 14:09:01 26.4 C 7.47 g/m*3 26.4 C 0 km/h
1982 25-08-2003 14:21:01 26.2 C 7.14 g/m*3 26.2 C 0 km/h
1983 25-08-2003 14:33:01 27.4 C 7.63 g/m*3 27.4 C 0 km/h
1984 25-08-2003 14:45:01 27.5 C 7.14 g/m*3 27.5 C 0 km/h
1985 25-08-2003 14:57:01 28.6 C 7.31 g/m*3 28.6 C 0 km/h
1986 25-08-2003 15:09:01 29.1 C 6.93 g/m*3 29.1 C 0 km/h
1987 25-08-2003 15:21:01 28.8 C 7.1 g/m*3 28.8 C 0 km/h
1988 25-08-2003 15:33:01 29.5 C 6.79 g/m*3 29.5 C 0 km/h
1989 25-08-2003 15:45:01 29 C 6.89 g/m*3 29 C 0 km/h
1990 25-08-2003 15:57:01 29.7 C 6.86 g/m*3 29.7 C 0 km/h
1991 25-08-2003 16:09:01 30 C 6.67 g/m*3 30 C 0 km/h
1992 25-08-2003 16:21:01 30.3 C 6.78 g/m*3 30.3 C 0 km/h
1993 25-08-2003 16:33:01 29.1 C 6.35 g/m*3 29.1 C 0 km/h
1994 25-08-2003 16:45:01 29.6 C 6.53 g/m*3 29.6 C 0 km/h
1995 25-08-2003 16:57:01 30.6 C 6.26 g/m*3 30.6 C 0 km/h
1996 25-08-2003 17:09:01 31 C 6.4 g/m*3 31 C 0 km/h
1997 25-08-2003 17:21:01 31.4 C 6.54 g/m*3 31.4 C 0 km/h
1998 25-08-2003 17:33:02 31.2 C 6.47 g/m*3 31.2 C 0 km/h
1999 25-08-2003 17:45:02 31.2 C 6.47 g/m*3 31.2 C 0 km/h
2000 25-08-2003 17:57:02 31.3 C 6.5 g/m*3 31.3 C 0 km/h
Sensor: Nr:Datum:Temp:Abs-Feuchte:Windchill:Wind:
Aussen-T/F 2001 25-08-2003 18:09:01 31.4 C 6.54 g/m*3 31.4 C 0 km/h
2002 25-08-2003 18:21:01 31.4 C 6.54 g/m*3 31.4 C 0 km/h
2003 25-08-2003 18:33:01 30.6 C 6.26 g/m*3 30.6 C 0 km/h
2004 25-08-2003 18:45:01 30.6 C 6.26 g/m*3 30.6 C 0 km/h
2005 25-08-2003 18:57:01 30.8 C 6.33 g/m*3 30.8 C 0 km/h
2006 25-08-2003 19:09:02 30.4 C 6.51 g/m*3 30.4 C 0 km/h
2007 25-08-2003 19:21:02 30 C 6.37 g/m*3 30 C 0 km/h
2008 25-08-2003 19:33:02 29.4 C 6.75 g/m*3 29.4 C 0 km/h
2009 25-08-2003 19:45:02 28.9 C 7.14 g/m*3 28.9 C 0 km/h
2010 25-08-2003 19:57:02 27.7 C 6.69 g/m*3 27.7 C 0 km/h
2011 25-08-2003 20:09:01 26.4 C 7.22 g/m*3 26.4 C 0 km/h
2012 25-08-2003 20:21:01 25.1 C 6.94 g/m*3 25.1 C 0 km/h
2013 25-08-2003 20:33:01 24 C 6.96 g/m*3 24 C 0 km/h
2014 25-08-2003 20:45:01 23.3 C 6.9 g/m*3 23.3 C 0 km/h
2015 25-08-2003 20:57:01 23 C 7.4 g/m*3 23 C 0 km/h
2016 25-08-2003 21:09:01 22.3 C 7.11 g/m*3 22.3 C 0 km/h
2017 25-08-2003 21:21:01 21.4 C 7.12 g/m*3 21.4 C 0 km/h
2018 25-08-2003 21:33:00 21.1 C 7.19 g/m*3 21.1 C 0 km/h
2019 25-08-2003 21:45:00 20.9 C 7.29 g/m*3 20.9 C 0 km/h
2020 25-08-2003 21:57:00 20.6 C 7.52 g/m*3 20.6 C 0 km/h
2021 25-08-2003 22:10:01 20.1 C 7.47 g/m*3 20.1 C 0 km/h
2022 25-08-2003 22:22:01 20 C 7.6 g/m*3 20 C 0 km/h
2023 25-08-2003 22:34:01 19.6 C 7.77 g/m*3 19.6 C 0 km/h
2024 25-08-2003 22:46:01 19.4 C 7.84 g/m*3 19.4 C 0 km/h
2025 25-08-2003 22:58:01 19 C 7.82 g/m*3 19 C 0 km/h
Sensor: Nr:Datum:Temp:Abs-Feuchte:Windchill:Wind:
Aussen-T/F 2026 25-08-2003 23:10:01 18.8 C 8.05 g/m*3 18.8 C 0 km/h
2027 25-08-2003 23:22:01 18.7 C 8.01 g/m*3 18.7 C 0 km/h
2028 25-08-2003 23:34:01 18.4 C 8.18 g/m*3 18.4 C 0 km/h
2029 25-08-2003 23:46:01 18.2 C 8.24 g/m*3 18.2 C 0 km/h
2030 25-08-2003 23:58:01 18.2 C 8.39 g/m*3 18.2 C 0 km/h
2031 26-08-2003 00:10:01 17.9 C 8.4 g/m*3 17.9 C 0 km/h
2032 26-08-2003 00:22:01 17.8 C 8.5 g/m*3 17.8 C 0 km/h
2033 26-08-2003 00:34:01 17.3 C 8.4 g/m*3 17.3 C 0 km/h
2034 26-08-2003 00:46:01 17.3 C 8.54 g/m*3 17.3 C 0 km/h
2035 26-08-2003 00:58:01 16.8 C 8.58 g/m*3 16.8 C 0 km/h
2036 26-08-2003 01:10:01 16.4 C 8.65 g/m*3 16.4 C 0 km/h
2037 26-08-2003 01:22:01 16.4 C 8.79 g/m*3 16.4 C 0 km/h
2038 26-08-2003 01:34:01 16.3 C 8.6 g/m*3 16.3 C 0 km/h
2039 26-08-2003 01:46:01 16.1 C 8.77 g/m*3 16.1 C 0 km/h
2040 26-08-2003 01:58:01 15.8 C 8.88 g/m*3 15.8 C 0 km/h
2041 26-08-2003 02:10:01 15.7 C 8.96 g/m*3 15.7 C 0 km/h
2042 26-08-2003 02:22:01 15.5 C 8.72 g/m*3 15.5 C 0 km/h
2043 26-08-2003 02:34:01 15.2 C 8.83 g/m*3 15.2 C 0 km/h
2044 26-08-2003 02:46:01 15 C 8.72 g/m*3 15 C 0 km/h
2045 26-08-2003 02:58:01 14.8 C 8.99 g/m*3 14.8 C 0 km/h
2046 26-08-2003 03:10:01 14.7 C 8.94 g/m*3 14.7 C 0 km/h
2047 26-08-2003 03:22:01 14.5 C 8.83 g/m*3 14.5 C 0 km/h
2048 26-08-2003 03:34:01 14.4 C 8.9 g/m*3 14.4 C 0 km/h
2049 26-08-2003 03:46:01 14.1 C 8.86 g/m*3 14.1 C 0 km/h
2050 26-08-2003 03:58:01 14.2 C 9.04 g/m*3 14.2 C 0 km/h
Sensor: Nr:Datum:Temp:Abs-Feuchte:Windchill:Wind:
Aussen-T/F 2051 26-08-2003 04:10:01 13.9 C 8.99 g/m*3 13.9 C 0 km/h
2052 26-08-2003 04:22:01 13.7 C 9 g/m*3 13.7 C 0 km/h
2053 26-08-2003 04:34:01 13.5 C 8.89 g/m*3 13.5 C 0 km/h
2054 26-08-2003 04:46:01 13.3 C 8.9 g/m*3 13.3 C 0 km/h
2055 26-08-2003 04:58:01 13.2 C 8.84 g/m*3 13.2 C 0 km/h
2056 26-08-2003 05:10:01 13.1 C 8.79 g/m*3 13.1 C 0 km/h
2057 26-08-2003 05:22:01 13 C 8.73 g/m*3 13 C 0 km/h
2058 26-08-2003 05:34:01 12.9 C 8.9 g/m*3 12.9 C 0 km/h
2059 26-08-2003 05:46:01 12.5 C 8.69 g/m*3 12.5 C 0 km/h
2060 26-08-2003 05:58:01 12.4 C 8.63 g/m*3 12.4 C 0 km/h
2061 26-08-2003 06:10:01 12.4 C 8.74 g/m*3 12.4 C 0 km/h
2062 26-08-2003 06:22:01 12.3 C 8.8 g/m*3 12.3 C 0 km/h
2063 26-08-2003 06:34:01 12.2 C 8.63 g/m*3 12.2 C 0 km/h
2064 26-08-2003 06:46:01 12.1 C 8.69 g/m*3 12.1 C 0 km/h
2065 26-08-2003 06:58:01 12 C 8.74 g/m*3 12 C 0 km/h
2066 26-08-2003 07:10:01 12.1 C 8.79 g/m*3 12.1 C 0 km/h
2067 26-08-2003 07:22:01 12.1 C 8.69 g/m*3 12.1 C 0 km/h
2068 26-08-2003 07:34:01 12.1 C 8.79 g/m*3 12.1 C 0 km/h
2069 26-08-2003 07:46:01 12.1 C 8.79 g/m*3 12.1 C 0 km/h
2070 26-08-2003 07:58:01 12.1 C 8.79 g/m*3 12.1 C 0 km/h
2071 26-08-2003 08:10:01 12.3 C 8.9 g/m*3 12.3 C 0 km/h
2072 26-08-2003 08:22:01 12.6 C 9.07 g/m*3 12.6 C 0 km/h
2073 26-08-2003 08:34:01 12.8 C 9.07 g/m*3 12.8 C 0 km/h
2074 26-08-2003 08:46:01 13.1 C 9.13 g/m*3 13.1 C 0 km/h
2075 26-08-2003 08:58:01 13.4 C 9.18 g/m*3 13.4 C 0 km/h
Sensor: Nr:Datum:Temp:Abs-Feuchte:Windchill:Wind:
Aussen-T/F 2076 26-08-2003 09:10:01 13.7 C 9.35 g/m*3 13.7 C 0 km/h
2077 26-08-2003 09:22:01 14.3 C 9.58 g/m*3 14.3 C 0 km/h
2078 26-08-2003 09:34:02 14.8 C 9.5 g/m*3 14.8 C 0 km/h
2079 26-08-2003 09:46:02 15.5 C 9.39 g/m*3 15.5 C 0 km/h
2080 26-08-2003 09:58:02 16.2 C 9.38 g/m*3 16.2 C 0 km/h
2081 26-08-2003 10:10:02 17 C 9.55 g/m*3 17 C 0 km/h
2082 26-08-2003 10:22:02 17.5 C 9.54 g/m*3 17.5 C 0 km/h
2083 26-08-2003 10:34:01 18.2 C 9.48 g/m*3 18.2 C 0 km/h
2084 26-08-2003 10:46:01 18.9 C 9.4 g/m*3 18.9 C 0 km/h
2085 26-08-2003 10:58:01 19.6 C 9.28 g/m*3 19.6 C 0 km/h
2086 26-08-2003 11:10:02 20.4 C 9.2 g/m*3 20.4 C 0 km/h
2087 26-08-2003 11:22:02 20.8 C 8.51 g/m*3 20.8 C 0 km/h
2088 26-08-2003 11:34:01 21.4 C 8.44 g/m*3 21.4 C 0 km/h
2089 26-08-2003 11:46:01 22.3 C 8.1 g/m*3 22.3 C 0 km/h
2090 26-08-2003 11:58:01 22.9 C 8.58 g/m*3 22.9 C 0 km/h
2091 26-08-2003 12:10:01 23.6 C 8.72 g/m*3 23.6 C 0 km/h
2092 26-08-2003 12:22:01 24.1 C 8.31 g/m*3 24.1 C 0 km/h
2093 26-08-2003 12:34:01 24.3 C 8.19 g/m*3 24.3 C 0 km/h
2094 26-08-2003 12:46:01 25.1 C 7.64 g/m*3 25.1 C 0 km/h
2095 26-08-2003 12:58:01 25.6 C 7.14 g/m*3 25.6 C 0 km/h
2096 26-08-2003 13:10:01 25.8 C 6.98 g/m*3 25.8 C 0 km/h
2097 26-08-2003 13:22:01 26.5 C 6.51 g/m*3 26.5 C 0 km/h
2098 26-08-2003 13:34:01 27.1 C 5.69 g/m*3 27.1 C 0 km/h
2099 26-08-2003 13:46:01 26.9 C 5.89 g/m*3 26.9 C 0 km/h
2100 26-08-2003 13:58:01 26.8 C 5.85 g/m*3 26.8 C 0 km/h
Sensor: Nr:Datum:Temp:Abs-Feuchte:Windchill:Wind:
Aussen-T/F 2101 26-08-2003 14:10:02 27.7 C 6.15 g/m*3 27.7 C 0 km/h
2102 26-08-2003 14:22:02 28.5 C 5.87 g/m*3 28.5 C 0 km/h
2103 26-08-2003 14:34:01 29 C 6.03 g/m*3 29 C 0 km/h
2104 26-08-2003 14:46:01 29.4 C 5.87 g/m*3 29.4 C 0 km/h
2105 26-08-2003 14:58:01 30 C 6.06 g/m*3 30 C 0 km/h
2106 26-08-2003 15:10:02 30.4 C 6.2 g/m*3 30.4 C 0 km/h
2107 26-08-2003 15:22:02 30 C 6.06 g/m*3 30 C 0 km/h
2108 26-08-2003 15:34:00 28.8 C 5.68 g/m*3 28.8 C 0 km/h
2109 26-08-2003 15:46:00 30.1 C 6.1 g/m*3 30.1 C 0 km/h
2110 26-08-2003 15:58:00 30.7 C 6.3 g/m*3 30.7 C 0 km/h
2111 26-08-2003 16:10:01 30.8 C 6.33 g/m*3 30.8 C 0 km/h
2112 26-08-2003 16:22:01 30.6 C 6.26 g/m*3 30.6 C 0 km/h
2113 26-08-2003 16:34:01 30.4 C 6.2 g/m*3 30.4 C 0 km/h
2114 26-08-2003 16:46:01 30.9 C 6.37 g/m*3 30.9 C 0 km/h
2115 26-08-2003 16:58:01 30 C 6.37 g/m*3 30 C 0 km/h
2116 26-08-2003 17:10:01 30.6 C 6.26 g/m*3 30.6 C 0 km/h
2117 26-08-2003 17:22:01 30.4 C 6.2 g/m*3 30.4 C 0 km/h
2118 26-08-2003 17:34:01 31 C 6.4 g/m*3 31 C 0 km/h
2119 26-08-2003 17:46:01 31.2 C 6.47 g/m*3 31.2 C 0 km/h
2120 26-08-2003 17:58:01 30.9 C 6.68 g/m*3 30.9 C 0 km/h
2121 26-08-2003 18:10:02 30.7 C 6.61 g/m*3 30.7 C 0 km/h
2122 26-08-2003 18:22:02 30 C 7.58 g/m*3 30 C 0 km/h
2123 26-08-2003 18:34:02 29 C 7.47 g/m*3 29 C 0 km/h
2124 26-08-2003 18:46:02 29.5 C 7.38 g/m*3 29.5 C 0 km/h
2125 26-08-2003 18:58:02 29 C 6.89 g/m*3 29 C 0 km/h
Sensor: Nr:Datum:Temp:Abs-Feuchte:Windchill:Wind:
Aussen-T/F 2126 26-08-2003 19:10:02 28.7 C 7.06 g/m*3 28.7 C 0 km/h
2127 26-08-2003 19:22:02 27.5 C 7.14 g/m*3 27.5 C 0 km/h
2128 26-08-2003 19:34:01 26.9 C 7.68 g/m*3 26.9 C 0 km/h
2129 26-08-2003 19:46:01 26.8 C 7.64 g/m*3 26.8 C 0 km/h
2130 26-08-2003 19:58:01 25.8 C 7.46 g/m*3 25.8 C 0 km/h
2131 26-08-2003 20:10:01 25.2 C 7.45 g/m*3 25.2 C 0 km/h
2132 26-08-2003 20:22:01 24.7 C 7.7 g/m*3 24.7 C 0 km/h
2133 26-08-2003 20:34:00 24.2 C 7.92 g/m*3 24.2 C 0 km/h
2134 26-08-2003 20:46:00 23.9 C 7.79 g/m*3 23.9 C 0 km/h
2135 26-08-2003 20:58:00 23.4 C 7.99 g/m*3 23.4 C 0 km/h
2136 26-08-2003 21:10:01 22.9 C 8.38 g/m*3 22.9 C 0 km/h
2137 26-08-2003 21:22:01 22.4 C 8.34 g/m*3 22.4 C 0 km/h
2138 26-08-2003 21:34:00 21.9 C 8.68 g/m*3 21.9 C 0 km/h
2139 26-08-2003 21:46:00 21.5 C 8.67 g/m*3 21.5 C 0 km/h
2140 26-08-2003 21:58:00 21 C 8.61 g/m*3 21 C 0 km/h
2141 26-08-2003 22:11:02 20.6 C 8.77 g/m*3 20.6 C 0 km/h
2142 26-08-2003 22:23:02 20.5 C 8.72 g/m*3 20.5 C 0 km/h
2143 26-08-2003 22:35:02 20.3 C 8.79 g/m*3 20.3 C 0 km/h
2144 26-08-2003 22:47:02 20.1 C 8.87 g/m*3 20.1 C 0 km/h
2145 26-08-2003 22:59:02 20.1 C 8.87 g/m*3 20.1 C 0 km/h
2146 26-08-2003 23:11:02 19.9 C 9.11 g/m*3 19.9 C 0 km/h
2147 26-08-2003 23:23:02 19.6 C 8.95 g/m*3 19.6 C 0 km/h
2148 26-08-2003 23:35:02 19.5 C 9.06 g/m*3 19.5 C 0 km/h
2149 26-08-2003 23:47:02 19.1 C 9.02 g/m*3 19.1 C 0 km/h
2150 26-08-2003 23:59:02 18.9 C 9.07 g/m*3 18.9 C 0 km/h
Sensor: Nr:Datum:Temp:Abs-Feuchte:Windchill:Wind:
Aussen-T/F 2151 27-08-2003 00:11:02 18.7 C 9.13 g/m*3 18.7 C 0 km/h
2152 27-08-2003 00:23:02 18.5 C 9.18 g/m*3 18.5 C 0 km/h
2153 27-08-2003 00:35:02 18.2 C 9.17 g/m*3 18.2 C 0 km/h
2154 27-08-2003 00:47:02 18 C 9.22 g/m*3 18 C 0 km/h
2155 27-08-2003 00:59:02 17.8 C 9.41 g/m*3 17.8 C 0 km/h
2156 27-08-2003 01:11:02 18.1 C 9.43 g/m*3 18.1 C 0 km/h
2157 27-08-2003 01:23:02 18.3 C 9.38 g/m*3 18.3 C 0 km/h
2158 27-08-2003 01:35:02 18.3 C 9.38 g/m*3 18.3 C 0 km/h
2159 27-08-2003 01:47:02 18.1 C 9.27 g/m*3 18.1 C 0 km/h
2160 27-08-2003 01:59:02 17.9 C 9.31 g/m*3 17.9 C 0 km/h
2161 27-08-2003 02:11:02 17.7 C 9.35 g/m*3 17.7 C 0 km/h
2162 27-08-2003 02:23:02 17.5 C 9.24 g/m*3 17.5 C 0 km/h
2163 27-08-2003 02:35:02 17.2 C 9.23 g/m*3 17.2 C 0 km/h
2164 27-08-2003 02:47:02 17.1 C 9.32 g/m*3 17.1 C 0 km/h
2165 27-08-2003 02:59:02 16.8 C 9.44 g/m*3 16.8 C 0 km/h
2166 27-08-2003 03:11:02 16.6 C 9.46 g/m*3 16.6 C 0 km/h
2167 27-08-2003 03:23:02 16.4 C 9.35 g/m*3 16.4 C 0 km/h
2168 27-08-2003 03:35:02 16.2 C 9.52 g/m*3 16.2 C 0 km/h
2169 27-08-2003 03:47:02 16.1 C 9.46 g/m*3 16.1 C 0 km/h
2170 27-08-2003 03:59:02 15.7 C 9.63 g/m*3 15.7 C 0 km/h
2171 27-08-2003 04:11:02 15.5 C 9.65 g/m*3 15.5 C 0 km/h
2172 27-08-2003 04:23:02 15.3 C 9.53 g/m*3 15.3 C 0 km/h
2173 27-08-2003 04:35:02 15.1 C 9.55 g/m*3 15.1 C 0 km/h
2174 27-08-2003 04:47:02 14.8 C 9.75 g/m*3 14.8 C 0 km/h
2175 27-08-2003 04:59:02 14.8 C 9.75 g/m*3 14.8 C 0 km/h
Sensor: Nr:Datum:Temp:Abs-Feuchte:Windchill:Wind:
Aussen-T/F 2176 27-08-2003 05:11:02 14.5 C 9.7 g/m*3 14.5 C 0 km/h
2177 27-08-2003 05:23:02 14.3 C 9.71 g/m*3 14.3 C 0 km/h
2178 27-08-2003 05:35:02 14.5 C 9.7 g/m*3 14.5 C 0 km/h
2179 27-08-2003 05:47:02 14.9 C 9.81 g/m*3 14.9 C 0 km/h
2180 27-08-2003 05:59:02 15.1 C 9.55 g/m*3 15.1 C 0 km/h
2181 27-08-2003 06:11:02 15 C 9.49 g/m*3 15 C 0 km/h
2182 27-08-2003 06:23:02 15 C 9.49 g/m*3 15 C 0 km/h
2183 27-08-2003 06:35:02 14.7 C 9.57 g/m*3 14.7 C 0 km/h
2184 27-08-2003 06:47:02 15.1 C 9.55 g/m*3 15.1 C 0 km/h
2185 27-08-2003 06:59:02 15.4 C 9.59 g/m*3 15.4 C 0 km/h
2186 27-08-2003 07:11:02 15.2 C 9.48 g/m*3 15.2 C 0 km/h
2187 27-08-2003 07:23:02 15.2 C 9.48 g/m*3 15.2 C 0 km/h
2188 27-08-2003 07:35:02 15.4 C 9.59 g/m*3 15.4 C 0 km/h
2189 27-08-2003 07:47:02 15.4 C 9.59 g/m*3 15.4 C 0 km/h
2190 27-08-2003 07:59:02 15.6 C 9.58 g/m*3 15.6 C 0 km/h
2191 27-08-2003 08:11:02 15.8 C 9.56 g/m*3 15.8 C 0 km/h
2192 27-08-2003 08:23:02 16 C 9.54 g/m*3 16 C 0 km/h
2193 27-08-2003 08:35:02 16.2 C 9.52 g/m*3 16.2 C 0 km/h
2194 27-08-2003 08:47:02 16.3 C 9.57 g/m*3 16.3 C 0 km/h
2195 27-08-2003 08:59:02 16.5 C 9.55 g/m*3 16.5 C 0 km/h
2196 27-08-2003 09:11:02 16.8 C 9.58 g/m*3 16.8 C 0 km/h
2197 27-08-2003 09:23:02 16.9 C 9.64 g/m*3 16.9 C 0 km/h
2198 27-08-2003 09:35:01 17.1 C 9.46 g/m*3 17.1 C 0 km/h
2199 27-08-2003 09:47:01 17.2 C 9.67 g/m*3 17.2 C 0 km/h
2200 27-08-2003 09:59:01 17.5 C 9.69 g/m*3 17.5 C 0 km/h
Sensor: Nr:Datum:Temp:Abs-Feuchte:Windchill:Wind:
Aussen-T/F 2201 27-08-2003 10:11:01 17.8 C 9.71 g/m*3 17.8 C 0 km/h
2202 27-08-2003 10:23:01 17.6 C 9.6 g/m*3 17.6 C 0 km/h
2203 27-08-2003 10:35:01 17.9 C 9.77 g/m*3 17.9 C 0 km/h
2204 27-08-2003 10:47:01 17.5 C 9.69 g/m*3 17.5 C 0 km/h
2205 27-08-2003 10:59:01 16 C 10.08 g/m*3 16 C 0 km/h
2206 27-08-2003 11:11:00 16.3 C 10.41 g/m*3 16.3 C 0 km/h
2207 27-08-2003 11:23:00 17.3 C 10.02 g/m*3 17.3 C 0 km/h
2208 27-08-2003 11:35:00 17.9 C 9.62 g/m*3 17.9 C 0 km/h
2209 27-08-2003 11:47:00 18.6 C 9.55 g/m*3 18.6 C 0 km/h
2210 27-08-2003 11:59:00 18.6 C 8.91 g/m*3 18.6 C 0 km/h
2211 27-08-2003 11:59:01 18.6 C 8.91 g/m*3 18.6 C 0 km/h
2212 27-08-2003 12:11:01 18.7 C 8.97 g/m*3 18.7 C 0 km/h
2213 27-08-2003 12:23:01 19.2 C 8.9 g/m*3 19.2 C 0 km/h
2214 27-08-2003 12:35:02 20 C 8.81 g/m*3 20 C 0 km/h
2215 27-08-2003 12:47:02 20.4 C 8.49 g/m*3 20.4 C 0 km/h
2216 27-08-2003 12:59:02 20.5 C 8.54 g/m*3 20.5 C 0 km/h
2217 27-08-2003 13:11:01 20 C 8.12 g/m*3 20 C 0 km/h
2218 27-08-2003 13:23:01 20.5 C 8.19 g/m*3 20.5 C 0 km/h
2219 27-08-2003 13:35:02 21.1 C 8.11 g/m*3 21.1 C 0 km/h
2220 27-08-2003 13:47:02 21.8 C 8.63 g/m*3 21.8 C 0 km/h
2221 27-08-2003 13:59:02 22 C 7.76 g/m*3 22 C 0 km/h
2222 27-08-2003 14:11:01 21.7 C 7.63 g/m*3 21.7 C 0 km/h
2223 27-08-2003 14:23:01 21.4 C 7.5 g/m*3 21.4 C 0 km/h
2224 27-08-2003 14:35:01 21.5 C 7.54 g/m*3 21.5 C 0 km/h
2225 27-08-2003 14:47:01 21.9 C 7.91 g/m*3 21.9 C 0 km/h
Sensor: Nr:Datum:Temp:Abs-Feuchte:Windchill:Wind:
Aussen-T/F 2226 27-08-2003 14:59:01 21.1 C 7.37 g/m*3 21.1 C 0 km/h
2227 27-08-2003 15:11:01 21.7 C 7.82 g/m*3 21.7 C 0 km/h
2228 27-08-2003 15:23:01 22.8 C 7.72 g/m*3 22.8 C 0 km/h
2229 27-08-2003 15:35:02 22.8 C 7.72 g/m*3 22.8 C 0 km/h
2230 27-08-2003 15:47:02 22.2 C 7.85 g/m*3 22.2 C 0 km/h
2231 27-08-2003 15:59:02 21.9 C 7.91 g/m*3 21.9 C 0 km/h
2232 27-08-2003 16:11:00 21.8 C 7.87 g/m*3 21.8 C 0 km/h
2233 27-08-2003 16:23:00 21.6 C 7.97 g/m*3 21.6 C 0 km/h
2234 27-08-2003 16:35:01 21.7 C 7.82 g/m*3 21.7 C 0 km/h
2235 27-08-2003 16:47:01 21.8 C 7.87 g/m*3 21.8 C 0 km/h
2236 27-08-2003 16:59:01 22 C 7.76 g/m*3 22 C 0 km/h
2237 27-08-2003 17:11:01 21.6 C 7.59 g/m*3 21.6 C 0 km/h
2238 27-08-2003 17:23:01 21.9 C 7.91 g/m*3 21.9 C 0 km/h
2239 27-08-2003 17:35:04 21.1 C 7.74 g/m*3 21.1 C 0 km/h
2240 27-08-2003 17:47:04 21.4 C 7.69 g/m*3 21.4 C 0 km/h
2241 27-08-2003 17:59:04 21.6 C 7.97 g/m*3 21.6 C 0 km/h
2242 27-08-2003 18:11:04 21.6 C 7.97 g/m*3 21.6 C 0 km/h
2243 27-08-2003 18:23:04 21.4 C 8.06 g/m*3 21.4 C 0 km/h
2244 27-08-2003 18:35:02 21.4 C 8.06 g/m*3 21.4 C 0 km/h
2245 27-08-2003 18:47:02 20.9 C 8.2 g/m*3 20.9 C 0 km/h
2246 27-08-2003 18:59:02 20.6 C 8.23 g/m*3 20.6 C 0 km/h
2247 27-08-2003 19:11:03 20.1 C 8.17 g/m*3 20.1 C 0 km/h
2248 27-08-2003 19:23:03 20.1 C 8.34 g/m*3 20.1 C 0 km/h
2249 27-08-2003 19:35:01 19.8 C 8.37 g/m*3 19.8 C 0 km/h
2250 27-08-2003 19:47:01 19.4 C 8.34 g/m*3 19.4 C 0 km/h
Sensor: Nr:Datum:Temp:Abs-Feuchte:Windchill:Wind:
Aussen-T/F 2251 27-08-2003 19:59:01 18.9 C 8.42 g/m*3 18.9 C 0 km/h
2252 27-08-2003 20:11:00 18.6 C 8.44 g/m*3 18.6 C 0 km/h
2253 27-08-2003 20:23:00 18.5 C 8.54 g/m*3 18.5 C 0 km/h
2254 27-08-2003 20:35:01 18.5 C 8.7 g/m*3 18.5 C 0 km/h
2255 27-08-2003 20:47:01 18.5 C 8.7 g/m*3 18.5 C 0 km/h
2256 27-08-2003 20:59:01 18.5 C 8.7 g/m*3 18.5 C 0 km/h
2257 27-08-2003 21:12:00 18.4 C 8.81 g/m*3 18.4 C 0 km/h
2258 27-08-2003 21:24:00 18.3 C 8.76 g/m*3 18.3 C 0 km/h
2259 27-08-2003 21:36:00 18 C 8.75 g/m*3 18 C 0 km/h
2260 27-08-2003 21:48:00 17.7 C 9.05 g/m*3 17.7 C 0 km/h
2261 27-08-2003 22:00:00 17.2 C 8.79 g/m*3 17.2 C 0 km/h
2262 27-08-2003 22:12:00 16.9 C 8.92 g/m*3 16.9 C 0 km/h
2263 27-08-2003 22:24:00 16.4 C 8.79 g/m*3 16.4 C 0 km/h
2264 27-08-2003 22:36:00 16.2 C 8.83 g/m*3 16.2 C 0 km/h
2265 27-08-2003 22:48:00 16 C 8.86 g/m*3 16 C 0 km/h
2266 27-08-2003 23:00:00 15.7 C 8.96 g/m*3 15.7 C 0 km/h
2267 27-08-2003 23:12:00 15.6 C 8.91 g/m*3 15.6 C 0 km/h
2268 27-08-2003 23:24:00 15.5 C 8.99 g/m*3 15.5 C 0 km/h
2269 27-08-2003 23:36:00 15.3 C 8.88 g/m*3 15.3 C 0 km/h
2270 27-08-2003 23:48:00 15.2 C 8.83 g/m*3 15.2 C 0 km/h
2271 28-08-2003 00:00:00 15 C 8.85 g/m*3 15 C 0 km/h
2272 28-08-2003 00:12:00 14.9 C 8.92 g/m*3 14.9 C 0 km/h
2273 28-08-2003 00:24:00 14.6 C 8.76 g/m*3 14.6 C 0 km/h
2274 28-08-2003 00:36:00 14.4 C 8.9 g/m*3 14.4 C 0 km/h
2275 28-08-2003 00:48:00 14.3 C 8.97 g/m*3 14.3 C 0 km/h
Sensor: Nr:Datum:Temp:Abs-Feuchte:Windchill:Wind:
Aussen-T/F 2276 28-08-2003 01:00:00 14.1 C 8.74 g/m*3 14.1 C 0 km/h
2277 28-08-2003 01:12:00 13.8 C 8.7 g/m*3 13.8 C 0 km/h
2278 28-08-2003 01:24:00 13.7 C 8.76 g/m*3 13.7 C 0 km/h
2279 28-08-2003 01:36:00 13.5 C 8.77 g/m*3 13.5 C 0 km/h
2280 28-08-2003 01:48:00 13.4 C 8.83 g/m*3 13.4 C 0 km/h
2281 28-08-2003 02:00:00 13.3 C 9.01 g/m*3 13.3 C 0 km/h
2282 28-08-2003 02:12:00 13.2 C 8.96 g/m*3 13.2 C 0 km/h
2283 28-08-2003 02:24:00 13.1 C 9.01 g/m*3 13.1 C 0 km/h
2284 28-08-2003 02:36:00 12.9 C 9.02 g/m*3 12.9 C 0 km/h
2285 28-08-2003 02:48:00 12.8 C 8.96 g/m*3 12.8 C 0 km/h
2286 28-08-2003 03:00:00 12.7 C 9.02 g/m*3 12.7 C 0 km/h
2287 28-08-2003 03:12:00 12.5 C 8.91 g/m*3 12.5 C 0 km/h
2288 28-08-2003 03:24:00 12.4 C 8.96 g/m*3 12.4 C 0 km/h
2289 28-08-2003 03:36:00 12.3 C 8.9 g/m*3 12.3 C 0 km/h
2290 28-08-2003 03:48:00 12.2 C 8.85 g/m*3 12.2 C 0 km/h
2291 28-08-2003 04:00:00 12 C 8.74 g/m*3 12 C 0 km/h
2292 28-08-2003 04:12:00 11.9 C 8.79 g/m*3 11.9 C 0 km/h
2293 28-08-2003 04:24:00 11.7 C 8.79 g/m*3 11.7 C 0 km/h
2294 28-08-2003 04:36:00 11.8 C 8.84 g/m*3 11.8 C 0 km/h
2295 28-08-2003 04:48:00 11.7 C 8.89 g/m*3 11.7 C 0 km/h
2296 28-08-2003 05:00:00 11.6 C 8.94 g/m*3 11.6 C 0 km/h
2297 28-08-2003 05:12:00 11.5 C 8.88 g/m*3 11.5 C 0 km/h
2298 28-08-2003 05:24:00 11.4 C 8.83 g/m*3 11.4 C 0 km/h
2299 28-08-2003 05:36:00 11.3 C 8.67 g/m*3 11.3 C 0 km/h
2300 28-08-2003 05:48:00 11.2 C 8.72 g/m*3 11.2 C 0 km/h
Sensor: Nr:Datum:Temp:Abs-Feuchte:Windchill:Wind:
Aussen-T/F 2301 28-08-2003 06:00:00 11.1 C 8.76 g/m*3 11.1 C 0 km/h
2302 28-08-2003 06:12:00 11 C 8.71 g/m*3 11 C 0 km/h
2303 28-08-2003 06:24:00 10.9 C 8.65 g/m*3 10.9 C 0 km/h
2304 28-08-2003 06:36:00 11.3 C 8.87 g/m*3 11.3 C 0 km/h
2305 28-08-2003 06:48:00 11.5 C 8.88 g/m*3 11.5 C 0 km/h
2306 28-08-2003 07:00:00 11.5 C 8.78 g/m*3 11.5 C 0 km/h
2307 28-08-2003 07:12:00 11.5 C 8.78 g/m*3 11.5 C 0 km/h
2308 28-08-2003 07:24:00 11.5 C 8.78 g/m*3 11.5 C 0 km/h
2309 28-08-2003 07:36:00 12 C 8.95 g/m*3 12 C 0 km/h
2310 28-08-2003 07:48:00 12.1 C 8.9 g/m*3 12.1 C 0 km/h
2311 28-08-2003 08:00:00 12.5 C 8.91 g/m*3 12.5 C 0 km/h
2312 28-08-2003 08:12:01 12.6 C 8.85 g/m*3 12.6 C 0 km/h
2313 28-08-2003 08:24:01 12.6 C 8.85 g/m*3 12.6 C 0 km/h
2314 28-08-2003 08:36:00 12.6 C 8.96 g/m*3 12.6 C 0 km/h
2315 28-08-2003 08:48:00 12.7 C 9.02 g/m*3 12.7 C 0 km/h
2316 28-08-2003 09:00:00 13 C 8.96 g/m*3 13 C 0 km/h
2317 28-08-2003 09:12:01 13.2 C 9.07 g/m*3 13.2 C 0 km/h
2318 28-08-2003 09:24:01 13.6 C 9.3 g/m*3 13.6 C 0 km/h
2319 28-08-2003 09:36:00 14.1 C 9.34 g/m*3 14.1 C 0 km/h
2320 28-08-2003 09:48:00 14.6 C 9.51 g/m*3 14.6 C 0 km/h
2321 28-08-2003 10:00:00 15.2 C 9.61 g/m*3 15.2 C 0 km/h
2322 28-08-2003 10:12:00 15.8 C 9.69 g/m*3 15.8 C 0 km/h
2323 28-08-2003 10:24:00 16.4 C 9.63 g/m*3 16.4 C 0 km/h
2324 28-08-2003 10:36:01 17.2 C 9.52 g/m*3 17.2 C 0 km/h
2325 28-08-2003 10:48:01 18 C 9.37 g/m*3 18 C 0 km/h
Sensor: Nr:Datum:Temp:Abs-Feuchte:Windchill:Wind:
Aussen-T/F 2326 28-08-2003 11:00:01 18.5 C 8.86 g/m*3 18.5 C 0 km/h
2327 28-08-2003 11:12:01 19 C 8.8 g/m*3 19 C 0 km/h
2328 28-08-2003 11:24:01 19.5 C 8.73 g/m*3 19.5 C 0 km/h
2329 28-08-2003 11:36:01 19.9 C 8.93 g/m*3 19.9 C 0 km/h
2330 28-08-2003 11:48:01 21.1 C 8.66 g/m*3 21.1 C 0 km/h
2331 28-08-2003 12:00:01 21.9 C 9.07 g/m*3 21.9 C 0 km/h
2332 28-08-2003 12:12:02 22.3 C 8.89 g/m*3 22.3 C 0 km/h
2333 28-08-2003 12:24:02 22.9 C 8.79 g/m*3 22.9 C 0 km/h
2334 28-08-2003 12:36:01 23.6 C 8.51 g/m*3 23.6 C 0 km/h
2335 28-08-2003 12:48:01 23.4 C 8.2 g/m*3 23.4 C 0 km/h
2336 28-08-2003 13:00:01 23.7 C 8.56 g/m*3 23.7 C 0 km/h
2337 28-08-2003 13:12:02 24.1 C 7.88 g/m*3 24.1 C 0 km/h
2338 28-08-2003 13:24:02 25.2 C 7.68 g/m*3 25.2 C 0 km/h
2339 28-08-2003 13:36:01 26 C 8.03 g/m*3 26 C 0 km/h
2340 28-08-2003 13:48:01 26.7 C 8.1 g/m*3 26.7 C 0 km/h
2341 28-08-2003 14:00:01 27.3 C 8.11 g/m*3 27.3 C 0 km/h
2342 28-08-2003 14:12:00 27.2 C 7.81 g/m*3 27.2 C 0 km/h
2343 28-08-2003 14:24:00 26.6 C 7.8 g/m*3 26.6 C 0 km/h
2344 28-08-2003 14:36:01 27.1 C 7.76 g/m*3 27.1 C 0 km/h
2345 28-08-2003 14:48:01 27.1 C 7.76 g/m*3 27.1 C 0 km/h
2346 28-08-2003 15:00:01 27.2 C 7.81 g/m*3 27.2 C 0 km/h
2347 28-08-2003 15:12:01 27.3 C 7.85 g/m*3 27.3 C 0 km/h
2348 28-08-2003 15:24:01 27.6 C 7.98 g/m*3 27.6 C 0 km/h
2349 28-08-2003 15:36:00 27.8 C 7.8 g/m*3 27.8 C 0 km/h
2350 28-08-2003 15:48:00 27.6 C 7.98 g/m*3 27.6 C 0 km/h
Sensor: Nr:Datum:Temp:Abs-Feuchte:Windchill:Wind:
Aussen-T/F 2351 28-08-2003 16:00:00 28.1 C 7.93 g/m*3 28.1 C 0 km/h
2352 28-08-2003 16:12:00 28.4 C 8.06 g/m*3 28.4 C 0 km/h
2353 28-08-2003 16:24:00 28.3 C 8.02 g/m*3 28.3 C 0 km/h
2354 28-08-2003 16:36:29 28.7 C 8.48 g/m*3 28.7 C 0 km/h
2355 28-08-2003 16:48:29 28.7 C 8.19 g/m*3 28.7 C 0 km/h
2356 28-08-2003 17:00:01 28.7 C 8.19 g/m*3 28.7 C 0 km/h
2357 28-08-2003 17:12:02 29.5 C 8.26 g/m*3 29.5 C 0 km/h
2358 28-08-2003 17:24:02 29.3 C 8.17 g/m*3 29.3 C 0 km/h
2359 28-08-2003 17:36:01 29.2 C 8.42 g/m*3 29.2 C 0 km/h
2360 28-08-2003 17:48:01 29 C 8.62 g/m*3 29 C 0 km/h
2361 28-08-2003 18:00:01 29.2 C 8.71 g/m*3 29.2 C 0 km/h
2362 28-08-2003 18:12:01 28.6 C 8.71 g/m*3 28.6 C 0 km/h
2363 28-08-2003 18:24:01 27.7 C 9.36 g/m*3 27.7 C 0 km/h
2364 28-08-2003 18:36:01 27.2 C 9.11 g/m*3 27.2 C 0 km/h
2365 28-08-2003 18:48:01 26.7 C 9.37 g/m*3 26.7 C 0 km/h
2366 28-08-2003 19:00:01 26.2 C 9.35 g/m*3 26.2 C 0 km/h
2367 28-08-2003 19:12:01 25.6 C 9.76 g/m*3 25.6 C 0 km/h
2368 28-08-2003 19:24:01 25.2 C 9.78 g/m*3 25.2 C 0 km/h
2369 28-08-2003 19:36:01 24.5 C 9.18 g/m*3 24.5 C 0 km/h
2370 28-08-2003 19:48:01 22.9 C 10.63 g/m*3 22.9 C 0 km/h
2371 28-08-2003 20:00:01 20.7 C 10.8 g/m*3 20.7 C 0 km/h
2372 28-08-2003 20:12:01 20.7 C 10.8 g/m*3 20.7 C 0 km/h
2373 28-08-2003 20:24:01 20.5 C 11.03 g/m*3 20.5 C 0 km/h
2374 28-08-2003 20:36:01 20.4 C 10.97 g/m*3 20.4 C 0 km/h
2375 28-08-2003 20:48:01 20.4 C 11.14 g/m*3 20.4 C 0 km/h
Sensor: Nr:Datum:Temp:Abs-Feuchte:Windchill:Wind:
Aussen-T/F 2376 28-08-2003 21:00:01 19.9 C 12.54 g/m*3 19.9 C 0 km/h
2377 28-08-2003 21:12:02 18.2 C 12.9 g/m*3 18.2 C 0 km/h
2378 28-08-2003 21:24:02 17.7 C 13.43 g/m*3 17.7 C 0 km/h
2379 28-08-2003 21:37:01 17.4 C 13.34 g/m*3 17.4 C 0 km/h
2380 28-08-2003 21:49:01 17.5 C 13.57 g/m*3 17.5 C 0 km/h
2381 28-08-2003 22:01:01 17.5 C 13.57 g/m*3 17.5 C 0 km/h
2382 28-08-2003 22:13:01 17.6 C 13.65 g/m*3 17.6 C 0 km/h
2383 28-08-2003 22:25:01 17.5 C 13.42 g/m*3 17.5 C 0 km/h
2384 28-08-2003 22:37:01 17.5 C 13.42 g/m*3 17.5 C 0 km/h
2385 28-08-2003 22:49:01 17.6 C 13.35 g/m*3 17.6 C 0 km/h
2386 28-08-2003 23:01:01 17.5 C 13.27 g/m*3 17.5 C 0 km/h
2387 28-08-2003 23:13:01 17.5 C 13.27 g/m*3 17.5 C 0 km/h
2388 28-08-2003 23:25:01 17.5 C 13.12 g/m*3 17.5 C 0 km/h
2389 28-08-2003 23:37:01 17.6 C 13.2 g/m*3 17.6 C 0 km/h
2390 28-08-2003 23:49:01 17.4 C 12.89 g/m*3 17.4 C 0 km/h
2391 29-08-2003 00:01:01 17.5 C 13.12 g/m*3 17.5 C 0 km/h
2392 29-08-2003 00:13:01 17.3 C 12.82 g/m*3 17.3 C 0 km/h
2393 29-08-2003 00:25:01 17.5 C 13.12 g/m*3 17.5 C 0 km/h
2394 29-08-2003 00:37:01 17.3 C 13.11 g/m*3 17.3 C 0 km/h
2395 29-08-2003 00:49:01 17.2 C 13.18 g/m*3 17.2 C 0 km/h
2396 29-08-2003 01:01:01 17 C 13.02 g/m*3 17 C 0 km/h
2397 29-08-2003 01:13:01 17.1 C 13.39 g/m*3 17.1 C 0 km/h
2398 29-08-2003 01:25:01 17.1 C 13.39 g/m*3 17.1 C 0 km/h
2399 29-08-2003 01:37:01 17 C 13.31 g/m*3 17 C 0 km/h
2400 29-08-2003 01:49:01 17 C 13.46 g/m*3 17 C 0 km/h
Sensor: Nr:Datum:Temp:Abs-Feuchte:Windchill:Wind:
Aussen-T/F 2401 29-08-2003 02:01:01 17 C 13.46 g/m*3 17 C 0 km/h
2402 29-08-2003 02:13:01 17 C 13.46 g/m*3 17 C 0 km/h
2403 29-08-2003 02:25:01 17 C 13.46 g/m*3 17 C 0 km/h
2404 29-08-2003 02:37:01 17 C 13.46 g/m*3 17 C 0 km/h
2405 29-08-2003 02:49:01 16.8 C 13.44 g/m*3 16.8 C 0 km/h
2406 29-08-2003 03:01:01 16.8 C 13.44 g/m*3 16.8 C 0 km/h
2407 29-08-2003 03:13:01 16.8 C 13.44 g/m*3 16.8 C 0 km/h
2408 29-08-2003 03:25:01 16.8 C 13.44 g/m*3 16.8 C 0 km/h
2409 29-08-2003 03:37:01 16.7 C 13.36 g/m*3 16.7 C 0 km/h
2410 29-08-2003 03:49:01 16.7 C 13.36 g/m*3 16.7 C 0 km/h
2411 29-08-2003 04:01:01 16.8 C 13.44 g/m*3 16.8 C 0 km/h
2412 29-08-2003 04:13:01 16.6 C 13.28 g/m*3 16.6 C 0 km/h
2413 29-08-2003 04:25:01 16.7 C 13.36 g/m*3 16.7 C 0 km/h
2414 29-08-2003 04:37:01 16.7 C 13.36 g/m*3 16.7 C 0 km/h
2415 29-08-2003 04:49:01 16.6 C 13.28 g/m*3 16.6 C 0 km/h
2416 29-08-2003 05:01:01 16.6 C 13.28 g/m*3 16.6 C 0 km/h
2417 29-08-2003 05:13:01 16.4 C 13.12 g/m*3 16.4 C 0 km/h
2418 29-08-2003 05:25:01 16.2 C 12.96 g/m*3 16.2 C 0 km/h
2419 29-08-2003 05:37:01 16.2 C 12.96 g/m*3 16.2 C 0 km/h
2420 29-08-2003 05:49:01 16.3 C 13.04 g/m*3 16.3 C 0 km/h
2421 29-08-2003 06:01:01 16.5 C 13.2 g/m*3 16.5 C 0 km/h
2422 29-08-2003 06:13:01 16.7 C 13.36 g/m*3 16.7 C 0 km/h
2423 29-08-2003 06:25:01 16.7 C 13.5 g/m*3 16.7 C 0 km/h
2424 29-08-2003 06:37:01 16.7 C 13.5 g/m*3 16.7 C 0 km/h
2425 29-08-2003 06:49:01 16.8 C 13.58 g/m*3 16.8 C 0 km/h
Sensor: Nr:Datum:Temp:Abs-Feuchte:Windchill:Wind:
Aussen-T/F 2426 29-08-2003 07:01:01 16.9 C 13.66 g/m*3 16.9 C 0 km/h
2427 29-08-2003 07:13:01 16.9 C 13.52 g/m*3 16.9 C 0 km/h
2428 29-08-2003 07:25:01 17.1 C 13.68 g/m*3 17.1 C 0 km/h
2429 29-08-2003 07:37:01 17.2 C 13.77 g/m*3 17.2 C 0 km/h
2430 29-08-2003 07:49:01 17.5 C 13.87 g/m*3 17.5 C 0 km/h
2431 29-08-2003 08:01:01 17.9 C 14.05 g/m*3 17.9 C 0 km/h
2432 29-08-2003 08:13:01 18.3 C 13.6 g/m*3 18.3 C 0 km/h
2433 29-08-2003 08:25:01 18.7 C 13.45 g/m*3 18.7 C 0 km/h
2434 29-08-2003 08:37:01 19 C 13.69 g/m*3 19 C 0 km/h
2435 29-08-2003 08:49:01 19.3 C 14.1 g/m*3 19.3 C 0 km/h
2436 29-08-2003 09:01:01 19.4 C 13.85 g/m*3 19.4 C 0 km/h
2437 29-08-2003 09:13:01 19.7 C 14.09 g/m*3 19.7 C 0 km/h
2438 29-08-2003 09:25:01 19.7 C 14.09 g/m*3 19.7 C 0 km/h
2439 29-08-2003 09:37:01 19.8 C 13.49 g/m*3 19.8 C 0 km/h
2440 29-08-2003 09:49:01 20.1 C 13.39 g/m*3 20.1 C 0 km/h
2441 29-08-2003 10:01:01 20.4 C 13.09 g/m*3 20.4 C 0 km/h
2442 29-08-2003 10:13:01 20.1 C 13.04 g/m*3 20.1 C 0 km/h
2443 29-08-2003 10:25:01 19.9 C 13.06 g/m*3 19.9 C 0 km/h
2444 29-08-2003 10:37:01 19.7 C 13.08 g/m*3 19.7 C 0 km/h
2445 29-08-2003 10:49:01 18.9 C 13.45 g/m*3 18.9 C 0 km/h
2446 29-08-2003 11:01:01 18.7 C 13.93 g/m*3 18.7 C 0 km/h
2447 29-08-2003 11:13:00 19 C 14.18 g/m*3 19 C 0 km/h
2448 29-08-2003 11:25:00 19.2 C 14.18 g/m*3 19.2 C 0 km/h
2449 29-08-2003 11:37:01 19.5 C 14.1 g/m*3 19.5 C 0 km/h
2450 29-08-2003 11:49:01 19.4 C 13.68 g/m*3 19.4 C 0 km/h
Sensor: Nr:Datum:Temp:Abs-Feuchte:Windchill:Wind:
Aussen-T/F 2451 29-08-2003 12:01:01 19 C 13.53 g/m*3 19 C 0 km/h
2452 29-08-2003 12:13:02 18.9 C 13.77 g/m*3 18.9 C 0 km/h
2453 29-08-2003 12:25:02 19 C 13.53 g/m*3 19 C 0 km/h
2454 29-08-2003 12:37:01 18.6 C 13.05 g/m*3 18.6 C 0 km/h
2455 29-08-2003 12:49:01 17.8 C 12.9 g/m*3 17.8 C 0 km/h
2456 29-08-2003 13:01:01 17.2 C 12.89 g/m*3 17.2 C 0 km/h
2457 29-08-2003 13:13:02 17.5 C 13.12 g/m*3 17.5 C 0 km/h
2458 29-08-2003 13:25:02 19.5 C 14.43 g/m*3 19.5 C 0 km/h
2459 29-08-2003 13:37:01 20.4 C 13.62 g/m*3 20.4 C 0 km/h
2460 29-08-2003 13:49:01 20.5 C 13.17 g/m*3 20.5 C 0 km/h
2461 29-08-2003 14:01:01 20.9 C 13.11 g/m*3 20.9 C 0 km/h
2462 29-08-2003 14:13:02 19.4 C 12.51 g/m*3 19.4 C 0 km/h
2463 29-08-2003 14:25:02 18.5 C 12.02 g/m*3 18.5 C 0 km/h
2464 29-08-2003 14:37:01 18.6 C 12.26 g/m*3 18.6 C 0 km/h
2465 29-08-2003 14:49:01 19.4 C 11.85 g/m*3 19.4 C 0 km/h
2466 29-08-2003 15:01:01 20.2 C 11.71 g/m*3 20.2 C 0 km/h
2467 29-08-2003 15:13:01 20.6 C 11.63 g/m*3 20.6 C 0 km/h
2468 29-08-2003 15:25:01 21.1 C 11.61 g/m*3 21.1 C 0 km/h
2469 29-08-2003 15:37:01 21.6 C 11 g/m*3 21.6 C 0 km/h
2470 29-08-2003 15:49:01 21.5 C 10.75 g/m*3 21.5 C 0 km/h
2471 29-08-2003 16:01:01 21.3 C 10.25 g/m*3 21.3 C 0 km/h
2472 29-08-2003 16:13:01 21.1 C 10.32 g/m*3 21.1 C 0 km/h
2473 29-08-2003 16:25:01 21.8 C 10.36 g/m*3 21.8 C 0 km/h
2474 29-08-2003 16:37:00 22.2 C 10.01 g/m*3 22.2 C 0 km/h
2475 29-08-2003 16:49:00 22.1 C 10.15 g/m*3 22.1 C 0 km/h
Sensor: Nr:Datum:Temp:Abs-Feuchte:Windchill:Wind:
Aussen-T/F 2476 29-08-2003 17:01:00 21.2 C 10.56 g/m*3 21.2 C 0 km/h
2477 29-08-2003 17:13:01 19 C 10.76 g/m*3 19 C 0 km/h
2478 29-08-2003 17:25:01 17.7 C 10.56 g/m*3 17.7 C 0 km/h
2479 29-08-2003 17:37:22 15.8 C 11.31 g/m*3 15.8 C 0 km/h
2480 29-08-2003 17:49:02 15.5 C 11.76 g/m*3 15.5 C 0 km/h
2481 29-08-2003 18:01:02 15 C 11.41 g/m*3 15 C 0 km/h
2482 29-08-2003 18:13:01 14.9 C 11.47 g/m*3 14.9 C 0 km/h
2483 29-08-2003 18:25:01 14.7 C 11.21 g/m*3 14.7 C 0 km/h
2484 29-08-2003 18:37:01 14.5 C 11.19 g/m*3 14.5 C 0 km/h
2485 29-08-2003 18:49:01 14.4 C 11 g/m*3 14.4 C 0 km/h
2486 29-08-2003 19:01:01 14.7 C 11.08 g/m*3 14.7 C 0 km/h
2487 29-08-2003 19:13:54 14.7 C 10.83 g/m*3 14.7 C 0 km/h
2488 29-08-2003 19:25:02 14.7 C 10.83 g/m*3 14.7 C 0 km/h
2489 29-08-2003 19:37:01 14.6 C 10.76 g/m*3 14.6 C 0 km/h
2490 29-08-2003 19:49:01 14.6 C 10.64 g/m*3 14.6 C 0 km/h
2491 29-08-2003 20:01:01 14.6 C 10.76 g/m*3 14.6 C 0 km/h
2492 29-08-2003 20:13:01 14.5 C 10.57 g/m*3 14.5 C 0 km/h
2493 29-08-2003 20:25:01 14.5 C 10.57 g/m*3 14.5 C 0 km/h
2494 29-08-2003 20:37:01 14.4 C 10.63 g/m*3 14.4 C 0 km/h
2495 29-08-2003 20:49:01 14.5 C 10.57 g/m*3 14.5 C 0 km/h
2496 29-08-2003 21:01:01 14.5 C 10.45 g/m*3 14.5 C 0 km/h
2497 29-08-2003 21:13:01 14.5 C 10.45 g/m*3 14.5 C 0 km/h
2498 29-08-2003 21:25:01 14.5 C 10.45 g/m*3 14.5 C 0 km/h
2499 29-08-2003 21:37:02 14.4 C 10.63 g/m*3 14.4 C 0 km/h
2500 29-08-2003 21:49:02 14 C 10.61 g/m*3 14 C 0 km/h
Sensor: Nr:Datum:Temp:Abs-Feuchte:Windchill:Wind:
Aussen-T/F 2501 29-08-2003 22:01:02 13.9 C 10.67 g/m*3 13.9 C 0 km/h
2502 29-08-2003 22:14:05 13.9 C 10.67 g/m*3 13.9 C 0 km/h
2503 29-08-2003 22:26:05 14 C 10.61 g/m*3 14 C 0 km/h
2504 29-08-2003 22:38:05 14 C 10.61 g/m*3 14 C 0 km/h
2505 29-08-2003 22:50:05 14.3 C 10.81 g/m*3 14.3 C 0 km/h
2506 29-08-2003 23:02:05 13.9 C 10.67 g/m*3 13.9 C 0 km/h
2507 29-08-2003 23:14:05 14.1 C 10.68 g/m*3 14.1 C 0 km/h
2508 29-08-2003 23:26:05 14.2 C 10.38 g/m*3 14.2 C 0 km/h
2509 29-08-2003 23:38:05 14.2 C 10.26 g/m*3 14.2 C 0 km/h
2510 29-08-2003 23:50:05 14.2 C 10.26 g/m*3 14.2 C 0 km/h
2511 30-08-2003 00:02:05 14.2 C 10.26 g/m*3 14.2 C 0 km/h
2512 30-08-2003 00:14:05 14.2 C 10.26 g/m*3 14.2 C 0 km/h
2513 30-08-2003 00:26:05 14.2 C 10.14 g/m*3 14.2 C 0 km/h
2514 30-08-2003 00:38:05 14.2 C 10.01 g/m*3 14.2 C 0 km/h
2515 30-08-2003 00:50:05 14.2 C 10.01 g/m*3 14.2 C 0 km/h
2516 30-08-2003 01:02:05 14.3 C 10.32 g/m*3 14.3 C 0 km/h
2517 30-08-2003 01:14:05 14.3 C 10.2 g/m*3 14.3 C 0 km/h
2518 30-08-2003 01:26:05 14.3 C 10.2 g/m*3 14.3 C 0 km/h
2519 30-08-2003 01:38:05 13.8 C 10.01 g/m*3 13.8 C 0 km/h
2520 30-08-2003 01:50:05 13.5 C 9.94 g/m*3 13.5 C 0 km/h
2521 30-08-2003 02:02:05 13.5 C 10.06 g/m*3 13.5 C 0 km/h
2522 30-08-2003 02:14:05 13.4 C 10 g/m*3 13.4 C 0 km/h
2523 30-08-2003 02:26:05 13.5 C 10.06 g/m*3 13.5 C 0 km/h
2524 30-08-2003 02:38:05 13.7 C 10.18 g/m*3 13.7 C 0 km/h
2525 30-08-2003 02:50:05 13.7 C 10.18 g/m*3 13.7 C 0 km/h
Sensor: Nr:Datum:Temp:Abs-Feuchte:Windchill:Wind:
Aussen-T/F 2526 30-08-2003 03:02:05 13.6 C 10.12 g/m*3 13.6 C 0 km/h
2527 30-08-2003 03:14:05 13.6 C 10.12 g/m*3 13.6 C 0 km/h
2528 30-08-2003 03:26:05 13.6 C 10 g/m*3 13.6 C 0 km/h
2529 30-08-2003 03:38:05 13.6 C 9.89 g/m*3 13.6 C 0 km/h
2530 30-08-2003 03:50:05 13.7 C 9.83 g/m*3 13.7 C 0 km/h
2531 30-08-2003 04:02:05 13.6 C 9.89 g/m*3 13.6 C 0 km/h
2532 30-08-2003 04:14:05 13.6 C 9.89 g/m*3 13.6 C 0 km/h
2533 30-08-2003 04:26:05 13.6 C 9.89 g/m*3 13.6 C 0 km/h
2534 30-08-2003 04:38:05 13.7 C 9.95 g/m*3 13.7 C 0 km/h
2535 30-08-2003 04:50:05 13.7 C 9.95 g/m*3 13.7 C 0 km/h
2536 30-08-2003 05:02:05 13.7 C 9.83 g/m*3 13.7 C 0 km/h
2537 30-08-2003 05:14:05 13.7 C 9.95 g/m*3 13.7 C 0 km/h
2538 30-08-2003 05:26:05 13.6 C 10 g/m*3 13.6 C 0 km/h
2539 30-08-2003 05:38:05 13.6 C 10.12 g/m*3 13.6 C 0 km/h
2540 30-08-2003 05:50:05 13.6 C 10.12 g/m*3 13.6 C 0 km/h
2541 30-08-2003 06:02:05 13.5 C 10.18 g/m*3 13.5 C 0 km/h
2542 30-08-2003 06:14:05 13.4 C 10.11 g/m*3 13.4 C 0 km/h
2543 30-08-2003 06:26:05 13.4 C 10.23 g/m*3 13.4 C 0 km/h
2544 30-08-2003 06:38:05 13.2 C 10.1 g/m*3 13.2 C 0 km/h
2545 30-08-2003 06:50:05 13.2 C 10.22 g/m*3 13.2 C 0 km/h
2546 30-08-2003 07:02:05 13.2 C 10.33 g/m*3 13.2 C 0 km/h
2547 30-08-2003 07:14:05 13.2 C 10.33 g/m*3 13.2 C 0 km/h
2548 30-08-2003 07:26:05 13.2 C 10.45 g/m*3 13.2 C 0 km/h
2549 30-08-2003 07:38:05 13.3 C 10.51 g/m*3 13.3 C 0 km/h
2550 30-08-2003 07:50:05 13.2 C 10.45 g/m*3 13.2 C 0 km/h
Sensor: Nr:Datum:Temp:Abs-Feuchte:Windchill:Wind:
Aussen-T/F 2551 30-08-2003 08:02:05 13.3 C 10.63 g/m*3 13.3 C 0 km/h
2552 30-08-2003 08:14:05 13.3 C 10.63 g/m*3 13.3 C 0 km/h
2553 30-08-2003 08:26:05 13.4 C 10.69 g/m*3 13.4 C 0 km/h
2554 30-08-2003 08:38:05 13.4 C 10.69 g/m*3 13.4 C 0 km/h
2555 30-08-2003 08:50:05 13.6 C 10.95 g/m*3 13.6 C 0 km/h
2556 30-08-2003 09:02:05 13.6 C 10.95 g/m*3 13.6 C 0 km/h
2557 30-08-2003 09:14:05 13.7 C 11.01 g/m*3 13.7 C 0 km/h
2558 30-08-2003 09:26:05 13.6 C 10.95 g/m*3 13.6 C 0 km/h
2559 30-08-2003 09:38:01 13.6 C 10.95 g/m*3 13.6 C 0 km/h
2560 30-08-2003 09:50:01 13.6 C 10.95 g/m*3 13.6 C 0 km/h
2561 30-08-2003 10:02:02 13.6 C 10.95 g/m*3 13.6 C 0 km/h
2562 30-08-2003 10:14:02 13.7 C 11.01 g/m*3 13.7 C 0 km/h
2563 30-08-2003 10:26:02 13.9 C 11.15 g/m*3 13.9 C 0 km/h
2564 30-08-2003 10:38:00 14.3 C 11.43 g/m*3 14.3 C 0 km/h
2565 30-08-2003 10:50:00 14.2 C 11.23 g/m*3 14.2 C 0 km/h
2566 30-08-2003 11:02:00 14.4 C 11 g/m*3 14.4 C 0 km/h
2567 30-08-2003 11:14:00 14.6 C 10.89 g/m*3 14.6 C 0 km/h
2568 30-08-2003 11:26:00 15 C 10.64 g/m*3 15 C 0 km/h
2569 30-08-2003 11:38:01 15.3 C 10.45 g/m*3 15.3 C 0 km/h
2570 30-08-2003 11:50:01 15.1 C 10.19 g/m*3 15.1 C 0 km/h
2571 30-08-2003 12:02:01 15 C 10 g/m*3 15 C 0 km/h
2572 30-08-2003 12:14:01 14.5 C 10.2 g/m*3 14.5 C 0 km/h
2573 30-08-2003 12:26:01 13.8 C 9.53 g/m*3 13.8 C 0 km/h
2574 30-08-2003 12:38:00 13.7 C 9.71 g/m*3 13.7 C 0 km/h
2575 30-08-2003 12:50:00 14.1 C 10.19 g/m*3 14.1 C 0 km/h
Sensor: Nr:Datum:Temp:Abs-Feuchte:Windchill:Wind:
Aussen-T/F 2576 30-08-2003 13:02:01 14.4 C 9.89 g/m*3 14.4 C 0 km/h
2577 30-08-2003 13:14:01 15.2 C 10.51 g/m*3 15.2 C 0 km/h
2578 30-08-2003 13:26:01 16.9 C 10.5 g/m*3 16.9 C 0 km/h
2579 30-08-2003 13:38:01 17.9 C 10.69 g/m*3 17.9 C 0 km/h
2580 30-08-2003 13:50:01 19 C 10.43 g/m*3 19 C 0 km/h
2581 30-08-2003 14:02:01 18.9 C 10.37 g/m*3 18.9 C 0 km/h
2582 30-08-2003 14:14:01 19.6 C 10.47 g/m*3 19.6 C 0 km/h
2583 30-08-2003 14:26:01 19.5 C 9.73 g/m*3 19.5 C 0 km/h
2584 30-08-2003 14:38:01 19.9 C 9.79 g/m*3 19.9 C 0 km/h
2585 30-08-2003 14:50:01 19 C 8.96 g/m*3 19 C 0 km/h
2586 30-08-2003 15:02:08 18.6 C 9.71 g/m*3 18.6 C 0 km/h
2587 30-08-2003 15:14:08 18.1 C 10.04 g/m*3 18.1 C 0 km/h
2588 30-08-2003 15:26:08 18.5 C 10.13 g/m*3 18.5 C 0 km/h
2589 30-08-2003 15:38:01 18.7 C 10.25 g/m*3 18.7 C 0 km/h
2590 30-08-2003 15:50:01 20.4 C 10.08 g/m*3 20.4 C 0 km/h
2591 30-08-2003 16:02:00 21.5 C 9.99 g/m*3 21.5 C 0 km/h
2592 30-08-2003 16:14:00 22.5 C 8.59 g/m*3 22.5 C 0 km/h
2593 30-08-2003 16:26:00 21.9 C 8.68 g/m*3 21.9 C 0 km/h
2594 30-08-2003 16:38:02 21.2 C 8.9 g/m*3 21.2 C 0 km/h
2595 30-08-2003 16:50:02 20.4 C 9.38 g/m*3 20.4 C 0 km/h
2596 30-08-2003 17:02:58 19.5 C 9.4 g/m*3 19.5 C 0 km/h
2597 30-08-2003 17:14:58 18.9 C 9.4 g/m*3 18.9 C 0 km/h
2598 30-08-2003 17:26:02 17 C 10.42 g/m*3 17 C 0 km/h
2599 30-08-2003 17:38:44 15.7 C 11.24 g/m*3 15.7 C 0 km/h
2600 30-08-2003 17:50:44 15.2 C 11.29 g/m*3 15.2 C 0 km/h
Sensor: Nr:Datum:Temp:Abs-Feuchte:Windchill:Wind:
Aussen-T/F 2601 30-08-2003 18:02:37 15.1 C 11.48 g/m*3 15.1 C 0 km/h
2602 30-08-2003 18:14:01 15.4 C 11.69 g/m*3 15.4 C 0 km/h
2603 30-08-2003 18:26:01 15.6 C 11.84 g/m*3 15.6 C 0 km/h
2604 30-08-2003 18:38:01 15.6 C 11.44 g/m*3 15.6 C 0 km/h
2605 30-08-2003 18:50:01 15.3 C 11.23 g/m*3 15.3 C 0 km/h
2606 30-08-2003 19:02:01 15.3 C 11.23 g/m*3 15.3 C 0 km/h
2607 30-08-2003 19:14:01 15.3 C 10.84 g/m*3 15.3 C 0 km/h
2608 30-08-2003 19:26:01 14.9 C 10.71 g/m*3 14.9 C 0 km/h
2609 30-08-2003 19:38:01 14.5 C 10.7 g/m*3 14.5 C 0 km/h
2610 30-08-2003 19:50:01 14.5 C 10.94 g/m*3 14.5 C 0 km/h
2611 30-08-2003 20:02:00 14.5 C 10.94 g/m*3 14.5 C 0 km/h
2612 30-08-2003 20:14:00 14.5 C 10.94 g/m*3 14.5 C 0 km/h
2613 30-08-2003 20:26:00 14.5 C 10.82 g/m*3 14.5 C 0 km/h
2614 30-08-2003 20:38:00 14.3 C 10.57 g/m*3 14.3 C 0 km/h
2615 30-08-2003 20:50:00 14.1 C 10.56 g/m*3 14.1 C 0 km/h
2616 30-08-2003 21:02:01 13.9 C 10.55 g/m*3 13.9 C 0 km/h
2617 30-08-2003 21:14:01 13.9 C 10.67 g/m*3 13.9 C 0 km/h
2618 30-08-2003 21:26:01 14 C 10.61 g/m*3 14 C 0 km/h
2619 30-08-2003 21:39:03 13.8 C 10.6 g/m*3 13.8 C 0 km/h
2620 30-08-2003 21:51:03 13.7 C 10.42 g/m*3 13.7 C 0 km/h
2621 30-08-2003 22:03:03 13.6 C 10.36 g/m*3 13.6 C 0 km/h
2622 30-08-2003 22:15:03 13.4 C 10.23 g/m*3 13.4 C 0 km/h
2623 30-08-2003 22:27:03 13.5 C 10.41 g/m*3 13.5 C 0 km/h
2624 30-08-2003 22:39:03 13.5 C 10.29 g/m*3 13.5 C 0 km/h
2625 30-08-2003 22:51:03 13.5 C 10.18 g/m*3 13.5 C 0 km/h
Sensor: Nr:Datum:Temp:Abs-Feuchte:Windchill:Wind:
Aussen-T/F 2626 30-08-2003 23:03:03 13.4 C 10.11 g/m*3 13.4 C 0 km/h
2627 30-08-2003 23:15:03 13.1 C 9.93 g/m*3 13.1 C 0 km/h
2628 30-08-2003 23:27:03 13.2 C 9.76 g/m*3 13.2 C 0 km/h
2629 30-08-2003 23:39:03 13.2 C 9.76 g/m*3 13.2 C 0 km/h
2630 30-08-2003 23:51:03 13 C 9.75 g/m*3 13 C 0 km/h
2631 31-08-2003 00:03:03 13 C 9.53 g/m*3 13 C 0 km/h
2632 31-08-2003 00:15:03 12.7 C 9.68 g/m*3 12.7 C 0 km/h
2633 31-08-2003 00:27:03 12.6 C 9.62 g/m*3 12.6 C 0 km/h
2634 31-08-2003 00:39:03 12.5 C 9.57 g/m*3 12.5 C 0 km/h
2635 31-08-2003 00:51:03 12.4 C 9.62 g/m*3 12.4 C 0 km/h
2636 31-08-2003 01:03:03 12.2 C 9.5 g/m*3 12.2 C 0 km/h
2637 31-08-2003 01:15:03 12.1 C 9.54 g/m*3 12.1 C 0 km/h
2638 31-08-2003 01:27:03 11.9 C 9.43 g/m*3 11.9 C 0 km/h
2639 31-08-2003 01:39:03 11.7 C 9.41 g/m*3 11.7 C 0 km/h
2640 31-08-2003 01:51:03 11.5 C 9.3 g/m*3 11.5 C 0 km/h
2641 31-08-2003 02:03:03 11.4 C 9.24 g/m*3 11.4 C 0 km/h
2642 31-08-2003 02:15:03 11.2 C 9.12 g/m*3 11.2 C 0 km/h
2643 31-08-2003 02:27:03 11.1 C 9.17 g/m*3 11.1 C 0 km/h
2644 31-08-2003 02:39:03 11 C 9.11 g/m*3 11 C 0 km/h
2645 31-08-2003 02:51:03 10.9 C 9.15 g/m*3 10.9 C 0 km/h
2646 31-08-2003 03:03:03 10.8 C 8.99 g/m*3 10.8 C 0 km/h
2647 31-08-2003 03:15:03 10.8 C 9.09 g/m*3 10.8 C 0 km/h
2648 31-08-2003 03:27:03 10.9 C 9.15 g/m*3 10.9 C 0 km/h
2649 31-08-2003 03:39:03 10.9 C 9.15 g/m*3 10.9 C 0 km/h
2650 31-08-2003 03:51:03 11 C 9.21 g/m*3 11 C 0 km/h
Sensor: Nr:Datum:Temp:Abs-Feuchte:Windchill:Wind:
Aussen-T/F 2651 31-08-2003 04:03:03 10.9 C 9.15 g/m*3 10.9 C 0 km/h
2652 31-08-2003 04:15:03 10.8 C 9.09 g/m*3 10.8 C 0 km/h
2653 31-08-2003 04:27:03 11 C 9.01 g/m*3 11 C 0 km/h
2654 31-08-2003 04:39:03 10.8 C 8.9 g/m*3 10.8 C 0 km/h
2655 31-08-2003 04:51:03 10.6 C 8.78 g/m*3 10.6 C 0 km/h
2656 31-08-2003 05:03:03 10.6 C 8.88 g/m*3 10.6 C 0 km/h
2657 31-08-2003 05:15:03 10.8 C 8.99 g/m*3 10.8 C 0 km/h
2658 31-08-2003 05:27:03 10.7 C 8.84 g/m*3 10.7 C 0 km/h
2659 31-08-2003 05:39:03 10.8 C 8.9 g/m*3 10.8 C 0 km/h
2660 31-08-2003 05:51:03 11 C 8.91 g/m*3 11 C 0 km/h
2661 31-08-2003 06:03:03 11 C 8.91 g/m*3 11 C 0 km/h
2662 31-08-2003 06:15:03 10.8 C 8.8 g/m*3 10.8 C 0 km/h
2663 31-08-2003 06:27:03 10.4 C 8.58 g/m*3 10.4 C 0 km/h
2664 31-08-2003 06:39:03 10.4 C 8.58 g/m*3 10.4 C 0 km/h
2665 31-08-2003 06:51:03 10.5 C 8.73 g/m*3 10.5 C 0 km/h
2666 31-08-2003 07:03:03 10.6 C 8.69 g/m*3 10.6 C 0 km/h
2667 31-08-2003 07:15:03 10.7 C 8.64 g/m*3 10.7 C 0 km/h
2668 31-08-2003 07:27:03 10.8 C 8.7 g/m*3 10.8 C 0 km/h
2669 31-08-2003 07:39:03 11.1 C 8.66 g/m*3 11.1 C 0 km/h
2670 31-08-2003 07:51:03 11.3 C 8.57 g/m*3 11.3 C 0 km/h
2671 31-08-2003 08:03:03 11.3 C 8.57 g/m*3 11.3 C 0 km/h
2672 31-08-2003 08:15:03 11.4 C 8.62 g/m*3 11.4 C 0 km/h
2673 31-08-2003 08:27:03 11.7 C 8.68 g/m*3 11.7 C 0 km/h
2674 31-08-2003 08:39:03 12 C 8.53 g/m*3 12 C 0 km/h
2675 31-08-2003 08:51:03 12 C 8.63 g/m*3 12 C 0 km/h
Sensor: Nr:Datum:Temp:Abs-Feuchte:Windchill:Wind:
Aussen-T/F 2676 31-08-2003 09:03:03 12 C 8.63 g/m*3 12 C 0 km/h
2677 31-08-2003 09:15:03 12.1 C 8.69 g/m*3 12.1 C 0 km/h
2678 31-08-2003 09:27:03 12.2 C 8.52 g/m*3 12.2 C 0 km/h
2679 31-08-2003 09:39:03 12.6 C 8.63 g/m*3 12.6 C 0 km/h
2680 31-08-2003 09:51:03 13.1 C 8.67 g/m*3 13.1 C 0 km/h
2681 31-08-2003 10:03:03 13.8 C 8.7 g/m*3 13.8 C 0 km/h
2682 31-08-2003 10:15:03 14.2 C 8.79 g/m*3 14.2 C 0 km/h
2683 31-08-2003 10:27:03 14.6 C 8.63 g/m*3 14.6 C 0 km/h
2684 31-08-2003 10:39:03 14.9 C 8.54 g/m*3 14.9 C 0 km/h
2685 31-08-2003 10:51:03 15.4 C 8.41 g/m*3 15.4 C 0 km/h
2686 31-08-2003 11:03:03 15.2 C 8.31 g/m*3 15.2 C 0 km/h
2687 31-08-2003 11:15:03 15.1 C 8.26 g/m*3 15.1 C 0 km/h
2688 31-08-2003 11:27:03 15.7 C 8.03 g/m*3 15.7 C 0 km/h
2689 31-08-2003 11:39:00 15.4 C 8.15 g/m*3 15.4 C 0 km/h
2690 31-08-2003 11:51:00 15.1 C 8.13 g/m*3 15.1 C 0 km/h
2691 31-08-2003 12:03:01 15.5 C 8.33 g/m*3 15.5 C 0 km/h
2692 31-08-2003 12:15:01 15.9 C 8.26 g/m*3 15.9 C 0 km/h
2693 31-08-2003 12:27:01 15.7 C 8.16 g/m*3 15.7 C 0 km/h
2694 31-08-2003 12:39:01 16.2 C 8 g/m*3 16.2 C 0 km/h
2695 31-08-2003 12:51:01 16.4 C 7.96 g/m*3 16.4 C 0 km/h
2696 31-08-2003 13:03:01 16.4 C 7.96 g/m*3 16.4 C 0 km/h
2697 31-08-2003 13:15:01 17 C 7.96 g/m*3 17 C 0 km/h
2698 31-08-2003 13:27:01 18 C 7.68 g/m*3 18 C 0 km/h
2699 31-08-2003 13:39:02 14.5 C 8.08 g/m*3 14.5 C 0 km/h
2700 31-08-2003 13:51:02 13.6 C 9.77 g/m*3 13.6 C 0 km/h
Sensor: Nr:Datum:Temp:Abs-Feuchte:Windchill:Wind:
Aussen-T/F 2701 31-08-2003 14:03:02 13.7 C 10.3 g/m*3 13.7 C 0 km/h
2702 31-08-2003 14:15:02 15.4 C 10.25 g/m*3 15.4 C 0 km/h
2703 31-08-2003 14:27:02 16.9 C 9.92 g/m*3 16.9 C 0 km/h
2704 31-08-2003 14:39:01 18.3 C 10.63 g/m*3 18.3 C 0 km/h
2705 31-08-2003 14:51:01 19.7 C 10.36 g/m*3 19.7 C 0 km/h
2706 31-08-2003 15:03:02 18.8 C 9.5 g/m*3 18.8 C 0 km/h
2707 31-08-2003 15:15:02 15.7 C 8.7 g/m*3 15.7 C 0 km/h
2708 31-08-2003 15:27:02 15.1 C 9.42 g/m*3 15.1 C 0 km/h
2709 31-08-2003 15:39:00 15.9 C 8.94 g/m*3 15.9 C 0 km/h
2710 31-08-2003 15:51:00 17.2 C 8.93 g/m*3 17.2 C 0 km/h
2711 31-08-2003 16:03:01 18.7 C 9.13 g/m*3 18.7 C 0 km/h
2712 31-08-2003 16:15:01 18.7 C 9.45 g/m*3 18.7 C 0 km/h
2713 31-08-2003 16:27:01 17.9 C 9.16 g/m*3 17.9 C 0 km/h
2714 31-08-2003 16:39:02 18 C 7.37 g/m*3 18 C 0 km/h
2715 31-08-2003 16:51:02 19.1 C 7.05 g/m*3 19.1 C 0 km/h
2716 31-08-2003 17:03:02 19.9 C 6.53 g/m*3 19.9 C 0 km/h
2717 31-08-2003 17:15:02 20.3 C 6.51 g/m*3 20.3 C 0 km/h
2718 31-08-2003 17:27:02 21.6 C 6.64 g/m*3 21.6 C 0 km/h
2719 31-08-2003 17:39:02 20 C 6.57 g/m*3 20 C 0 km/h
2720 31-08-2003 17:51:02 19.3 C 6.97 g/m*3 19.3 C 0 km/h
2721 31-08-2003 18:03:01 18.3 C 7.19 g/m*3 18.3 C 0 km/h
2722 31-08-2003 18:15:01 18.2 C 7.46 g/m*3 18.2 C 0 km/h
2723 31-08-2003 18:27:01 17.8 C 7.59 g/m*3 17.8 C 0 km/h
2724 31-08-2003 18:39:02 18.2 C 7.62 g/m*3 18.2 C 0 km/h
2725 31-08-2003 18:51:02 18.3 C 7.04 g/m*3 18.3 C 0 km/h
Sensor: Nr:Datum:Temp:Abs-Feuchte:Windchill:Wind:
Aussen-T/F 2726 31-08-2003 19:03:01 17.5 C 7.01 g/m*3 17.5 C 0 km/h
2727 31-08-2003 19:15:01 17.3 C 7.22 g/m*3 17.3 C 0 km/h
2728 31-08-2003 19:27:01 17.6 C 7.35 g/m*3 17.6 C 0 km/h
2729 31-08-2003 19:39:02 17 C 7.38 g/m*3 17 C 0 km/h
2730 31-08-2003 19:51:02 16.6 C 7.2 g/m*3 16.6 C 0 km/h
2731 31-08-2003 20:03:02 16.4 C 7.68 g/m*3 16.4 C 0 km/h
2732 31-08-2003 20:15:02 16 C 7.36 g/m*3 16 C 0 km/h
2733 31-08-2003 20:27:02 15.4 C 7.23 g/m*3 15.4 C 0 km/h
2734 31-08-2003 20:39:01 14.9 C 7.77 g/m*3 14.9 C 0 km/h
2735 31-08-2003 20:51:01 14.6 C 7.76 g/m*3 14.6 C 0 km/h
2736 31-08-2003 21:04:00 14.6 C 7.88 g/m*3 14.6 C 0 km/h
2737 31-08-2003 21:16:00 14.4 C 8.03 g/m*3 14.4 C 0 km/h
2738 31-08-2003 21:28:00 14.3 C 7.99 g/m*3 14.3 C 0 km/h
2739 31-08-2003 21:40:00 14.2 C 8.18 g/m*3 14.2 C 0 km/h
2740 31-08-2003 21:52:00 14.1 C 8.01 g/m*3 14.1 C 0 km/h
2741 31-08-2003 22:04:00 14.1 C 8.25 g/m*3 14.1 C 0 km/h
2742 31-08-2003 22:16:00 14.2 C 8.06 g/m*3 14.2 C 0 km/h
2743 31-08-2003 22:28:00 14.2 C 7.57 g/m*3 14.2 C 0 km/h
2744 31-08-2003 22:40:00 14.1 C 7.89 g/m*3 14.1 C 0 km/h
2745 31-08-2003 22:52:00 13.8 C 7.74 g/m*3 13.8 C 0 km/h
2746 31-08-2003 23:04:00 13.7 C 7.7 g/m*3 13.7 C 0 km/h
2747 31-08-2003 23:16:00 13.5 C 7.95 g/m*3 13.5 C 0 km/h
2748 31-08-2003 23:28:00 13.1 C 7.99 g/m*3 13.1 C 0 km/h
2749 31-08-2003 23:40:00 12.6 C 7.85 g/m*3 12.6 C 0 km/h
2750 31-08-2003 23:52:00 12.2 C 7.77 g/m*3 12.2 C 0 km/h
Sensor: Nr:Datum:Temp:Abs-Feuchte:Windchill:Wind:
Aussen-T/F 2751 01-09-2003 00:04:00 12 C 7.78 g/m*3 12 C 0 km/h
2752 01-09-2003 00:16:00 11.8 C 8.1 g/m*3 11.8 C 0 km/h
2753 01-09-2003 00:28:00 11.8 C 8.31 g/m*3 11.8 C 0 km/h
2754 01-09-2003 00:40:00 11.5 C 8.26 g/m*3 11.5 C 0 km/h
2755 01-09-2003 00:52:00 11.3 C 8.36 g/m*3 11.3 C 0 km/h
2756 01-09-2003 01:04:00 11.1 C 8.36 g/m*3 11.1 C 0 km/h
2757 01-09-2003 01:16:00 10.9 C 8.36 g/m*3 10.9 C 0 km/h
2758 01-09-2003 01:28:00 10.8 C 8.3 g/m*3 10.8 C 0 km/h
2759 01-09-2003 01:40:00 10.7 C 8.25 g/m*3 10.7 C 0 km/h
2760 01-09-2003 01:52:00 10.5 C 8.15 g/m*3 10.5 C 0 km/h
2761 01-09-2003 02:04:00 10.5 C 8.15 g/m*3 10.5 C 0 km/h
2762 01-09-2003 02:16:00 10.4 C 8.19 g/m*3 10.4 C 0 km/h
2763 01-09-2003 02:28:00 10.4 C 8.29 g/m*3 10.4 C 0 km/h
2764 01-09-2003 02:40:00 10.4 C 8.19 g/m*3 10.4 C 0 km/h
2765 01-09-2003 02:52:00 10.5 C 8.24 g/m*3 10.5 C 0 km/h
2766 01-09-2003 03:04:00 10.3 C 8.24 g/m*3 10.3 C 0 km/h
2767 01-09-2003 03:16:00 10.2 C 8.28 g/m*3 10.2 C 0 km/h
2768 01-09-2003 03:28:00 10.2 C 8.28 g/m*3 10.2 C 0 km/h
2769 01-09-2003 03:40:00 10.2 C 8.28 g/m*3 10.2 C 0 km/h
2770 01-09-2003 03:52:00 10.3 C 8.33 g/m*3 10.3 C 0 km/h
2771 01-09-2003 04:04:00 10.3 C 8.24 g/m*3 10.3 C 0 km/h
2772 01-09-2003 04:16:00 10.4 C 8.29 g/m*3 10.4 C 0 km/h
2773 01-09-2003 04:28:00 10.4 C 8.29 g/m*3 10.4 C 0 km/h
2774 01-09-2003 04:40:00 10.4 C 8.29 g/m*3 10.4 C 0 km/h
2775 01-09-2003 04:52:00 10.4 C 8.29 g/m*3 10.4 C 0 km/h
Sensor: Nr:Datum:Temp:Abs-Feuchte:Windchill:Wind:
Aussen-T/F 2776 01-09-2003 05:04:00 10.4 C 8.29 g/m*3 10.4 C 0 km/h
2777 01-09-2003 05:16:00 10.3 C 8.24 g/m*3 10.3 C 0 km/h
2778 01-09-2003 05:28:00 10.2 C 8.18 g/m*3 10.2 C 0 km/h
2779 01-09-2003 05:40:00 10.2 C 8.18 g/m*3 10.2 C 0 km/h
2780 01-09-2003 05:52:00 10.2 C 8.18 g/m*3 10.2 C 0 km/h
2781 01-09-2003 06:04:00 10.2 C 8.18 g/m*3 10.2 C 0 km/h
2782 01-09-2003 06:16:00 10.1 C 8.23 g/m*3 10.1 C 0 km/h
2783 01-09-2003 06:28:00 10 C 8.08 g/m*3 10 C 0 km/h
2784 01-09-2003 06:40:00 9.7 C 8.2 g/m*3 9.7 C 0 km/h
2785 01-09-2003 06:52:00 9.5 C 8.1 g/m*3 9.5 C 0 km/h
2786 01-09-2003 07:04:00 9.3 C 8 g/m*3 9.3 C 0 km/h
2787 01-09-2003 07:16:00 9.3 C 8 g/m*3 9.3 C 0 km/h
2788 01-09-2003 07:28:00 9.3 C 8.09 g/m*3 9.3 C 0 km/h
2789 01-09-2003 07:40:00 9.5 C 8.19 g/m*3 9.5 C 0 km/h
2790 01-09-2003 07:52:00 9.6 C 8.24 g/m*3 9.6 C 0 km/h
2791 01-09-2003 08:04:00 9.7 C 8.3 g/m*3 9.7 C 0 km/h
2792 01-09-2003 08:16:00 9.6 C 8.24 g/m*3 9.6 C 0 km/h
2793 01-09-2003 08:28:00 9.7 C 8.3 g/m*3 9.7 C 0 km/h
2794 01-09-2003 08:40:00 10 C 8.27 g/m*3 10 C 0 km/h
2795 01-09-2003 08:52:00 10.4 C 8.38 g/m*3 10.4 C 0 km/h
2796 01-09-2003 09:04:00 10.9 C 8.36 g/m*3 10.9 C 0 km/h
2797 01-09-2003 09:16:00 11.3 C 8.47 g/m*3 11.3 C 0 km/h
2798 01-09-2003 09:28:00 11.5 C 8.37 g/m*3 11.5 C 0 km/h
2799 01-09-2003 09:40:00 11.8 C 8.42 g/m*3 11.8 C 0 km/h
2800 01-09-2003 09:52:00 12 C 8.42 g/m*3 12 C 0 km/h
Sensor: Nr:Datum:Temp:Abs-Feuchte:Windchill:Wind:
Aussen-T/F 2801 01-09-2003 10:04:01 12.4 C 8.41 g/m*3 12.4 C 0 km/h
2802 01-09-2003 10:16:01 12.9 C 8.57 g/m*3 12.9 C 0 km/h
2803 01-09-2003 10:28:01 13.1 C 8.1 g/m*3 13.1 C 0 km/h
2804 01-09-2003 10:40:01 13.3 C 7.97 g/m*3 13.3 C 0 km/h
2805 01-09-2003 10:52:01 13.5 C 7.95 g/m*3 13.5 C 0 km/h
2806 01-09-2003 11:04:02 13.9 C 7.91 g/m*3 13.9 C 0 km/h
2807 01-09-2003 11:16:02 14.1 C 7.89 g/m*3 14.1 C 0 km/h
2808 01-09-2003 11:28:02 13.9 C 7.91 g/m*3 13.9 C 0 km/h
2809 01-09-2003 11:40:01 14.3 C 7.86 g/m*3 14.3 C 0 km/h
2810 01-09-2003 11:52:01 15.3 C 7.44 g/m*3 15.3 C 0 km/h
2811 01-09-2003 12:04:02 15.8 C 7.54 g/m*3 15.8 C 0 km/h
2812 01-09-2003 12:16:02 17 C 7.38 g/m*3 17 C 0 km/h
2813 01-09-2003 12:28:02 16.5 C 7.3 g/m*3 16.5 C 0 km/h
2814 01-09-2003 12:40:01 16.1 C 7.4 g/m*3 16.1 C 0 km/h
2815 01-09-2003 12:52:01 15.8 C 7.4 g/m*3 15.8 C 0 km/h
2816 01-09-2003 13:04:01 15.8 C 7.4 g/m*3 15.8 C 0 km/h
2817 01-09-2003 13:16:01 15.8 C 7 g/m*3 15.8 C 0 km/h
2818 01-09-2003 13:28:01 16.4 C 6.7 g/m*3 16.4 C 0 km/h
2819 01-09-2003 13:40:01 16.8 C 6.29 g/m*3 16.8 C 0 km/h
2820 01-09-2003 13:52:01 17.7 C 6.34 g/m*3 17.7 C 0 km/h
2821 01-09-2003 14:04:01 17.8 C 6.37 g/m*3 17.8 C 0 km/h
2822 01-09-2003 14:16:01 18.3 C 6.57 g/m*3 18.3 C 0 km/h
2823 01-09-2003 14:28:01 18.1 C 6.33 g/m*3 18.1 C 0 km/h
2824 01-09-2003 14:40:01 18 C 6.6 g/m*3 18 C 0 km/h
2825 01-09-2003 14:52:01 17.8 C 6.98 g/m*3 17.8 C 0 km/h
Sensor: Nr:Datum:Temp:Abs-Feuchte:Windchill:Wind:
Aussen-T/F 2826 01-09-2003 15:04:01 17.5 C 6.71 g/m*3 17.5 C 0 km/h
2827 01-09-2003 15:16:01 19.1 C 6.56 g/m*3 19.1 C 0 km/h
2828 01-09-2003 15:28:01 19.1 C 6.56 g/m*3 19.1 C 0 km/h
2829 01-09-2003 15:40:02 18.8 C 6.93 g/m*3 18.8 C 0 km/h
2830 01-09-2003 15:52:02 18.5 C 6.65 g/m*3 18.5 C 0 km/h
2831 01-09-2003 16:04:01 18.4 C 6.76 g/m*3 18.4 C 0 km/h
2832 01-09-2003 16:16:01 19.6 C 6.75 g/m*3 19.6 C 0 km/h
2833 01-09-2003 16:28:01 20.5 C 6.23 g/m*3 20.5 C 0 km/h
2834 01-09-2003 16:40:01 19.8 C 6.66 g/m*3 19.8 C 0 km/h
2835 01-09-2003 16:52:01 18.9 C 7.29 g/m*3 18.9 C 0 km/h
2836 01-09-2003 17:04:01 18.2 C 6.68 g/m*3 18.2 C 0 km/h
2837 01-09-2003 17:16:01 18 C 6.76 g/m*3 18 C 0 km/h
2838 01-09-2003 17:28:01 17.9 C 6.87 g/m*3 17.9 C 0 km/h
2839 01-09-2003 17:40:01 17.5 C 6.86 g/m*3 17.5 C 0 km/h
2840 01-09-2003 17:52:01 16.4 C 7.82 g/m*3 16.4 C 0 km/h
2841 01-09-2003 18:04:00 14.4 C 8.41 g/m*3 14.4 C 0 km/h
2842 01-09-2003 18:16:00 14.6 C 9.01 g/m*3 14.6 C 0 km/h
2843 01-09-2003 18:28:00 15.2 C 8.83 g/m*3 15.2 C 0 km/h
2844 01-09-2003 18:40:02 15.6 C 8.51 g/m*3 15.6 C 0 km/h
2845 01-09-2003 18:52:02 15.2 C 7.79 g/m*3 15.2 C 0 km/h
2846 01-09-2003 19:04:01 14.7 C 8.06 g/m*3 14.7 C 0 km/h
2847 01-09-2003 19:16:01 14.5 C 8.08 g/m*3 14.5 C 0 km/h
2848 01-09-2003 19:28:01 13.8 C 8.34 g/m*3 13.8 C 0 km/h
2849 01-09-2003 19:40:01 13.5 C 8.42 g/m*3 13.5 C 0 km/h
2850 01-09-2003 19:52:01 13.5 C 8.3 g/m*3 13.5 C 0 km/h
Sensor: Nr:Datum:Temp:Abs-Feuchte:Windchill:Wind:
Aussen-T/F 2851 01-09-2003 20:04:01 13.4 C 8.25 g/m*3 13.4 C 0 km/h
2852 01-09-2003 20:16:01 13.2 C 8.15 g/m*3 13.2 C 0 km/h
2853 01-09-2003 20:28:01 12.9 C 8.23 g/m*3 12.9 C 0 km/h
2854 01-09-2003 20:41:04 12.5 C 8.14 g/m*3 12.5 C 0 km/h
2855 01-09-2003 20:53:04 12.2 C 8.09 g/m*3 12.2 C 0 km/h
2856 01-09-2003 21:05:04 12.3 C 8.04 g/m*3 12.3 C 0 km/h
2857 01-09-2003 21:17:04 12.3 C 7.93 g/m*3 12.3 C 0 km/h
2858 01-09-2003 21:29:04 12.1 C 7.94 g/m*3 12.1 C 0 km/h
2859 01-09-2003 21:41:04 11.8 C 8 g/m*3 11.8 C 0 km/h
2860 01-09-2003 21:53:04 11.6 C 7.9 g/m*3 11.6 C 0 km/h
2861 01-09-2003 22:05:04 11.7 C 8.05 g/m*3 11.7 C 0 km/h
2862 01-09-2003 22:17:04 12 C 7.99 g/m*3 12 C 0 km/h
2863 01-09-2003 22:29:04 12.4 C 8.19 g/m*3 12.4 C 0 km/h
2864 01-09-2003 22:41:04 12 C 8.53 g/m*3 12 C 0 km/h
2865 01-09-2003 22:53:04 11.6 C 8.73 g/m*3 11.6 C 0 km/h
2866 01-09-2003 23:05:04 11.3 C 8.77 g/m*3 11.3 C 0 km/h
2867 01-09-2003 23:17:04 11 C 8.71 g/m*3 11 C 0 km/h
2868 01-09-2003 23:29:04 10.6 C 8.59 g/m*3 10.6 C 0 km/h
2869 01-09-2003 23:41:04 10.5 C 8.63 g/m*3 10.5 C 0 km/h
2870 01-09-2003 23:53:04 10.3 C 8.62 g/m*3 10.3 C 0 km/h
2871 02-09-2003 00:05:04 10.2 C 8.56 g/m*3 10.2 C 0 km/h
2872 02-09-2003 00:17:04 10.1 C 8.51 g/m*3 10.1 C 0 km/h
2873 02-09-2003 00:29:04 9.9 C 8.59 g/m*3 9.9 C 0 km/h
2874 02-09-2003 00:41:04 10 C 8.55 g/m*3 10 C 0 km/h
2875 02-09-2003 00:53:04 10 C 8.55 g/m*3 10 C 0 km/h
Sensor: Nr:Datum:Temp:Abs-Feuchte:Windchill:Wind:
Aussen-T/F 2876 02-09-2003 01:05:04 9.8 C 8.54 g/m*3 9.8 C 0 km/h
2877 02-09-2003 01:17:04 9.9 C 8.59 g/m*3 9.9 C 0 km/h
2878 02-09-2003 01:29:04 9.7 C 8.48 g/m*3 9.7 C 0 km/h
2879 02-09-2003 01:41:04 9.4 C 8.23 g/m*3 9.4 C 0 km/h
2880 02-09-2003 01:53:04 9.3 C 8.18 g/m*3 9.3 C 0 km/h
2881 02-09-2003 02:05:04 9.2 C 8.13 g/m*3 9.2 C 0 km/h
2882 02-09-2003 02:17:04 9.1 C 8.07 g/m*3 9.1 C 0 km/h
2883 02-09-2003 02:29:04 9.1 C 8.16 g/m*3 9.1 C 0 km/h
2884 02-09-2003 02:41:04 9 C 8.11 g/m*3 9 C 0 km/h
2885 02-09-2003 02:53:04 9 C 8.11 g/m*3 9 C 0 km/h
2886 02-09-2003 03:05:04 9 C 8.11 g/m*3 9 C 0 km/h
2887 02-09-2003 03:17:04 9 C 8.2 g/m*3 9 C 0 km/h
2888 02-09-2003 03:29:04 9.1 C 8.25 g/m*3 9.1 C 0 km/h
2889 02-09-2003 03:41:04 9.1 C 8.25 g/m*3 9.1 C 0 km/h
2890 02-09-2003 03:53:04 9.1 C 8.25 g/m*3 9.1 C 0 km/h
2891 02-09-2003 04:05:04 9 C 8.2 g/m*3 9 C 0 km/h
2892 02-09-2003 04:17:04 9.1 C 8.25 g/m*3 9.1 C 0 km/h
2893 02-09-2003 04:29:04 9.1 C 8.25 g/m*3 9.1 C 0 km/h
2894 02-09-2003 04:41:04 9.2 C 8.3 g/m*3 9.2 C 0 km/h
2895 02-09-2003 04:53:04 9.2 C 8.3 g/m*3 9.2 C 0 km/h
2896 02-09-2003 05:05:04 9.2 C 8.3 g/m*3 9.2 C 0 km/h
2897 02-09-2003 05:17:04 9 C 8.11 g/m*3 9 C 0 km/h
2898 02-09-2003 05:29:04 9.1 C 8.16 g/m*3 9.1 C 0 km/h
2899 02-09-2003 05:41:04 9 C 8.11 g/m*3 9 C 0 km/h
2900 02-09-2003 05:53:04 8.9 C 8.15 g/m*3 8.9 C 0 km/h
Sensor: Nr:Datum:Temp:Abs-Feuchte:Windchill:Wind:
Aussen-T/F 2901 02-09-2003 06:05:04 8.8 C 8.09 g/m*3 8.8 C 0 km/h
2902 02-09-2003 06:17:04 8.7 C 8.04 g/m*3 8.7 C 0 km/h
2903 02-09-2003 06:29:04 8.7 C 8.04 g/m*3 8.7 C 0 km/h
2904 02-09-2003 06:41:04 8.5 C 7.94 g/m*3 8.5 C 0 km/h
2905 02-09-2003 06:53:04 8.6 C 7.99 g/m*3 8.6 C 0 km/h
2906 02-09-2003 07:05:04 8.6 C 7.99 g/m*3 8.6 C 0 km/h
2907 02-09-2003 07:17:04 8.5 C 7.94 g/m*3 8.5 C 0 km/h
2908 02-09-2003 07:29:04 8.6 C 7.99 g/m*3 8.6 C 0 km/h
2909 02-09-2003 07:41:04 9 C 8.11 g/m*3 9 C 0 km/h
2910 02-09-2003 07:53:04 9.2 C 8.22 g/m*3 9.2 C 0 km/h
2911 02-09-2003 08:05:04 9.3 C 8.27 g/m*3 9.3 C 0 km/h
2912 02-09-2003 08:17:04 9.3 C 8.18 g/m*3 9.3 C 0 km/h
2913 02-09-2003 08:29:04 9.4 C 8.23 g/m*3 9.4 C 0 km/h
2914 02-09-2003 08:41:04 9.8 C 8.63 g/m*3 9.8 C 0 km/h
2915 02-09-2003 08:53:04 10.3 C 8.71 g/m*3 10.3 C 0 km/h
2916 02-09-2003 09:05:04 10.5 C 8.83 g/m*3 10.5 C 0 km/h
2917 02-09-2003 09:17:04 11.4 C 9.34 g/m*3 11.4 C 0 km/h
2918 02-09-2003 09:29:04 11.9 C 9.53 g/m*3 11.9 C 0 km/h
2919 02-09-2003 09:41:01 12 C 9.27 g/m*3 12 C 0 km/h
2920 02-09-2003 09:53:01 12.5 C 9.35 g/m*3 12.5 C 0 km/h
2921 02-09-2003 10:05:00 12.7 C 9.02 g/m*3 12.7 C 0 km/h
2922 02-09-2003 10:17:00 13 C 8.96 g/m*3 13 C 0 km/h
2923 02-09-2003 10:29:00 13.1 C 8.9 g/m*3 13.1 C 0 km/h
2924 02-09-2003 10:41:01 13.6 C 8.59 g/m*3 13.6 C 0 km/h
2925 02-09-2003 10:53:01 13.8 C 8.82 g/m*3 13.8 C 0 km/h
Sensor: Nr:Datum:Temp:Abs-Feuchte:Windchill:Wind:
Aussen-T/F 2926 02-09-2003 11:05:01 14.8 C 9.12 g/m*3 14.8 C 0 km/h
2927 02-09-2003 11:17:01 15.4 C 8.8 g/m*3 15.4 C 0 km/h
2928 02-09-2003 11:29:01 15.5 C 8.72 g/m*3 15.5 C 0 km/h
2929 02-09-2003 11:41:01 16.2 C 8.55 g/m*3 16.2 C 0 km/h
2930 02-09-2003 11:53:01 16 C 8.31 g/m*3 16 C 0 km/h
2931 02-09-2003 12:05:01 16 C 8.72 g/m*3 16 C 0 km/h
2932 02-09-2003 12:17:01 17.4 C 8.6 g/m*3 17.4 C 0 km/h
2933 02-09-2003 12:29:01 18.3 C 8.29 g/m*3 18.3 C 0 km/h
2934 02-09-2003 12:41:01 17.7 C 8 g/m*3 17.7 C 0 km/h
2935 02-09-2003 12:53:01 16.8 C 8.01 g/m*3 16.8 C 0 km/h
2936 02-09-2003 13:05:01 17.1 C 8.15 g/m*3 17.1 C 0 km/h
2937 02-09-2003 13:17:01 17.6 C 8.25 g/m*3 17.6 C 0 km/h
2938 02-09-2003 13:29:01 18.6 C 7.48 g/m*3 18.6 C 0 km/h
2939 02-09-2003 13:41:02 19.9 C 7.39 g/m*3 19.9 C 0 km/h
2940 02-09-2003 13:53:02 19.2 C 7.26 g/m*3 19.2 C 0 km/h
2941 02-09-2003 14:05:02 19.5 C 7.05 g/m*3 19.5 C 0 km/h
2942 02-09-2003 14:17:02 20.7 C 7.2 g/m*3 20.7 C 0 km/h
2943 02-09-2003 14:29:02 21.2 C 7.41 g/m*3 21.2 C 0 km/h
2944 02-09-2003 14:41:02 19.9 C 6.7 g/m*3 19.9 C 0 km/h
2945 02-09-2003 14:53:02 20.5 C 6.41 g/m*3 20.5 C 0 km/h
2946 02-09-2003 15:05:02 20.6 C 6.09 g/m*3 20.6 C 0 km/h
2947 02-09-2003 15:17:02 22.4 C 6.16 g/m*3 22.4 C 0 km/h
2948 02-09-2003 15:29:02 20.7 C 5.76 g/m*3 20.7 C 0 km/h
2949 02-09-2003 15:41:02 21.5 C 6.22 g/m*3 21.5 C 0 km/h
2950 02-09-2003 15:53:02 21.9 C 5.4 g/m*3 21.9 C 0 km/h
Sensor: Nr:Datum:Temp:Abs-Feuchte:Windchill:Wind:
Aussen-T/F 2951 02-09-2003 16:05:07 21.8 C 5.37 g/m*3 21.8 C 0 km/h
2952 02-09-2003 16:17:07 22.2 C 5.1 g/m*3 22.2 C 0 km/h
2953 02-09-2003 16:29:07 22.1 C 5.27 g/m*3 22.1 C 0 km/h
2954 02-09-2003 16:41:02 22.9 C 5.52 g/m*3 22.9 C 0 km/h
2955 02-09-2003 16:53:02 22 C 5.24 g/m*3 22 C 0 km/h
2956 02-09-2003 17:05:01 22.1 C 5.27 g/m*3 22.1 C 0 km/h
2957 02-09-2003 17:17:01 22.2 C 5.3 g/m*3 22.2 C 0 km/h
2958 02-09-2003 17:29:01 22.4 C 5.36 g/m*3 22.4 C 0 km/h
2959 02-09-2003 17:41:01 23 C 5.14 g/m*3 23 C 0 km/h
2960 02-09-2003 17:53:01 22.5 C 4.99 g/m*3 22.5 C 0 km/h
2961 02-09-2003 18:05:01 21.5 C 6.03 g/m*3 21.5 C 0 km/h
2962 02-09-2003 18:17:01 20.4 C 6.55 g/m*3 20.4 C 0 km/h
2963 02-09-2003 18:29:01 21.7 C 6.1 g/m*3 21.7 C 0 km/h
2964 02-09-2003 18:41:01 22.3 C 5.33 g/m*3 22.3 C 0 km/h
2965 02-09-2003 18:53:01 21.2 C 5.74 g/m*3 21.2 C 0 km/h
2966 02-09-2003 19:05:02 20.3 C 6.16 g/m*3 20.3 C 0 km/h
2967 02-09-2003 19:17:02 19.4 C 6.34 g/m*3 19.4 C 0 km/h
2968 02-09-2003 19:29:02 18.6 C 6.84 g/m*3 18.6 C 0 km/h
2969 02-09-2003 19:41:02 18.3 C 6.88 g/m*3 18.3 C 0 km/h
2970 02-09-2003 19:53:02 17.8 C 6.98 g/m*3 17.8 C 0 km/h
2971 02-09-2003 20:05:02 16.9 C 6.76 g/m*3 16.9 C 0 km/h
2972 02-09-2003 20:17:02 15.8 C 6.73 g/m*3 15.8 C 0 km/h
2973 02-09-2003 20:29:02 15.2 C 6.62 g/m*3 15.2 C 0 km/h
2974 02-09-2003 20:41:01 14.7 C 6.8 g/m*3 14.7 C 0 km/h
2975 02-09-2003 20:53:01 14.4 C 6.68 g/m*3 14.4 C 0 km/h
Sensor: Nr:Datum:Temp:Abs-Feuchte:Windchill:Wind:
Aussen-T/F 2976 02-09-2003 21:06:02 14.2 C 6.72 g/m*3 14.2 C 0 km/h
2977 02-09-2003 21:18:02 14 C 6.75 g/m*3 14 C 0 km/h
2978 02-09-2003 21:30:02 13.7 C 6.99 g/m*3 13.7 C 0 km/h
2979 02-09-2003 21:42:02 13.4 C 6.86 g/m*3 13.4 C 0 km/h
2980 02-09-2003 21:54:02 13.2 C 6.89 g/m*3 13.2 C 0 km/h
2981 02-09-2003 22:06:02 13.1 C 6.96 g/m*3 13.1 C 0 km/h
2982 02-09-2003 22:18:02 12.8 C 7.17 g/m*3 12.8 C 0 km/h
2983 02-09-2003 22:30:02 12.7 C 7.01 g/m*3 12.7 C 0 km/h
2984 02-09-2003 22:42:02 12.5 C 7.04 g/m*3 12.5 C 0 km/h
2985 02-09-2003 22:54:02 12.4 C 7.1 g/m*3 12.4 C 0 km/h
2986 02-09-2003 23:06:02 12.2 C 7.12 g/m*3 12.2 C 0 km/h
2987 02-09-2003 23:18:02 11.8 C 7.16 g/m*3 11.8 C 0 km/h
2988 02-09-2003 23:30:02 11.7 C 7.11 g/m*3 11.7 C 0 km/h
2989 02-09-2003 23:42:02 11.4 C 7.19 g/m*3 11.4 C 0 km/h
2990 02-09-2003 23:54:02 11.2 C 7.1 g/m*3 11.2 C 0 km/h
2991 03-09-2003 00:06:02 11 C 7.11 g/m*3 11 C 0 km/h
2992 03-09-2003 00:18:02 10.9 C 7.06 g/m*3 10.9 C 0 km/h
2993 03-09-2003 00:30:02 10.7 C 6.97 g/m*3 10.7 C 0 km/h
2994 03-09-2003 00:42:02 10.6 C 7.03 g/m*3 10.6 C 0 km/h
2995 03-09-2003 00:54:02 10.3 C 6.7 g/m*3 10.3 C 0 km/h
2996 03-09-2003 01:06:02 10.2 C 6.76 g/m*3 10.2 C 0 km/h
2997 03-09-2003 01:18:02 9.9 C 6.82 g/m*3 9.9 C 0 km/h
2998 03-09-2003 01:30:02 9.8 C 6.87 g/m*3 9.8 C 0 km/h
2999 03-09-2003 01:42:02 9.5 C 6.83 g/m*3 9.5 C 0 km/h
3000 03-09-2003 01:54:02 9.5 C 6.92 g/m*3 9.5 C 0 km/h
Sensor: Nr:Datum:Temp:Abs-Feuchte:Windchill:Wind:
Aussen-T/F 3001 03-09-2003 02:06:02 9.4 C 7.05 g/m*3 9.4 C 0 km/h
3002 03-09-2003 02:18:02 9.2 C 6.97 g/m*3 9.2 C 0 km/h
3003 03-09-2003 02:30:02 9 C 7.05 g/m*3 9 C 0 km/h
3004 03-09-2003 02:42:02 8.7 C 7.09 g/m*3 8.7 C 0 km/h
3005 03-09-2003 02:54:02 8.7 C 7.09 g/m*3 8.7 C 0 km/h
3006 03-09-2003 03:06:02 8.7 C 7.09 g/m*3 8.7 C 0 km/h
3007 03-09-2003 03:18:02 8.4 C 6.96 g/m*3 8.4 C 0 km/h
3008 03-09-2003 03:30:02 8.2 C 6.87 g/m*3 8.2 C 0 km/h
3009 03-09-2003 03:42:02 8.1 C 6.82 g/m*3 8.1 C 0 km/h
3010 03-09-2003 03:54:02 8 C 6.86 g/m*3 8 C 0 km/h
3011 03-09-2003 04:06:02 7.9 C 6.98 g/m*3 7.9 C 0 km/h
3012 03-09-2003 04:18:02 7.8 C 7.02 g/m*3 7.8 C 0 km/h
3013 03-09-2003 04:30:02 7.8 C 7.02 g/m*3 7.8 C 0 km/h
3014 03-09-2003 04:42:02 7.6 C 7.01 g/m*3 7.6 C 0 km/h
3015 03-09-2003 04:54:02 7.5 C 6.96 g/m*3 7.5 C 0 km/h
3016 03-09-2003 05:06:02 7.4 C 6.92 g/m*3 7.4 C 0 km/h
3017 03-09-2003 05:18:02 7.3 C 6.87 g/m*3 7.3 C 0 km/h
3018 03-09-2003 05:30:02 7.2 C 6.83 g/m*3 7.2 C 0 km/h
3019 03-09-2003 05:42:02 7 C 6.74 g/m*3 7 C 0 km/h
3020 03-09-2003 05:54:02 7 C 6.74 g/m*3 7 C 0 km/h
3021 03-09-2003 06:06:02 6.9 C 6.77 g/m*3 6.9 C 0 km/h
3022 03-09-2003 06:18:02 6.9 C 6.85 g/m*3 6.9 C 0 km/h
3023 03-09-2003 06:30:02 6.6 C 6.79 g/m*3 6.6 C 0 km/h
3024 03-09-2003 06:42:02 6.5 C 6.75 g/m*3 6.5 C 0 km/h
3025 03-09-2003 06:54:02 6.5 C 6.82 g/m*3 6.5 C 0 km/h
Sensor: Nr:Datum:Temp:Abs-Feuchte:Windchill:Wind:
Aussen-T/F 3026 03-09-2003 07:06:02 6.5 C 6.9 g/m*3 6.5 C 0 km/h
3027 03-09-2003 07:18:02 6.6 C 6.95 g/m*3 6.6 C 0 km/h
3028 03-09-2003 07:30:02 6.8 C 7.04 g/m*3 6.8 C 0 km/h
3029 03-09-2003 07:42:02 6.9 C 7.01 g/m*3 6.9 C 0 km/h
3030 03-09-2003 07:54:02 7.1 C 6.94 g/m*3 7.1 C 0 km/h
3031 03-09-2003 08:06:02 7.1 C 6.94 g/m*3 7.1 C 0 km/h
3032 03-09-2003 08:18:02 7.2 C 6.99 g/m*3 7.2 C 0 km/h
3033 03-09-2003 08:30:02 7.1 C 6.94 g/m*3 7.1 C 0 km/h
3034 03-09-2003 08:42:02 7.1 C 6.94 g/m*3 7.1 C 0 km/h
3035 03-09-2003 08:54:02 7.2 C 7.06 g/m*3 7.2 C 0 km/h
3036 03-09-2003 09:06:01 7.4 C 7.16 g/m*3 7.4 C 0 km/h
3037 03-09-2003 09:18:01 7.7 C 7.3 g/m*3 7.7 C 0 km/h
3038 03-09-2003 09:30:01 8 C 7.28 g/m*3 8 C 0 km/h
3039 03-09-2003 09:42:02 8.5 C 7.43 g/m*3 8.5 C 0 km/h
3040 03-09-2003 09:54:02 9.2 C 7.68 g/m*3 9.2 C 0 km/h
3041 03-09-2003 10:06:02 9.7 C 7.56 g/m*3 9.7 C 0 km/h
3042 03-09-2003 10:18:02 10.5 C 7.76 g/m*3 10.5 C 0 km/h
3043 03-09-2003 10:30:02 11.2 C 7.6 g/m*3 11.2 C 0 km/h
3044 03-09-2003 10:42:01 11.9 C 7.52 g/m*3 11.9 C 0 km/h
3045 03-09-2003 10:54:01 12.3 C 7.71 g/m*3 12.3 C 0 km/h
3046 03-09-2003 11:06:01 13.1 C 7.76 g/m*3 13.1 C 0 km/h
3047 03-09-2003 11:18:01 13.9 C 8.03 g/m*3 13.9 C 0 km/h
3048 03-09-2003 11:30:01 14.4 C 8.03 g/m*3 14.4 C 0 km/h
3049 03-09-2003 11:42:02 15.2 C 8.31 g/m*3 15.2 C 0 km/h
3050 03-09-2003 11:54:02 15.8 C 8.08 g/m*3 15.8 C 0 km/h
Sensor: Nr:Datum:Temp:Abs-Feuchte:Windchill:Wind:
Aussen-T/F 3051 03-09-2003 12:06:02 16.8 C 8.01 g/m*3 16.8 C 0 km/h
3052 03-09-2003 12:18:02 17.5 C 7.16 g/m*3 17.5 C 0 km/h
3053 03-09-2003 12:30:02 18 C 6.6 g/m*3 18 C 0 km/h
3054 03-09-2003 12:42:01 18.3 C 6.1 g/m*3 18.3 C 0 km/h
3055 03-09-2003 12:54:01 18.7 C 6.24 g/m*3 18.7 C 0 km/h
3056 03-09-2003 13:06:01 18.9 C 5.99 g/m*3 18.9 C 0 km/h
3057 03-09-2003 13:18:01 19.5 C 5.87 g/m*3 19.5 C 0 km/h
3058 03-09-2003 13:30:01 19.9 C 5.5 g/m*3 19.9 C 0 km/h
3059 03-09-2003 13:42:01 20.2 C 5.6 g/m*3 20.2 C 0 km/h
3060 03-09-2003 13:54:01 20.4 C 5.66 g/m*3 20.4 C 0 km/h
3061 03-09-2003 14:06:01 20.5 C 5.34 g/m*3 20.5 C 0 km/h
3062 03-09-2003 14:18:01 21.1 C 5.53 g/m*3 21.1 C 0 km/h
3063 03-09-2003 14:30:01 21.5 C 5.28 g/m*3 21.5 C 0 km/h
3064 03-09-2003 14:42:00 22.7 C 5.25 g/m*3 22.7 C 0 km/h
3065 03-09-2003 14:54:00 22.9 C 4.9 g/m*3 22.9 C 0 km/h
3066 03-09-2003 15:06:01 22.3 C 4.94 g/m*3 22.3 C 0 km/h
3067 03-09-2003 15:18:01 22 C 5.63 g/m*3 22 C 0 km/h
3068 03-09-2003 15:30:01 23.3 C 5.44 g/m*3 23.3 C 0 km/h
3069 03-09-2003 15:42:01 23.5 C 5.08 g/m*3 23.5 C 0 km/h
3070 03-09-2003 15:54:01 22.7 C 4.85 g/m*3 22.7 C 0 km/h
3071 03-09-2003 16:06:01 22.6 C 5.02 g/m*3 22.6 C 0 km/h
3072 03-09-2003 16:18:01 23.8 C 5.16 g/m*3 23.8 C 0 km/h
3073 03-09-2003 16:30:01 23 C 4.73 g/m*3 23 C 0 km/h
3074 03-09-2003 16:42:02 24.1 C 5.47 g/m*3 24.1 C 0 km/h
3075 03-09-2003 16:54:02 24.5 C 4.7 g/m*3 24.5 C 0 km/h
Sensor: Nr:Datum:Temp:Abs-Feuchte:Windchill:Wind:
Aussen-T/F 3076 03-09-2003 17:06:02 25 C 5.75 g/m*3 25 C 0 km/h
3077 03-09-2003 17:18:02 23.6 C 4.89 g/m*3 23.6 C 0 km/h
3078 03-09-2003 17:30:02 24.4 C 4.9 g/m*3 24.4 C 0 km/h
3079 03-09-2003 17:42:01 25.3 C 5.15 g/m*3 25.3 C 0 km/h
3080 03-09-2003 17:54:01 25 C 4.6 g/m*3 25 C 0 km/h
3081 03-09-2003 18:06:01 24.7 C 4.75 g/m*3 24.7 C 0 km/h
3082 03-09-2003 18:18:01 24.4 C 4.9 g/m*3 24.4 C 0 km/h
3083 03-09-2003 18:30:01 25.3 C 5.85 g/m*3 25.3 C 0 km/h
3084 03-09-2003 18:42:00 25.1 C 6.02 g/m*3 25.1 C 0 km/h
3085 03-09-2003 18:54:00 24.1 C 5.47 g/m*3 24.1 C 0 km/h
3086 03-09-2003 19:06:01 24 C 5.87 g/m*3 24 C 0 km/h
3087 03-09-2003 19:18:01 23.1 C 6.61 g/m*3 23.1 C 0 km/h
3088 03-09-2003 19:30:01 22.2 C 6.28 g/m*3 22.2 C 0 km/h
3089 03-09-2003 19:42:01 21.7 C 6.68 g/m*3 21.7 C 0 km/h
3090 03-09-2003 19:54:01 20.3 C 7.03 g/m*3 20.3 C 0 km/h
3091 03-09-2003 20:06:01 18.7 C 6.72 g/m*3 18.7 C 0 km/h
3092 03-09-2003 20:18:01 17.8 C 6.98 g/m*3 17.8 C 0 km/h
3093 03-09-2003 20:30:01 17.4 C 6.82 g/m*3 17.4 C 0 km/h
3094 03-09-2003 20:42:02 16.8 C 7.01 g/m*3 16.8 C 0 km/h
3095 03-09-2003 20:54:02 16.6 C 7.06 g/m*3 16.6 C 0 km/h
3096 03-09-2003 21:06:01 15.8 C 7 g/m*3 15.8 C 0 km/h
3097 03-09-2003 21:18:01 15.6 C 7.05 g/m*3 15.6 C 0 km/h
3098 03-09-2003 21:30:01 15.4 C 6.96 g/m*3 15.4 C 0 km/h
3099 03-09-2003 21:43:01 15.4 C 6.96 g/m*3 15.4 C 0 km/h
3100 03-09-2003 21:55:01 15.2 C 7.01 g/m*3 15.2 C 0 km/h
Sensor: Nr:Datum:Temp:Abs-Feuchte:Windchill:Wind:
Aussen-T/F 3101 03-09-2003 22:07:01 15.1 C 7.1 g/m*3 15.1 C 0 km/h
3102 03-09-2003 22:19:01 14.8 C 7.22 g/m*3 14.8 C 0 km/h
3103 03-09-2003 22:31:01 14.6 C 7.26 g/m*3 14.6 C 0 km/h
3104 03-09-2003 22:43:01 14.3 C 7.25 g/m*3 14.3 C 0 km/h
3105 03-09-2003 22:55:01 14.1 C 7.28 g/m*3 14.1 C 0 km/h
3106 03-09-2003 23:07:01 13.9 C 7.43 g/m*3 13.9 C 0 km/h
3107 03-09-2003 23:19:01 13.7 C 7.34 g/m*3 13.7 C 0 km/h
3108 03-09-2003 23:31:01 13.4 C 7.21 g/m*3 13.4 C 0 km/h
3109 03-09-2003 23:43:01 13.2 C 7.35 g/m*3 13.2 C 0 km/h
3110 03-09-2003 23:55:01 13 C 7.26 g/m*3 13 C 0 km/h
3111 04-09-2003 00:07:01 12.8 C 7.5 g/m*3 12.8 C 0 km/h
3112 04-09-2003 00:19:01 12.4 C 7.32 g/m*3 12.4 C 0 km/h
3113 04-09-2003 00:31:01 12.4 C 7.43 g/m*3 12.4 C 0 km/h
3114 04-09-2003 00:43:01 12.1 C 7.4 g/m*3 12.1 C 0 km/h
3115 04-09-2003 00:55:01 12 C 7.35 g/m*3 12 C 0 km/h
3116 04-09-2003 01:07:01 11.8 C 7.37 g/m*3 11.8 C 0 km/h
3117 04-09-2003 01:19:01 11.7 C 7.53 g/m*3 11.7 C 0 km/h
3118 04-09-2003 01:31:01 11.5 C 7.44 g/m*3 11.5 C 0 km/h
3119 04-09-2003 01:43:01 11.2 C 7.4 g/m*3 11.2 C 0 km/h
3120 04-09-2003 01:55:01 11.1 C 7.35 g/m*3 11.1 C 0 km/h
3121 04-09-2003 02:07:01 10.9 C 7.56 g/m*3 10.9 C 0 km/h
3122 04-09-2003 02:19:01 10.8 C 7.51 g/m*3 10.8 C 0 km/h
3123 04-09-2003 02:31:01 10.7 C 7.46 g/m*3 10.7 C 0 km/h
3124 04-09-2003 02:43:01 10.5 C 7.37 g/m*3 10.5 C 0 km/h
3125 04-09-2003 02:55:01 10.2 C 7.33 g/m*3 10.2 C 0 km/h
Sensor: Nr:Datum:Temp:Abs-Feuchte:Windchill:Wind:
Aussen-T/F 3126 04-09-2003 03:07:01 10 C 7.33 g/m*3 10 C 0 km/h
3127 04-09-2003 03:19:01 9.9 C 7.47 g/m*3 9.9 C 0 km/h
3128 04-09-2003 03:31:01 9.8 C 7.52 g/m*3 9.8 C 0 km/h
3129 04-09-2003 03:43:01 9.7 C 7.47 g/m*3 9.7 C 0 km/h
3130 04-09-2003 03:55:01 9.6 C 7.42 g/m*3 9.6 C 0 km/h
3131 04-09-2003 04:07:01 9.4 C 7.42 g/m*3 9.4 C 0 km/h
3132 04-09-2003 04:19:01 9.3 C 7.37 g/m*3 9.3 C 0 km/h
3133 04-09-2003 04:31:01 9.1 C 7.28 g/m*3 9.1 C 0 km/h
3134 04-09-2003 04:43:01 9 C 7.32 g/m*3 9 C 0 km/h
3135 04-09-2003 04:55:01 9 C 7.41 g/m*3 9 C 0 km/h
3136 04-09-2003 05:07:01 8.8 C 7.4 g/m*3 8.8 C 0 km/h
3137 04-09-2003 05:19:01 8.7 C 7.44 g/m*3 8.7 C 0 km/h
3138 04-09-2003 05:31:01 8.7 C 7.52 g/m*3 8.7 C 0 km/h
3139 04-09-2003 05:43:01 8.6 C 7.48 g/m*3 8.6 C 0 km/h
3140 04-09-2003 05:55:01 8.4 C 7.3 g/m*3 8.4 C 0 km/h
3141 04-09-2003 06:07:01 8.3 C 7.25 g/m*3 8.3 C 0 km/h
3142 04-09-2003 06:19:01 8.2 C 7.2 g/m*3 8.2 C 0 km/h
3143 04-09-2003 06:31:01 8.1 C 7.16 g/m*3 8.1 C 0 km/h
3144 04-09-2003 06:43:01 8 C 7.11 g/m*3 8 C 0 km/h
3145 04-09-2003 06:55:01 8 C 7.19 g/m*3 8 C 0 km/h
3146 04-09-2003 07:07:01 7.9 C 7.23 g/m*3 7.9 C 0 km/h
3147 04-09-2003 07:19:01 8 C 7.19 g/m*3 8 C 0 km/h
3148 04-09-2003 07:31:01 8 C 7.28 g/m*3 8 C 0 km/h
3149 04-09-2003 07:43:01 8 C 7.19 g/m*3 8 C 0 km/h
3150 04-09-2003 07:55:01 8 C 7.19 g/m*3 8 C 0 km/h
Sensor: Nr:Datum:Temp:Abs-Feuchte:Windchill:Wind:
Aussen-T/F 3151 04-09-2003 08:07:01 8.2 C 7.29 g/m*3 8.2 C 0 km/h
3152 04-09-2003 08:19:01 8.1 C 7.32 g/m*3 8.1 C 0 km/h
3153 04-09-2003 08:31:01 8.2 C 7.45 g/m*3 8.2 C 0 km/h
3154 04-09-2003 08:43:01 8.4 C 7.63 g/m*3 8.4 C 0 km/h
3155 04-09-2003 08:55:01 8.6 C 7.65 g/m*3 8.6 C 0 km/h
3156 04-09-2003 09:07:02 8.9 C 7.8 g/m*3 8.9 C 0 km/h
3157 04-09-2003 09:19:02 9.1 C 7.72 g/m*3 9.1 C 0 km/h
3158 04-09-2003 09:31:02 9.5 C 7.92 g/m*3 9.5 C 0 km/h
3159 04-09-2003 09:43:01 10 C 7.99 g/m*3 10 C 0 km/h
3160 04-09-2003 09:55:01 10.6 C 8.2 g/m*3 10.6 C 0 km/h
3161 04-09-2003 10:07:00 11.4 C 8.31 g/m*3 11.4 C 0 km/h
3162 04-09-2003 10:19:00 12.2 C 8.31 g/m*3 12.2 C 0 km/h
3163 04-09-2003 10:31:00 12.8 C 8.51 g/m*3 12.8 C 0 km/h
3164 04-09-2003 10:43:01 13.3 C 8.55 g/m*3 13.3 C 0 km/h
3165 04-09-2003 10:55:01 14.2 C 8.79 g/m*3 14.2 C 0 km/h
3166 04-09-2003 11:07:02 15 C 8.85 g/m*3 15 C 0 km/h
3167 04-09-2003 11:19:02 15.7 C 8.83 g/m*3 15.7 C 0 km/h
3168 04-09-2003 11:31:02 16.3 C 9.3 g/m*3 16.3 C 0 km/h
3169 04-09-2003 11:43:01 17 C 9.12 g/m*3 17 C 0 km/h
3170 04-09-2003 11:55:01 17.8 C 9.11 g/m*3 17.8 C 0 km/h
3171 04-09-2003 12:07:00 18.4 C 9.12 g/m*3 18.4 C 0 km/h
3172 04-09-2003 12:19:00 18.9 C 9.23 g/m*3 18.9 C 0 km/h
3173 04-09-2003 12:31:00 19.5 C 8.56 g/m*3 19.5 C 0 km/h
3174 04-09-2003 12:43:02 20 C 8.12 g/m*3 20 C 0 km/h
3175 04-09-2003 12:55:02 20.4 C 7.08 g/m*3 20.4 C 0 km/h
Sensor: Nr:Datum:Temp:Abs-Feuchte:Windchill:Wind:
Aussen-T/F 3176 04-09-2003 13:07:01 21 C 6.78 g/m*3 21 C 0 km/h
3177 04-09-2003 13:19:01 21.6 C 7.02 g/m*3 21.6 C 0 km/h
3178 04-09-2003 13:31:01 22.1 C 6.83 g/m*3 22.1 C 0 km/h
3179 04-09-2003 13:43:01 22.3 C 6.71 g/m*3 22.3 C 0 km/h
3180 04-09-2003 13:55:01 23.2 C 6.24 g/m*3 23.2 C 0 km/h
3181 04-09-2003 14:07:01 23.8 C 6.45 g/m*3 23.8 C 0 km/h
3182 04-09-2003 14:19:01 24.2 C 5.72 g/m*3 24.2 C 0 km/h
3183 04-09-2003 14:31:01 24.5 C 6.04 g/m*3 24.5 C 0 km/h
3184 04-09-2003 14:43:00 24.3 C 5.75 g/m*3 24.3 C 0 km/h
3185 04-09-2003 14:55:00 25.2 C 5.82 g/m*3 25.2 C 0 km/h
3186 04-09-2003 15:07:01 26.2 C 6.15 g/m*3 26.2 C 0 km/h
3187 04-09-2003 15:19:01 26.3 C 6.19 g/m*3 26.3 C 0 km/h
3188 04-09-2003 15:31:01 26.9 C 6.14 g/m*3 26.9 C 0 km/h
3189 04-09-2003 15:43:00 27.5 C 5.82 g/m*3 27.5 C 0 km/h
3190 04-09-2003 15:55:00 27.5 C 6.08 g/m*3 27.5 C 0 km/h
3191 04-09-2003 16:07:01 27.7 C 5.88 g/m*3 27.7 C 0 km/h
3192 04-09-2003 16:19:01 27.9 C 5.68 g/m*3 27.9 C 0 km/h
3193 04-09-2003 16:31:01 27.9 C 5.95 g/m*3 27.9 C 0 km/h
3194 04-09-2003 16:43:01 27.7 C 5.88 g/m*3 27.7 C 0 km/h
3195 04-09-2003 16:55:01 27.7 C 5.62 g/m*3 27.7 C 0 km/h
3196 04-09-2003 17:07:01 27.9 C 5.68 g/m*3 27.9 C 0 km/h
3197 04-09-2003 17:19:01 28.8 C 6.53 g/m*3 28.8 C 0 km/h
3198 04-09-2003 17:31:01 29 C 6.32 g/m*3 29 C 0 km/h
3199 04-09-2003 17:43:00 28.8 C 6.25 g/m*3 28.8 C 0 km/h
3200 04-09-2003 17:55:00 28.8 C 5.97 g/m*3 28.8 C 0 km/h
Sensor: Nr:Datum:Temp:Abs-Feuchte:Windchill:Wind:
Aussen-T/F 3201 04-09-2003 18:07:01 28.7 C 6.22 g/m*3 28.7 C 0 km/h
3202 04-09-2003 18:19:01 28.5 C 6.71 g/m*3 28.5 C 0 km/h
3203 04-09-2003 18:31:01 28.3 C 6.36 g/m*3 28.3 C 0 km/h
3204 04-09-2003 18:43:01 28.2 C 6.6 g/m*3 28.2 C 0 km/h
3205 04-09-2003 18:55:01 27.9 C 7.3 g/m*3 27.9 C 0 km/h
3206 04-09-2003 19:07:01 27.3 C 7.59 g/m*3 27.3 C 0 km/h
3207 04-09-2003 19:19:01 26.5 C 7.76 g/m*3 26.5 C 0 km/h
3208 04-09-2003 19:31:01 25.4 C 7.77 g/m*3 25.4 C 0 km/h
3209 04-09-2003 19:43:02 24.1 C 7.66 g/m*3 24.1 C 0 km/h
3210 04-09-2003 19:55:02 22.8 C 7.32 g/m*3 22.8 C 0 km/h
3211 04-09-2003 20:07:02 21.6 C 7.21 g/m*3 21.6 C 0 km/h
3212 04-09-2003 20:19:02 21 C 6.96 g/m*3 21 C 0 km/h
3213 04-09-2003 20:31:02 20.6 C 7.34 g/m*3 20.6 C 0 km/h
3214 04-09-2003 20:43:01 20.1 C 7.82 g/m*3 20.1 C 0 km/h
3215 04-09-2003 20:55:01 19.4 C 7.51 g/m*3 19.4 C 0 km/h
3216 04-09-2003 21:07:02 18.9 C 7.61 g/m*3 18.9 C 0 km/h
3217 04-09-2003 21:19:02 18.3 C 7.66 g/m*3 18.3 C 0 km/h
3218 04-09-2003 21:31:02 18.1 C 7.73 g/m*3 18.1 C 0 km/h
3219 04-09-2003 21:43:01 17.8 C 7.59 g/m*3 17.8 C 0 km/h
3220 04-09-2003 21:55:01 17.5 C 7.75 g/m*3 17.5 C 0 km/h
3221 04-09-2003 22:07:01 17.3 C 7.81 g/m*3 17.3 C 0 km/h
3222 04-09-2003 22:19:01 17 C 7.67 g/m*3 17 C 0 km/h
3223 04-09-2003 22:31:01 16.6 C 7.77 g/m*3 16.6 C 0 km/h
3224 04-09-2003 22:44:04 16.4 C 7.96 g/m*3